<?xml version="1.0" encoding="UTF-8" standalone="no" ?>
<gpx xmlns="http://www.topografix.com/GPX/1/1" xmlns:xsi="http://www.w3.org/2001/XMLSchema-instance" xsi:schemaLocation="http://www.topografix.com/GPX/1/1 http://www.topografix.com/GPX/1/1/gpx.xsd" version="1.1" creator="VisuGPX - https://www.visugpx.com">
  <metadata>
    <name>La tête de Louis XVI 12 OCT 2017 08:49</name>
  </metadata>
  <trk>
    <name><![CDATA[La tête de louis Seize: 12 OCT 2017 08:49]]></name>
    <extensions>
      <line xmlns="http://www.topografix.com/GPX/gpx_style/0/2">
        <color>0000FF</color>
        <width>4</width>
      </line>
    </extensions>
    <trkseg>
      <trkpt lat="44.41129" lon="6.47">
        <ele>1337.81</ele>
        <time>2017-10-12T06:49:53Z</time>
      </trkpt>
      <trkpt lat="44.41129" lon="6.47">
        <ele>1337.81</ele>
        <time>2017-10-12T06:49:53Z</time>
      </trkpt>
      <trkpt lat="44.41129" lon="6.47">
        <ele>1340.22</ele>
        <time>2017-10-12T06:49:54Z</time>
      </trkpt>
      <trkpt lat="44.41129" lon="6.47">
        <ele>1345.02</ele>
        <time>2017-10-12T06:49:56Z</time>
      </trkpt>
      <trkpt lat="44.41129" lon="6.47">
        <ele>1349.83</ele>
        <time>2017-10-12T06:49:58Z</time>
      </trkpt>
      <trkpt lat="44.41128" lon="6.47">
        <ele>1354.15</ele>
        <time>2017-10-12T06:50:00Z</time>
      </trkpt>
      <trkpt lat="44.41128" lon="6.47">
        <ele>1358</ele>
        <time>2017-10-12T06:50:02Z</time>
      </trkpt>
      <trkpt lat="44.41127" lon="6.47">
        <ele>1361.84</ele>
        <time>2017-10-12T06:50:04Z</time>
      </trkpt>
      <trkpt lat="44.41125" lon="6.47001">
        <ele>1365.21</ele>
        <time>2017-10-12T06:50:06Z</time>
      </trkpt>
      <trkpt lat="44.41125" lon="6.47002">
        <ele>1368.57</ele>
        <time>2017-10-12T06:50:08Z</time>
      </trkpt>
      <trkpt lat="44.41125" lon="6.47004">
        <ele>1371.94</ele>
        <time>2017-10-12T06:50:10Z</time>
      </trkpt>
      <trkpt lat="44.41123" lon="6.47004">
        <ele>1376.26</ele>
        <time>2017-10-12T06:50:13Z</time>
      </trkpt>
      <trkpt lat="44.41123" lon="6.47002">
        <ele>1380.59</ele>
        <time>2017-10-12T06:50:16Z</time>
      </trkpt>
      <trkpt lat="44.41123" lon="6.47002">
        <ele>1383.96</ele>
        <time>2017-10-12T06:50:19Z</time>
      </trkpt>
      <trkpt lat="44.41124" lon="6.47002">
        <ele>1387.32</ele>
        <time>2017-10-12T06:50:23Z</time>
      </trkpt>
      <trkpt lat="44.41126" lon="6.47003">
        <ele>1390.68</ele>
        <time>2017-10-12T06:50:27Z</time>
      </trkpt>
      <trkpt lat="44.41129" lon="6.47001">
        <ele>1394.53</ele>
        <time>2017-10-12T06:50:32Z</time>
      </trkpt>
      <trkpt lat="44.41128" lon="6.46998">
        <ele>1397.89</ele>
        <time>2017-10-12T06:50:38Z</time>
      </trkpt>
      <trkpt lat="44.41128" lon="6.46998">
        <ele>1398.86</ele>
        <time>2017-10-12T06:50:40Z</time>
      </trkpt>
      <trkpt lat="44.41127" lon="6.46999">
        <ele>1401.74</ele>
        <time>2017-10-12T06:50:47Z</time>
      </trkpt>
      <trkpt lat="44.41127" lon="6.47">
        <ele>1403.18</ele>
        <time>2017-10-12T06:50:50Z</time>
      </trkpt>
      <trkpt lat="44.41126" lon="6.47">
        <ele>1406.55</ele>
        <time>2017-10-12T06:50:58Z</time>
      </trkpt>
      <trkpt lat="44.41126" lon="6.46999">
        <ele>1406.07</ele>
        <time>2017-10-12T06:50:59Z</time>
      </trkpt>
      <trkpt lat="44.41125" lon="6.46995">
        <ele>1409.43</ele>
        <time>2017-10-12T06:51:11Z</time>
      </trkpt>
      <trkpt lat="44.41127" lon="6.46994">
        <ele>1412.31</ele>
        <time>2017-10-12T06:51:27Z</time>
      </trkpt>
      <trkpt lat="44.41127" lon="6.46997">
        <ele>1414.24</ele>
        <time>2017-10-12T06:51:47Z</time>
      </trkpt>
      <trkpt lat="44.41123" lon="6.46996">
        <ele>1413.28</ele>
        <time>2017-10-12T06:51:58Z</time>
      </trkpt>
      <trkpt lat="44.41125" lon="6.46997">
        <ele>1413.28</ele>
        <time>2017-10-12T06:52:22Z</time>
      </trkpt>
      <trkpt lat="44.41127" lon="6.46999">
        <ele>1413.28</ele>
        <time>2017-10-12T06:52:28Z</time>
      </trkpt>
      <trkpt lat="44.4113" lon="6.46999">
        <ele>1414.24</ele>
        <time>2017-10-12T06:52:38Z</time>
      </trkpt>
      <trkpt lat="44.41129" lon="6.46995">
        <ele>1414.24</ele>
        <time>2017-10-12T06:52:53Z</time>
      </trkpt>
      <trkpt lat="44.41127" lon="6.46997">
        <ele>1414.24</ele>
        <time>2017-10-12T06:53:06Z</time>
      </trkpt>
      <trkpt lat="44.41124" lon="6.47">
        <ele>1414.24</ele>
        <time>2017-10-12T06:53:30Z</time>
      </trkpt>
      <trkpt lat="44.41118" lon="6.47017">
        <ele>1413.76</ele>
        <time>2017-10-12T06:53:45Z</time>
      </trkpt>
      <trkpt lat="44.41117" lon="6.47018">
        <ele>1415.2</ele>
        <time>2017-10-12T06:53:47Z</time>
      </trkpt>
      <trkpt lat="44.4111" lon="6.4703">
        <ele>1416.16</ele>
        <time>2017-10-12T06:54:02Z</time>
      </trkpt>
      <trkpt lat="44.41108" lon="6.47051">
        <ele>1417.12</ele>
        <time>2017-10-12T06:54:18Z</time>
      </trkpt>
      <trkpt lat="44.41107" lon="6.47055">
        <ele>1417.6</ele>
        <time>2017-10-12T06:54:22Z</time>
      </trkpt>
      <trkpt lat="44.41109" lon="6.47068">
        <ele>1418.56</ele>
        <time>2017-10-12T06:54:37Z</time>
      </trkpt>
      <trkpt lat="44.41108" lon="6.47085">
        <ele>1420</ele>
        <time>2017-10-12T06:54:53Z</time>
      </trkpt>
      <trkpt lat="44.41106" lon="6.47105">
        <ele>1421.45</ele>
        <time>2017-10-12T06:55:07Z</time>
      </trkpt>
      <trkpt lat="44.41105" lon="6.47126">
        <ele>1422.89</ele>
        <time>2017-10-12T06:55:23Z</time>
      </trkpt>
      <trkpt lat="44.41104" lon="6.4714">
        <ele>1424.33</ele>
        <time>2017-10-12T06:55:37Z</time>
      </trkpt>
      <trkpt lat="44.41105" lon="6.47156">
        <ele>1425.77</ele>
        <time>2017-10-12T06:55:52Z</time>
      </trkpt>
      <trkpt lat="44.41104" lon="6.47169">
        <ele>1427.21</ele>
        <time>2017-10-12T06:56:08Z</time>
      </trkpt>
      <trkpt lat="44.41102" lon="6.47181">
        <ele>1428.66</ele>
        <time>2017-10-12T06:56:22Z</time>
      </trkpt>
      <trkpt lat="44.41109" lon="6.47194">
        <ele>1430.1</ele>
        <time>2017-10-12T06:56:37Z</time>
      </trkpt>
      <trkpt lat="44.41118" lon="6.47203">
        <ele>1432.02</ele>
        <time>2017-10-12T06:56:54Z</time>
      </trkpt>
      <trkpt lat="44.41132" lon="6.4721">
        <ele>1433.94</ele>
        <time>2017-10-12T06:57:13Z</time>
      </trkpt>
      <trkpt lat="44.41146" lon="6.47209">
        <ele>1435.39</ele>
        <time>2017-10-12T06:57:30Z</time>
      </trkpt>
      <trkpt lat="44.41155" lon="6.47204">
        <ele>1436.83</ele>
        <time>2017-10-12T06:57:45Z</time>
      </trkpt>
      <trkpt lat="44.41165" lon="6.47197">
        <ele>1438.27</ele>
        <time>2017-10-12T06:57:59Z</time>
      </trkpt>
      <trkpt lat="44.41174" lon="6.47191">
        <ele>1439.23</ele>
        <time>2017-10-12T06:58:13Z</time>
      </trkpt>
      <trkpt lat="44.41176" lon="6.47189">
        <ele>1439.23</ele>
        <time>2017-10-12T06:58:16Z</time>
      </trkpt>
      <trkpt lat="44.41183" lon="6.47183">
        <ele>1440.19</ele>
        <time>2017-10-12T06:58:29Z</time>
      </trkpt>
      <trkpt lat="44.41192" lon="6.47178">
        <ele>1440.67</ele>
        <time>2017-10-12T06:58:42Z</time>
      </trkpt>
      <trkpt lat="44.412" lon="6.47172">
        <ele>1441.15</ele>
        <time>2017-10-12T06:58:55Z</time>
      </trkpt>
      <trkpt lat="44.41211" lon="6.47165">
        <ele>1442.11</ele>
        <time>2017-10-12T06:59:09Z</time>
      </trkpt>
      <trkpt lat="44.41225" lon="6.4717">
        <ele>1443.08</ele>
        <time>2017-10-12T06:59:24Z</time>
      </trkpt>
      <trkpt lat="44.41226" lon="6.4717">
        <ele>1443.08</ele>
        <time>2017-10-12T06:59:25Z</time>
      </trkpt>
      <trkpt lat="44.41241" lon="6.4717">
        <ele>1444.04</ele>
        <time>2017-10-12T06:59:41Z</time>
      </trkpt>
      <trkpt lat="44.41257" lon="6.47171">
        <ele>1446.44</ele>
        <time>2017-10-12T07:00:01Z</time>
      </trkpt>
      <trkpt lat="44.41267" lon="6.47179">
        <ele>1447.88</ele>
        <time>2017-10-12T07:00:16Z</time>
      </trkpt>
      <trkpt lat="44.41275" lon="6.47181">
        <ele>1448.84</ele>
        <time>2017-10-12T07:00:29Z</time>
      </trkpt>
      <trkpt lat="44.41288" lon="6.47183">
        <ele>1449.32</ele>
        <time>2017-10-12T07:00:45Z</time>
      </trkpt>
      <trkpt lat="44.413" lon="6.4719">
        <ele>1449.32</ele>
        <time>2017-10-12T07:01:00Z</time>
      </trkpt>
      <trkpt lat="44.41311" lon="6.47187">
        <ele>1449.32</ele>
        <time>2017-10-12T07:01:14Z</time>
      </trkpt>
      <trkpt lat="44.41324" lon="6.47188">
        <ele>1449.32</ele>
        <time>2017-10-12T07:01:28Z</time>
      </trkpt>
      <trkpt lat="44.41337" lon="6.47192">
        <ele>1449.81</ele>
        <time>2017-10-12T07:01:41Z</time>
      </trkpt>
      <trkpt lat="44.4135" lon="6.472">
        <ele>1449.81</ele>
        <time>2017-10-12T07:01:57Z</time>
      </trkpt>
      <trkpt lat="44.41363" lon="6.47207">
        <ele>1449.81</ele>
        <time>2017-10-12T07:02:12Z</time>
      </trkpt>
      <trkpt lat="44.41364" lon="6.4721">
        <ele>1449.32</ele>
        <time>2017-10-12T07:02:14Z</time>
      </trkpt>
      <trkpt lat="44.4137" lon="6.4722">
        <ele>1449.81</ele>
        <time>2017-10-12T07:02:28Z</time>
      </trkpt>
      <trkpt lat="44.41372" lon="6.47221">
        <ele>1449.81</ele>
        <time>2017-10-12T07:02:30Z</time>
      </trkpt>
      <trkpt lat="44.41375" lon="6.47218">
        <ele>1449.81</ele>
        <time>2017-10-12T07:02:34Z</time>
      </trkpt>
      <trkpt lat="44.41385" lon="6.47205">
        <ele>1450.77</ele>
        <time>2017-10-12T07:02:49Z</time>
      </trkpt>
      <trkpt lat="44.41399" lon="6.47199">
        <ele>1451.25</ele>
        <time>2017-10-12T07:03:05Z</time>
      </trkpt>
      <trkpt lat="44.41413" lon="6.47198">
        <ele>1451.25</ele>
        <time>2017-10-12T07:03:19Z</time>
      </trkpt>
      <trkpt lat="44.41423" lon="6.47199">
        <ele>1451.73</ele>
        <time>2017-10-12T07:03:30Z</time>
      </trkpt>
      <trkpt lat="44.41441" lon="6.47204">
        <ele>1452.21</ele>
        <time>2017-10-12T07:03:48Z</time>
      </trkpt>
      <trkpt lat="44.41458" lon="6.47207">
        <ele>1451.73</ele>
        <time>2017-10-12T07:04:04Z</time>
      </trkpt>
      <trkpt lat="44.41471" lon="6.47208">
        <ele>1452.69</ele>
        <time>2017-10-12T07:04:18Z</time>
      </trkpt>
      <trkpt lat="44.4148" lon="6.47216">
        <ele>1454.61</ele>
        <time>2017-10-12T07:04:34Z</time>
      </trkpt>
      <trkpt lat="44.41488" lon="6.47223">
        <ele>1456.53</ele>
        <time>2017-10-12T07:04:51Z</time>
      </trkpt>
      <trkpt lat="44.41496" lon="6.47227">
        <ele>1458.94</ele>
        <time>2017-10-12T07:05:07Z</time>
      </trkpt>
      <trkpt lat="44.415" lon="6.47232">
        <ele>1459.42</ele>
        <time>2017-10-12T07:05:22Z</time>
      </trkpt>
      <trkpt lat="44.41503" lon="6.47224">
        <ele>1459.9</ele>
        <time>2017-10-12T07:05:35Z</time>
      </trkpt>
      <trkpt lat="44.41513" lon="6.47213">
        <ele>1460.86</ele>
        <time>2017-10-12T07:05:50Z</time>
      </trkpt>
      <trkpt lat="44.41521" lon="6.4721">
        <ele>1462.3</ele>
        <time>2017-10-12T07:06:04Z</time>
      </trkpt>
      <trkpt lat="44.4153" lon="6.47205">
        <ele>1463.74</ele>
        <time>2017-10-12T07:06:17Z</time>
      </trkpt>
      <trkpt lat="44.41542" lon="6.47196">
        <ele>1465.67</ele>
        <time>2017-10-12T07:06:36Z</time>
      </trkpt>
      <trkpt lat="44.41549" lon="6.47183">
        <ele>1467.59</ele>
        <time>2017-10-12T07:06:54Z</time>
      </trkpt>
      <trkpt lat="44.41551" lon="6.47167">
        <ele>1469.03</ele>
        <time>2017-10-12T07:07:11Z</time>
      </trkpt>
      <trkpt lat="44.41554" lon="6.47155">
        <ele>1470.95</ele>
        <time>2017-10-12T07:07:27Z</time>
      </trkpt>
      <trkpt lat="44.41557" lon="6.4714">
        <ele>1473.36</ele>
        <time>2017-10-12T07:07:45Z</time>
      </trkpt>
      <trkpt lat="44.41559" lon="6.47131">
        <ele>1475.28</ele>
        <time>2017-10-12T07:07:58Z</time>
      </trkpt>
      <trkpt lat="44.41563" lon="6.4712">
        <ele>1476.72</ele>
        <time>2017-10-12T07:08:10Z</time>
      </trkpt>
      <trkpt lat="44.41574" lon="6.47109">
        <ele>1478.65</ele>
        <time>2017-10-12T07:08:27Z</time>
      </trkpt>
      <trkpt lat="44.41583" lon="6.47103">
        <ele>1481.05</ele>
        <time>2017-10-12T07:08:45Z</time>
      </trkpt>
      <trkpt lat="44.41589" lon="6.47093">
        <ele>1483.45</ele>
        <time>2017-10-12T07:09:03Z</time>
      </trkpt>
      <trkpt lat="44.41595" lon="6.47082">
        <ele>1485.85</ele>
        <time>2017-10-12T07:09:21Z</time>
      </trkpt>
      <trkpt lat="44.41602" lon="6.47078">
        <ele>1487.78</ele>
        <time>2017-10-12T07:09:36Z</time>
      </trkpt>
      <trkpt lat="44.41603" lon="6.4709">
        <ele>1490.18</ele>
        <time>2017-10-12T07:09:53Z</time>
      </trkpt>
      <trkpt lat="44.41604" lon="6.47109">
        <ele>1492.58</ele>
        <time>2017-10-12T07:10:13Z</time>
      </trkpt>
      <trkpt lat="44.41603" lon="6.47121">
        <ele>1494.51</ele>
        <time>2017-10-12T07:10:29Z</time>
      </trkpt>
      <trkpt lat="44.41597" lon="6.47132">
        <ele>1497.87</ele>
        <time>2017-10-12T07:10:49Z</time>
      </trkpt>
      <trkpt lat="44.41607" lon="6.47127">
        <ele>1499.31</ele>
        <time>2017-10-12T07:11:05Z</time>
      </trkpt>
      <trkpt lat="44.41616" lon="6.47115">
        <ele>1502.2</ele>
        <time>2017-10-12T07:11:23Z</time>
      </trkpt>
      <trkpt lat="44.4162" lon="6.47104">
        <ele>1503.64</ele>
        <time>2017-10-12T07:11:37Z</time>
      </trkpt>
      <trkpt lat="44.41623" lon="6.4709">
        <ele>1505.56</ele>
        <time>2017-10-12T07:11:52Z</time>
      </trkpt>
      <trkpt lat="44.41626" lon="6.4708">
        <ele>1507.48</ele>
        <time>2017-10-12T07:12:08Z</time>
      </trkpt>
      <trkpt lat="44.41631" lon="6.4707">
        <ele>1509.41</ele>
        <time>2017-10-12T07:12:22Z</time>
      </trkpt>
      <trkpt lat="44.41638" lon="6.47061">
        <ele>1510.85</ele>
        <time>2017-10-12T07:12:35Z</time>
      </trkpt>
      <trkpt lat="44.41646" lon="6.47048">
        <ele>1512.29</ele>
        <time>2017-10-12T07:12:51Z</time>
      </trkpt>
      <trkpt lat="44.4165" lon="6.47039">
        <ele>1513.73</ele>
        <time>2017-10-12T07:13:05Z</time>
      </trkpt>
      <trkpt lat="44.41656" lon="6.47041">
        <ele>1514.69</ele>
        <time>2017-10-12T07:13:21Z</time>
      </trkpt>
      <trkpt lat="44.41655" lon="6.47041">
        <ele>1514.69</ele>
        <time>2017-10-12T07:13:26Z</time>
      </trkpt>
      <trkpt lat="44.41656" lon="6.47046">
        <ele>1513.73</ele>
        <time>2017-10-12T07:13:38Z</time>
      </trkpt>
      <trkpt lat="44.41656" lon="6.47046">
        <ele>1513.73</ele>
        <time>2017-10-12T07:14:07Z</time>
      </trkpt>
      <trkpt lat="44.41656" lon="6.47044">
        <ele>1513.73</ele>
        <time>2017-10-12T07:14:27Z</time>
      </trkpt>
      <trkpt lat="44.41656" lon="6.47043">
        <ele>1514.21</ele>
        <time>2017-10-12T07:14:36Z</time>
      </trkpt>
      <trkpt lat="44.41657" lon="6.47042">
        <ele>1514.69</ele>
        <time>2017-10-12T07:14:58Z</time>
      </trkpt>
      <trkpt lat="44.41657" lon="6.47047">
        <ele>1514.69</ele>
        <time>2017-10-12T07:15:19Z</time>
      </trkpt>
      <trkpt lat="44.41658" lon="6.47036">
        <ele>1515.66</ele>
        <time>2017-10-12T07:15:38Z</time>
      </trkpt>
      <trkpt lat="44.41666" lon="6.47028">
        <ele>1518.54</ele>
        <time>2017-10-12T07:15:52Z</time>
      </trkpt>
      <trkpt lat="44.41667" lon="6.47014">
        <ele>1521.42</ele>
        <time>2017-10-12T07:16:10Z</time>
      </trkpt>
      <trkpt lat="44.41667" lon="6.47">
        <ele>1523.35</ele>
        <time>2017-10-12T07:16:27Z</time>
      </trkpt>
      <trkpt lat="44.41666" lon="6.4699">
        <ele>1526.23</ele>
        <time>2017-10-12T07:16:43Z</time>
      </trkpt>
      <trkpt lat="44.41666" lon="6.4697">
        <ele>1528.63</ele>
        <time>2017-10-12T07:17:01Z</time>
      </trkpt>
      <trkpt lat="44.41669" lon="6.46959">
        <ele>1531.04</ele>
        <time>2017-10-12T07:17:19Z</time>
      </trkpt>
      <trkpt lat="44.41667" lon="6.4695">
        <ele>1533.92</ele>
        <time>2017-10-12T07:17:34Z</time>
      </trkpt>
      <trkpt lat="44.41666" lon="6.46948">
        <ele>1535.36</ele>
        <time>2017-10-12T07:17:51Z</time>
      </trkpt>
      <trkpt lat="44.41666" lon="6.46946">
        <ele>1538.25</ele>
        <time>2017-10-12T07:18:08Z</time>
      </trkpt>
      <trkpt lat="44.41662" lon="6.46947">
        <ele>1540.17</ele>
        <time>2017-10-12T07:18:18Z</time>
      </trkpt>
      <trkpt lat="44.41667" lon="6.46938">
        <ele>1542.09</ele>
        <time>2017-10-12T07:18:33Z</time>
      </trkpt>
      <trkpt lat="44.41664" lon="6.46936">
        <ele>1544.5</ele>
        <time>2017-10-12T07:18:48Z</time>
      </trkpt>
      <trkpt lat="44.41662" lon="6.46929">
        <ele>1546.42</ele>
        <time>2017-10-12T07:19:01Z</time>
      </trkpt>
      <trkpt lat="44.4166" lon="6.46924">
        <ele>1549.3</ele>
        <time>2017-10-12T07:19:18Z</time>
      </trkpt>
      <trkpt lat="44.41655" lon="6.46925">
        <ele>1551.71</ele>
        <time>2017-10-12T07:19:35Z</time>
      </trkpt>
      <trkpt lat="44.41659" lon="6.46915">
        <ele>1554.11</ele>
        <time>2017-10-12T07:19:51Z</time>
      </trkpt>
      <trkpt lat="44.41666" lon="6.46908">
        <ele>1556.99</ele>
        <time>2017-10-12T07:20:09Z</time>
      </trkpt>
      <trkpt lat="44.41676" lon="6.46911">
        <ele>1559.88</ele>
        <time>2017-10-12T07:20:27Z</time>
      </trkpt>
      <trkpt lat="44.41674" lon="6.46907">
        <ele>1561.8</ele>
        <time>2017-10-12T07:20:42Z</time>
      </trkpt>
      <trkpt lat="44.41668" lon="6.46901">
        <ele>1563.72</ele>
        <time>2017-10-12T07:20:56Z</time>
      </trkpt>
      <trkpt lat="44.41662" lon="6.46895">
        <ele>1566.61</ele>
        <time>2017-10-12T07:21:12Z</time>
      </trkpt>
      <trkpt lat="44.4167" lon="6.46891">
        <ele>1569.01</ele>
        <time>2017-10-12T07:21:28Z</time>
      </trkpt>
      <trkpt lat="44.41676" lon="6.46889">
        <ele>1571.41</ele>
        <time>2017-10-12T07:21:44Z</time>
      </trkpt>
      <trkpt lat="44.41669" lon="6.46881">
        <ele>1573.82</ele>
        <time>2017-10-12T07:21:59Z</time>
      </trkpt>
      <trkpt lat="44.41665" lon="6.46879">
        <ele>1575.74</ele>
        <time>2017-10-12T07:22:14Z</time>
      </trkpt>
      <trkpt lat="44.41656" lon="6.46877">
        <ele>1577.66</ele>
        <time>2017-10-12T07:22:28Z</time>
      </trkpt>
      <trkpt lat="44.41652" lon="6.46875">
        <ele>1579.1</ele>
        <time>2017-10-12T07:22:41Z</time>
      </trkpt>
      <trkpt lat="44.41653" lon="6.46864">
        <ele>1581.51</ele>
        <time>2017-10-12T07:22:55Z</time>
      </trkpt>
      <trkpt lat="44.41657" lon="6.46856">
        <ele>1583.43</ele>
        <time>2017-10-12T07:23:11Z</time>
      </trkpt>
      <trkpt lat="44.41665" lon="6.46844">
        <ele>1585.83</ele>
        <time>2017-10-12T07:23:27Z</time>
      </trkpt>
      <trkpt lat="44.41677" lon="6.46844">
        <ele>1588.24</ele>
        <time>2017-10-12T07:23:46Z</time>
      </trkpt>
      <trkpt lat="44.41689" lon="6.46841">
        <ele>1590.64</ele>
        <time>2017-10-12T07:24:05Z</time>
      </trkpt>
      <trkpt lat="44.41693" lon="6.46841">
        <ele>1593.52</ele>
        <time>2017-10-12T07:24:22Z</time>
      </trkpt>
      <trkpt lat="44.41688" lon="6.4685">
        <ele>1595.45</ele>
        <time>2017-10-12T07:24:34Z</time>
      </trkpt>
      <trkpt lat="44.41692" lon="6.4686">
        <ele>1597.37</ele>
        <time>2017-10-12T07:24:50Z</time>
      </trkpt>
      <trkpt lat="44.41694" lon="6.46869">
        <ele>1599.77</ele>
        <time>2017-10-12T07:25:03Z</time>
      </trkpt>
      <trkpt lat="44.41699" lon="6.46867">
        <ele>1602.17</ele>
        <time>2017-10-12T07:25:19Z</time>
      </trkpt>
      <trkpt lat="44.41702" lon="6.46852">
        <ele>1605.06</ele>
        <time>2017-10-12T07:25:39Z</time>
      </trkpt>
      <trkpt lat="44.41706" lon="6.46857">
        <ele>1607.46</ele>
        <time>2017-10-12T07:25:55Z</time>
      </trkpt>
      <trkpt lat="44.41706" lon="6.46865">
        <ele>1609.38</ele>
        <time>2017-10-12T07:26:12Z</time>
      </trkpt>
      <trkpt lat="44.41708" lon="6.46856">
        <ele>1612.27</ele>
        <time>2017-10-12T07:26:32Z</time>
      </trkpt>
      <trkpt lat="44.41705" lon="6.46848">
        <ele>1614.19</ele>
        <time>2017-10-12T07:26:46Z</time>
      </trkpt>
      <trkpt lat="44.41709" lon="6.46834">
        <ele>1617.07</ele>
        <time>2017-10-12T07:27:00Z</time>
      </trkpt>
      <trkpt lat="44.41711" lon="6.46824">
        <ele>1619.48</ele>
        <time>2017-10-12T07:27:16Z</time>
      </trkpt>
      <trkpt lat="44.41714" lon="6.46812">
        <ele>1620.92</ele>
        <time>2017-10-12T07:27:31Z</time>
      </trkpt>
      <trkpt lat="44.41715" lon="6.46807">
        <ele>1621.88</ele>
        <time>2017-10-12T07:27:40Z</time>
      </trkpt>
      <trkpt lat="44.41716" lon="6.46803">
        <ele>1621.4</ele>
        <time>2017-10-12T07:27:43Z</time>
      </trkpt>
      <trkpt lat="44.41721" lon="6.46793">
        <ele>1622.36</ele>
        <time>2017-10-12T07:27:54Z</time>
      </trkpt>
      <trkpt lat="44.41726" lon="6.46787">
        <ele>1623.8</ele>
        <time>2017-10-12T07:28:05Z</time>
      </trkpt>
      <trkpt lat="44.41728" lon="6.46781">
        <ele>1625.25</ele>
        <time>2017-10-12T07:28:19Z</time>
      </trkpt>
      <trkpt lat="44.41732" lon="6.46771">
        <ele>1627.17</ele>
        <time>2017-10-12T07:28:32Z</time>
      </trkpt>
      <trkpt lat="44.41733" lon="6.46767">
        <ele>1628.13</ele>
        <time>2017-10-12T07:28:38Z</time>
      </trkpt>
      <trkpt lat="44.41737" lon="6.46763">
        <ele>1629.57</ele>
        <time>2017-10-12T07:28:46Z</time>
      </trkpt>
      <trkpt lat="44.4174" lon="6.46762">
        <ele>1629.57</ele>
        <time>2017-10-12T07:28:49Z</time>
      </trkpt>
      <trkpt lat="44.41742" lon="6.46752">
        <ele>1630.53</ele>
        <time>2017-10-12T07:29:03Z</time>
      </trkpt>
      <trkpt lat="44.41747" lon="6.46745">
        <ele>1631.98</ele>
        <time>2017-10-12T07:29:17Z</time>
      </trkpt>
      <trkpt lat="44.41753" lon="6.46738">
        <ele>1633.42</ele>
        <time>2017-10-12T07:29:34Z</time>
      </trkpt>
      <trkpt lat="44.41756" lon="6.46734">
        <ele>1633.9</ele>
        <time>2017-10-12T07:29:48Z</time>
      </trkpt>
      <trkpt lat="44.41759" lon="6.46731">
        <ele>1633.9</ele>
        <time>2017-10-12T07:30:06Z</time>
      </trkpt>
      <trkpt lat="44.41768" lon="6.46721">
        <ele>1635.34</ele>
        <time>2017-10-12T07:30:22Z</time>
      </trkpt>
      <trkpt lat="44.41777" lon="6.46724">
        <ele>1635.82</ele>
        <time>2017-10-12T07:30:36Z</time>
      </trkpt>
      <trkpt lat="44.41777" lon="6.46724">
        <ele>1635.82</ele>
        <time>2017-10-12T07:31:09Z</time>
      </trkpt>
      <trkpt lat="44.41779" lon="6.46726">
        <ele>1635.82</ele>
        <time>2017-10-12T07:31:35Z</time>
      </trkpt>
      <trkpt lat="44.41775" lon="6.46727">
        <ele>1635.34</ele>
        <time>2017-10-12T07:31:56Z</time>
      </trkpt>
      <trkpt lat="44.41772" lon="6.46724">
        <ele>1634.38</ele>
        <time>2017-10-12T07:32:12Z</time>
      </trkpt>
      <trkpt lat="44.41771" lon="6.46723">
        <ele>1634.38</ele>
        <time>2017-10-12T07:32:35Z</time>
      </trkpt>
      <trkpt lat="44.4177" lon="6.46728">
        <ele>1635.34</ele>
        <time>2017-10-12T07:32:51Z</time>
      </trkpt>
      <trkpt lat="44.4177" lon="6.46725">
        <ele>1635.34</ele>
        <time>2017-10-12T07:33:07Z</time>
      </trkpt>
      <trkpt lat="44.41776" lon="6.46721">
        <ele>1633.42</ele>
        <time>2017-10-12T07:33:25Z</time>
      </trkpt>
      <trkpt lat="44.41775" lon="6.4672">
        <ele>1638.7</ele>
        <time>2017-10-12T07:33:26Z</time>
      </trkpt>
      <trkpt lat="44.41776" lon="6.46722">
        <ele>1635.34</ele>
        <time>2017-10-12T07:33:32Z</time>
      </trkpt>
      <trkpt lat="44.41779" lon="6.46716">
        <ele>1636.78</ele>
        <time>2017-10-12T07:33:47Z</time>
      </trkpt>
      <trkpt lat="44.41783" lon="6.46712">
        <ele>1638.22</ele>
        <time>2017-10-12T07:33:59Z</time>
      </trkpt>
      <trkpt lat="44.41789" lon="6.46709">
        <ele>1639.67</ele>
        <time>2017-10-12T07:34:13Z</time>
      </trkpt>
      <trkpt lat="44.41796" lon="6.46703">
        <ele>1642.07</ele>
        <time>2017-10-12T07:34:27Z</time>
      </trkpt>
      <trkpt lat="44.41807" lon="6.46701">
        <ele>1643.99</ele>
        <time>2017-10-12T07:34:42Z</time>
      </trkpt>
      <trkpt lat="44.41811" lon="6.46704">
        <ele>1645.91</ele>
        <time>2017-10-12T07:34:57Z</time>
      </trkpt>
      <trkpt lat="44.41807" lon="6.46713">
        <ele>1649.76</ele>
        <time>2017-10-12T07:35:13Z</time>
      </trkpt>
      <trkpt lat="44.41801" lon="6.46718">
        <ele>1650.72</ele>
        <time>2017-10-12T07:35:29Z</time>
      </trkpt>
      <trkpt lat="44.41804" lon="6.46721">
        <ele>1652.64</ele>
        <time>2017-10-12T07:35:43Z</time>
      </trkpt>
      <trkpt lat="44.41809" lon="6.46722">
        <ele>1655.05</ele>
        <time>2017-10-12T07:35:57Z</time>
      </trkpt>
      <trkpt lat="44.41805" lon="6.46731">
        <ele>1657.45</ele>
        <time>2017-10-12T07:36:12Z</time>
      </trkpt>
      <trkpt lat="44.41808" lon="6.46737">
        <ele>1659.85</ele>
        <time>2017-10-12T07:36:29Z</time>
      </trkpt>
      <trkpt lat="44.41802" lon="6.46743">
        <ele>1661.78</ele>
        <time>2017-10-12T07:36:43Z</time>
      </trkpt>
      <trkpt lat="44.41795" lon="6.46747">
        <ele>1664.18</ele>
        <time>2017-10-12T07:36:59Z</time>
      </trkpt>
      <trkpt lat="44.41793" lon="6.46753">
        <ele>1666.1</ele>
        <time>2017-10-12T07:37:12Z</time>
      </trkpt>
      <trkpt lat="44.41802" lon="6.46752">
        <ele>1668.99</ele>
        <time>2017-10-12T07:37:29Z</time>
      </trkpt>
      <trkpt lat="44.41809" lon="6.46747">
        <ele>1670.91</ele>
        <time>2017-10-12T07:37:42Z</time>
      </trkpt>
      <trkpt lat="44.41815" lon="6.46747">
        <ele>1673.79</ele>
        <time>2017-10-12T07:38:02Z</time>
      </trkpt>
      <trkpt lat="44.41825" lon="6.46754">
        <ele>1676.68</ele>
        <time>2017-10-12T07:38:23Z</time>
      </trkpt>
      <trkpt lat="44.41832" lon="6.46753">
        <ele>1679.56</ele>
        <time>2017-10-12T07:38:41Z</time>
      </trkpt>
      <trkpt lat="44.41833" lon="6.46761">
        <ele>1681.96</ele>
        <time>2017-10-12T07:38:56Z</time>
      </trkpt>
      <trkpt lat="44.41826" lon="6.46771">
        <ele>1684.37</ele>
        <time>2017-10-12T07:39:14Z</time>
      </trkpt>
      <trkpt lat="44.41836" lon="6.46767">
        <ele>1686.77</ele>
        <time>2017-10-12T07:39:31Z</time>
      </trkpt>
      <trkpt lat="44.41844" lon="6.46777">
        <ele>1689.17</ele>
        <time>2017-10-12T07:39:50Z</time>
      </trkpt>
      <trkpt lat="44.41852" lon="6.46789">
        <ele>1691.1</ele>
        <time>2017-10-12T07:40:07Z</time>
      </trkpt>
      <trkpt lat="44.41861" lon="6.46799">
        <ele>1694.94</ele>
        <time>2017-10-12T07:40:24Z</time>
      </trkpt>
      <trkpt lat="44.41867" lon="6.46799">
        <ele>1696.38</ele>
        <time>2017-10-12T07:40:42Z</time>
      </trkpt>
      <trkpt lat="44.41877" lon="6.4681">
        <ele>1699.27</ele>
        <time>2017-10-12T07:41:02Z</time>
      </trkpt>
      <trkpt lat="44.41885" lon="6.4682">
        <ele>1701.67</ele>
        <time>2017-10-12T07:41:22Z</time>
      </trkpt>
      <trkpt lat="44.41893" lon="6.46824">
        <ele>1704.07</ele>
        <time>2017-10-12T07:41:38Z</time>
      </trkpt>
      <trkpt lat="44.41904" lon="6.46826">
        <ele>1706.96</ele>
        <time>2017-10-12T07:41:57Z</time>
      </trkpt>
      <trkpt lat="44.4191" lon="6.46844">
        <ele>1708.88</ele>
        <time>2017-10-12T07:42:16Z</time>
      </trkpt>
      <trkpt lat="44.41914" lon="6.46843">
        <ele>1711.28</ele>
        <time>2017-10-12T07:42:36Z</time>
      </trkpt>
      <trkpt lat="44.41907" lon="6.4685">
        <ele>1713.69</ele>
        <time>2017-10-12T07:42:52Z</time>
      </trkpt>
      <trkpt lat="44.419" lon="6.46856">
        <ele>1716.09</ele>
        <time>2017-10-12T07:43:08Z</time>
      </trkpt>
      <trkpt lat="44.41901" lon="6.46856">
        <ele>1718.49</ele>
        <time>2017-10-12T07:43:25Z</time>
      </trkpt>
      <trkpt lat="44.41908" lon="6.46862">
        <ele>1720.9</ele>
        <time>2017-10-12T07:43:43Z</time>
      </trkpt>
      <trkpt lat="44.41897" lon="6.46861">
        <ele>1722.82</ele>
        <time>2017-10-12T07:43:57Z</time>
      </trkpt>
      <trkpt lat="44.41901" lon="6.46868">
        <ele>1725.22</ele>
        <time>2017-10-12T07:44:13Z</time>
      </trkpt>
      <trkpt lat="44.41907" lon="6.46872">
        <ele>1727.63</ele>
        <time>2017-10-12T07:44:29Z</time>
      </trkpt>
      <trkpt lat="44.41912" lon="6.46863">
        <ele>1730.03</ele>
        <time>2017-10-12T07:44:45Z</time>
      </trkpt>
      <trkpt lat="44.41915" lon="6.46861">
        <ele>1732.43</ele>
        <time>2017-10-12T07:44:58Z</time>
      </trkpt>
      <trkpt lat="44.41925" lon="6.46861">
        <ele>1734.84</ele>
        <time>2017-10-12T07:45:12Z</time>
      </trkpt>
      <trkpt lat="44.41936" lon="6.46865">
        <ele>1737.24</ele>
        <time>2017-10-12T07:45:29Z</time>
      </trkpt>
      <trkpt lat="44.41948" lon="6.4687">
        <ele>1739.64</ele>
        <time>2017-10-12T07:45:43Z</time>
      </trkpt>
      <trkpt lat="44.41954" lon="6.46874">
        <ele>1741.08</ele>
        <time>2017-10-12T07:45:58Z</time>
      </trkpt>
      <trkpt lat="44.41962" lon="6.46882">
        <ele>1743.97</ele>
        <time>2017-10-12T07:46:17Z</time>
      </trkpt>
      <trkpt lat="44.4197" lon="6.46889">
        <ele>1745.89</ele>
        <time>2017-10-12T07:46:33Z</time>
      </trkpt>
      <trkpt lat="44.41967" lon="6.469">
        <ele>1748.29</ele>
        <time>2017-10-12T07:46:48Z</time>
      </trkpt>
      <trkpt lat="44.41956" lon="6.46898">
        <ele>1750.7</ele>
        <time>2017-10-12T07:47:03Z</time>
      </trkpt>
      <trkpt lat="44.41949" lon="6.46902">
        <ele>1752.62</ele>
        <time>2017-10-12T07:47:18Z</time>
      </trkpt>
      <trkpt lat="44.41942" lon="6.46905">
        <ele>1755.02</ele>
        <time>2017-10-12T07:47:34Z</time>
      </trkpt>
      <trkpt lat="44.4195" lon="6.46912">
        <ele>1756.95</ele>
        <time>2017-10-12T07:47:49Z</time>
      </trkpt>
      <trkpt lat="44.4195" lon="6.46925">
        <ele>1757.91</ele>
        <time>2017-10-12T07:48:04Z</time>
      </trkpt>
      <trkpt lat="44.41958" lon="6.46934">
        <ele>1758.87</ele>
        <time>2017-10-12T07:48:21Z</time>
      </trkpt>
      <trkpt lat="44.41968" lon="6.46943">
        <ele>1759.35</ele>
        <time>2017-10-12T07:48:36Z</time>
      </trkpt>
      <trkpt lat="44.41962" lon="6.46951">
        <ele>1761.75</ele>
        <time>2017-10-12T07:48:50Z</time>
      </trkpt>
      <trkpt lat="44.41952" lon="6.46951">
        <ele>1763.2</ele>
        <time>2017-10-12T07:49:09Z</time>
      </trkpt>
      <trkpt lat="44.41947" lon="6.46949">
        <ele>1764.16</ele>
        <time>2017-10-12T07:49:24Z</time>
      </trkpt>
      <trkpt lat="44.41941" lon="6.46949">
        <ele>1764.64</ele>
        <time>2017-10-12T07:49:39Z</time>
      </trkpt>
      <trkpt lat="44.41934" lon="6.46951">
        <ele>1764.16</ele>
        <time>2017-10-12T07:49:55Z</time>
      </trkpt>
      <trkpt lat="44.41932" lon="6.46952">
        <ele>1764.16</ele>
        <time>2017-10-12T07:50:13Z</time>
      </trkpt>
      <trkpt lat="44.41928" lon="6.46952">
        <ele>1763.68</ele>
        <time>2017-10-12T07:50:28Z</time>
      </trkpt>
      <trkpt lat="44.41929" lon="6.4695">
        <ele>1763.68</ele>
        <time>2017-10-12T07:50:50Z</time>
      </trkpt>
      <trkpt lat="44.41929" lon="6.4695">
        <ele>1763.68</ele>
        <time>2017-10-12T07:51:17Z</time>
      </trkpt>
      <trkpt lat="44.4193" lon="6.46952">
        <ele>1763.68</ele>
        <time>2017-10-12T07:51:48Z</time>
      </trkpt>
      <trkpt lat="44.41929" lon="6.46951">
        <ele>1764.16</ele>
        <time>2017-10-12T07:52:06Z</time>
      </trkpt>
      <trkpt lat="44.4193" lon="6.46951">
        <ele>1765.12</ele>
        <time>2017-10-12T07:52:30Z</time>
      </trkpt>
      <trkpt lat="44.41929" lon="6.4695">
        <ele>1764.16</ele>
        <time>2017-10-12T07:52:53Z</time>
      </trkpt>
      <trkpt lat="44.4193" lon="6.46951">
        <ele>1764.64</ele>
        <time>2017-10-12T07:53:23Z</time>
      </trkpt>
      <trkpt lat="44.4193" lon="6.46952">
        <ele>1764.64</ele>
        <time>2017-10-12T07:53:52Z</time>
      </trkpt>
      <trkpt lat="44.41929" lon="6.46951">
        <ele>1764.64</ele>
        <time>2017-10-12T07:54:23Z</time>
      </trkpt>
      <trkpt lat="44.41929" lon="6.46953">
        <ele>1764.64</ele>
        <time>2017-10-12T07:54:48Z</time>
      </trkpt>
      <trkpt lat="44.41929" lon="6.46951">
        <ele>1764.64</ele>
        <time>2017-10-12T07:55:11Z</time>
      </trkpt>
      <trkpt lat="44.4193" lon="6.46953">
        <ele>1765.12</ele>
        <time>2017-10-12T07:55:39Z</time>
      </trkpt>
      <trkpt lat="44.41929" lon="6.46951">
        <ele>1765.12</ele>
        <time>2017-10-12T07:56:04Z</time>
      </trkpt>
      <trkpt lat="44.4193" lon="6.46953">
        <ele>1765.6</ele>
        <time>2017-10-12T07:56:28Z</time>
      </trkpt>
      <trkpt lat="44.41929" lon="6.46952">
        <ele>1765.6</ele>
        <time>2017-10-12T07:56:51Z</time>
      </trkpt>
      <trkpt lat="44.41928" lon="6.4695">
        <ele>1765.6</ele>
        <time>2017-10-12T07:57:14Z</time>
      </trkpt>
      <trkpt lat="44.4193" lon="6.46954">
        <ele>1765.6</ele>
        <time>2017-10-12T07:57:46Z</time>
      </trkpt>
      <trkpt lat="44.41931" lon="6.46953">
        <ele>1765.6</ele>
        <time>2017-10-12T07:58:11Z</time>
      </trkpt>
      <trkpt lat="44.4193" lon="6.46952">
        <ele>1766.08</ele>
        <time>2017-10-12T07:58:43Z</time>
      </trkpt>
      <trkpt lat="44.41929" lon="6.46951">
        <ele>1766.08</ele>
        <time>2017-10-12T07:59:12Z</time>
      </trkpt>
      <trkpt lat="44.41929" lon="6.46953">
        <ele>1766.56</ele>
        <time>2017-10-12T07:59:40Z</time>
      </trkpt>
      <trkpt lat="44.41929" lon="6.46953">
        <ele>1766.56</ele>
        <time>2017-10-12T08:00:09Z</time>
      </trkpt>
      <trkpt lat="44.41929" lon="6.46954">
        <ele>1766.56</ele>
        <time>2017-10-12T08:00:41Z</time>
      </trkpt>
      <trkpt lat="44.41929" lon="6.46954">
        <ele>1766.56</ele>
        <time>2017-10-12T08:01:11Z</time>
      </trkpt>
      <trkpt lat="44.4193" lon="6.46954">
        <ele>1767.04</ele>
        <time>2017-10-12T08:01:41Z</time>
      </trkpt>
      <trkpt lat="44.41929" lon="6.46954">
        <ele>1767.04</ele>
        <time>2017-10-12T08:02:08Z</time>
      </trkpt>
      <trkpt lat="44.41931" lon="6.46954">
        <ele>1767.52</ele>
        <time>2017-10-12T08:02:38Z</time>
      </trkpt>
      <trkpt lat="44.41932" lon="6.46951">
        <ele>1767.52</ele>
        <time>2017-10-12T08:02:53Z</time>
      </trkpt>
      <trkpt lat="44.41933" lon="6.4695">
        <ele>1768</ele>
        <time>2017-10-12T08:03:06Z</time>
      </trkpt>
      <trkpt lat="44.4193" lon="6.4695">
        <ele>1768</ele>
        <time>2017-10-12T08:03:27Z</time>
      </trkpt>
      <trkpt lat="44.41934" lon="6.46946">
        <ele>1768</ele>
        <time>2017-10-12T08:03:48Z</time>
      </trkpt>
      <trkpt lat="44.41933" lon="6.4695">
        <ele>1768</ele>
        <time>2017-10-12T08:04:15Z</time>
      </trkpt>
      <trkpt lat="44.4193" lon="6.46951">
        <ele>1768</ele>
        <time>2017-10-12T08:04:33Z</time>
      </trkpt>
      <trkpt lat="44.41934" lon="6.46948">
        <ele>1768</ele>
        <time>2017-10-12T08:04:53Z</time>
      </trkpt>
      <trkpt lat="44.41947" lon="6.4695">
        <ele>1768.48</ele>
        <time>2017-10-12T08:05:12Z</time>
      </trkpt>
      <trkpt lat="44.41958" lon="6.46952">
        <ele>1767.04</ele>
        <time>2017-10-12T08:05:28Z</time>
      </trkpt>
      <trkpt lat="44.41961" lon="6.46965">
        <ele>1769.92</ele>
        <time>2017-10-12T08:05:44Z</time>
      </trkpt>
      <trkpt lat="44.41958" lon="6.46982">
        <ele>1771.85</ele>
        <time>2017-10-12T08:06:03Z</time>
      </trkpt>
      <trkpt lat="44.4195" lon="6.46982">
        <ele>1774.25</ele>
        <time>2017-10-12T08:06:18Z</time>
      </trkpt>
      <trkpt lat="44.41949" lon="6.46995">
        <ele>1776.17</ele>
        <time>2017-10-12T08:06:30Z</time>
      </trkpt>
      <trkpt lat="44.4195" lon="6.47012">
        <ele>1778.58</ele>
        <time>2017-10-12T08:06:46Z</time>
      </trkpt>
      <trkpt lat="44.41951" lon="6.47021">
        <ele>1780.98</ele>
        <time>2017-10-12T08:07:02Z</time>
      </trkpt>
      <trkpt lat="44.41963" lon="6.47029">
        <ele>1783.86</ele>
        <time>2017-10-12T08:07:19Z</time>
      </trkpt>
      <trkpt lat="44.41975" lon="6.47037">
        <ele>1785.79</ele>
        <time>2017-10-12T08:07:38Z</time>
      </trkpt>
      <trkpt lat="44.41985" lon="6.47051">
        <ele>1788.67</ele>
        <time>2017-10-12T08:07:58Z</time>
      </trkpt>
      <trkpt lat="44.4199" lon="6.47055">
        <ele>1790.59</ele>
        <time>2017-10-12T08:08:15Z</time>
      </trkpt>
      <trkpt lat="44.41996" lon="6.47067">
        <ele>1793</ele>
        <time>2017-10-12T08:08:33Z</time>
      </trkpt>
      <trkpt lat="44.42001" lon="6.47072">
        <ele>1795.4</ele>
        <time>2017-10-12T08:08:48Z</time>
      </trkpt>
      <trkpt lat="44.42006" lon="6.47078">
        <ele>1798.28</ele>
        <time>2017-10-12T08:09:06Z</time>
      </trkpt>
      <trkpt lat="44.42014" lon="6.47081">
        <ele>1800.69</ele>
        <time>2017-10-12T08:09:22Z</time>
      </trkpt>
      <trkpt lat="44.42021" lon="6.4709">
        <ele>1803.09</ele>
        <time>2017-10-12T08:09:39Z</time>
      </trkpt>
      <trkpt lat="44.4203" lon="6.47096">
        <ele>1805.97</ele>
        <time>2017-10-12T08:09:57Z</time>
      </trkpt>
      <trkpt lat="44.42039" lon="6.47102">
        <ele>1809.34</ele>
        <time>2017-10-12T08:10:16Z</time>
      </trkpt>
      <trkpt lat="44.42048" lon="6.47109">
        <ele>1811.74</ele>
        <time>2017-10-12T08:10:33Z</time>
      </trkpt>
      <trkpt lat="44.42061" lon="6.47116">
        <ele>1813.66</ele>
        <time>2017-10-12T08:10:51Z</time>
      </trkpt>
      <trkpt lat="44.42073" lon="6.47123">
        <ele>1816.55</ele>
        <time>2017-10-12T08:11:10Z</time>
      </trkpt>
      <trkpt lat="44.42081" lon="6.47128">
        <ele>1818.47</ele>
        <time>2017-10-12T08:11:26Z</time>
      </trkpt>
      <trkpt lat="44.4209" lon="6.47134">
        <ele>1821.35</ele>
        <time>2017-10-12T08:11:45Z</time>
      </trkpt>
      <trkpt lat="44.42104" lon="6.47142">
        <ele>1824.24</ele>
        <time>2017-10-12T08:12:04Z</time>
      </trkpt>
      <trkpt lat="44.42109" lon="6.47145">
        <ele>1826.16</ele>
        <time>2017-10-12T08:12:19Z</time>
      </trkpt>
      <trkpt lat="44.42114" lon="6.47147">
        <ele>1828.56</ele>
        <time>2017-10-12T08:12:36Z</time>
      </trkpt>
      <trkpt lat="44.4213" lon="6.47156">
        <ele>1830.97</ele>
        <time>2017-10-12T08:12:54Z</time>
      </trkpt>
      <trkpt lat="44.42141" lon="6.47163">
        <ele>1834.33</ele>
        <time>2017-10-12T08:13:12Z</time>
      </trkpt>
      <trkpt lat="44.42149" lon="6.47167">
        <ele>1837.22</ele>
        <time>2017-10-12T08:13:31Z</time>
      </trkpt>
      <trkpt lat="44.4216" lon="6.47176">
        <ele>1840.1</ele>
        <time>2017-10-12T08:13:51Z</time>
      </trkpt>
      <trkpt lat="44.42169" lon="6.47182">
        <ele>1842.98</ele>
        <time>2017-10-12T08:14:07Z</time>
      </trkpt>
      <trkpt lat="44.42175" lon="6.47193">
        <ele>1846.35</ele>
        <time>2017-10-12T08:14:26Z</time>
      </trkpt>
      <trkpt lat="44.42185" lon="6.47205">
        <ele>1848.27</ele>
        <time>2017-10-12T08:14:43Z</time>
      </trkpt>
      <trkpt lat="44.42197" lon="6.47219">
        <ele>1849.71</ele>
        <time>2017-10-12T08:15:01Z</time>
      </trkpt>
      <trkpt lat="44.42199" lon="6.47244">
        <ele>1851.16</ele>
        <time>2017-10-12T08:15:22Z</time>
      </trkpt>
      <trkpt lat="44.42201" lon="6.47259">
        <ele>1853.08</ele>
        <time>2017-10-12T08:15:37Z</time>
      </trkpt>
      <trkpt lat="44.42199" lon="6.47284">
        <ele>1855</ele>
        <time>2017-10-12T08:15:55Z</time>
      </trkpt>
      <trkpt lat="44.42203" lon="6.47304">
        <ele>1856.44</ele>
        <time>2017-10-12T08:16:12Z</time>
      </trkpt>
      <trkpt lat="44.42207" lon="6.47317">
        <ele>1858.37</ele>
        <time>2017-10-12T08:16:27Z</time>
      </trkpt>
      <trkpt lat="44.42213" lon="6.47334">
        <ele>1860.77</ele>
        <time>2017-10-12T08:16:45Z</time>
      </trkpt>
      <trkpt lat="44.42218" lon="6.47343">
        <ele>1862.69</ele>
        <time>2017-10-12T08:17:01Z</time>
      </trkpt>
      <trkpt lat="44.42217" lon="6.47355">
        <ele>1864.61</ele>
        <time>2017-10-12T08:17:15Z</time>
      </trkpt>
      <trkpt lat="44.42229" lon="6.47361">
        <ele>1866.06</ele>
        <time>2017-10-12T08:17:30Z</time>
      </trkpt>
      <trkpt lat="44.42237" lon="6.47377">
        <ele>1867.98</ele>
        <time>2017-10-12T08:17:47Z</time>
      </trkpt>
      <trkpt lat="44.42236" lon="6.47393">
        <ele>1870.38</ele>
        <time>2017-10-12T08:18:06Z</time>
      </trkpt>
      <trkpt lat="44.42226" lon="6.4741">
        <ele>1871.34</ele>
        <time>2017-10-12T08:18:23Z</time>
      </trkpt>
      <trkpt lat="44.42216" lon="6.47427">
        <ele>1871.82</ele>
        <time>2017-10-12T08:18:40Z</time>
      </trkpt>
      <trkpt lat="44.42214" lon="6.47429">
        <ele>1873.27</ele>
        <time>2017-10-12T08:18:43Z</time>
      </trkpt>
      <trkpt lat="44.42206" lon="6.47439">
        <ele>1873.75</ele>
        <time>2017-10-12T08:18:58Z</time>
      </trkpt>
      <trkpt lat="44.422" lon="6.4745">
        <ele>1875.67</ele>
        <time>2017-10-12T08:19:15Z</time>
      </trkpt>
      <trkpt lat="44.42202" lon="6.47467">
        <ele>1878.07</ele>
        <time>2017-10-12T08:19:31Z</time>
      </trkpt>
      <trkpt lat="44.42208" lon="6.47482">
        <ele>1878.55</ele>
        <time>2017-10-12T08:19:46Z</time>
      </trkpt>
      <trkpt lat="44.42221" lon="6.4749">
        <ele>1880</ele>
        <time>2017-10-12T08:20:01Z</time>
      </trkpt>
      <trkpt lat="44.42231" lon="6.47499">
        <ele>1881.44</ele>
        <time>2017-10-12T08:20:17Z</time>
      </trkpt>
      <trkpt lat="44.42237" lon="6.47507">
        <ele>1883.84</ele>
        <time>2017-10-12T08:20:34Z</time>
      </trkpt>
      <trkpt lat="44.42248" lon="6.47518">
        <ele>1886.24</ele>
        <time>2017-10-12T08:20:52Z</time>
      </trkpt>
      <trkpt lat="44.42254" lon="6.47526">
        <ele>1887.69</ele>
        <time>2017-10-12T08:21:08Z</time>
      </trkpt>
      <trkpt lat="44.42262" lon="6.47537">
        <ele>1889.61</ele>
        <time>2017-10-12T08:21:25Z</time>
      </trkpt>
      <trkpt lat="44.4227" lon="6.47546">
        <ele>1891.53</ele>
        <time>2017-10-12T08:21:41Z</time>
      </trkpt>
      <trkpt lat="44.4228" lon="6.47554">
        <ele>1893.45</ele>
        <time>2017-10-12T08:21:59Z</time>
      </trkpt>
      <trkpt lat="44.42289" lon="6.47561">
        <ele>1896.34</ele>
        <time>2017-10-12T08:22:16Z</time>
      </trkpt>
      <trkpt lat="44.42296" lon="6.47566">
        <ele>1898.26</ele>
        <time>2017-10-12T08:22:33Z</time>
      </trkpt>
      <trkpt lat="44.42307" lon="6.47575">
        <ele>1900.18</ele>
        <time>2017-10-12T08:22:48Z</time>
      </trkpt>
      <trkpt lat="44.42316" lon="6.4759">
        <ele>1901.63</ele>
        <time>2017-10-12T08:23:05Z</time>
      </trkpt>
      <trkpt lat="44.42324" lon="6.47608">
        <ele>1903.55</ele>
        <time>2017-10-12T08:23:24Z</time>
      </trkpt>
      <trkpt lat="44.42333" lon="6.47618">
        <ele>1904.51</ele>
        <time>2017-10-12T08:23:39Z</time>
      </trkpt>
      <trkpt lat="44.42341" lon="6.47633">
        <ele>1906.43</ele>
        <time>2017-10-12T08:23:57Z</time>
      </trkpt>
      <trkpt lat="44.42348" lon="6.47649">
        <ele>1908.35</ele>
        <time>2017-10-12T08:24:13Z</time>
      </trkpt>
      <trkpt lat="44.42353" lon="6.47669">
        <ele>1910.28</ele>
        <time>2017-10-12T08:24:33Z</time>
      </trkpt>
      <trkpt lat="44.42366" lon="6.47685">
        <ele>1910.76</ele>
        <time>2017-10-12T08:24:52Z</time>
      </trkpt>
      <trkpt lat="44.42376" lon="6.47697">
        <ele>1910.76</ele>
        <time>2017-10-12T08:25:08Z</time>
      </trkpt>
      <trkpt lat="44.42386" lon="6.47718">
        <ele>1910.76</ele>
        <time>2017-10-12T08:25:26Z</time>
      </trkpt>
      <trkpt lat="44.42392" lon="6.47732">
        <ele>1911.24</ele>
        <time>2017-10-12T08:25:41Z</time>
      </trkpt>
      <trkpt lat="44.42402" lon="6.4775">
        <ele>1910.76</ele>
        <time>2017-10-12T08:25:58Z</time>
      </trkpt>
      <trkpt lat="44.42403" lon="6.47761">
        <ele>1910.76</ele>
        <time>2017-10-12T08:26:10Z</time>
      </trkpt>
      <trkpt lat="44.42407" lon="6.47784">
        <ele>1911.24</ele>
        <time>2017-10-12T08:26:27Z</time>
      </trkpt>
      <trkpt lat="44.42409" lon="6.47789">
        <ele>1912.2</ele>
        <time>2017-10-12T08:26:33Z</time>
      </trkpt>
      <trkpt lat="44.42422" lon="6.47799">
        <ele>1911.72</ele>
        <time>2017-10-12T08:26:50Z</time>
      </trkpt>
      <trkpt lat="44.42436" lon="6.47809">
        <ele>1912.68</ele>
        <time>2017-10-12T08:27:08Z</time>
      </trkpt>
      <trkpt lat="44.42444" lon="6.47817">
        <ele>1914.6</ele>
        <time>2017-10-12T08:27:22Z</time>
      </trkpt>
      <trkpt lat="44.42453" lon="6.47826">
        <ele>1917.01</ele>
        <time>2017-10-12T08:27:39Z</time>
      </trkpt>
      <trkpt lat="44.42462" lon="6.4783">
        <ele>1918.93</ele>
        <time>2017-10-12T08:27:53Z</time>
      </trkpt>
      <trkpt lat="44.42474" lon="6.47844">
        <ele>1918.93</ele>
        <time>2017-10-12T08:28:11Z</time>
      </trkpt>
      <trkpt lat="44.42483" lon="6.47854">
        <ele>1918.45</ele>
        <time>2017-10-12T08:28:25Z</time>
      </trkpt>
      <trkpt lat="44.42484" lon="6.47856">
        <ele>1917.97</ele>
        <time>2017-10-12T08:28:27Z</time>
      </trkpt>
      <trkpt lat="44.42494" lon="6.47864">
        <ele>1917.97</ele>
        <time>2017-10-12T08:28:42Z</time>
      </trkpt>
      <trkpt lat="44.42501" lon="6.47868">
        <ele>1919.89</ele>
        <time>2017-10-12T08:28:55Z</time>
      </trkpt>
      <trkpt lat="44.42506" lon="6.4787">
        <ele>1920.37</ele>
        <time>2017-10-12T08:29:10Z</time>
      </trkpt>
      <trkpt lat="44.4251" lon="6.47881">
        <ele>1922.29</ele>
        <time>2017-10-12T08:29:25Z</time>
      </trkpt>
      <trkpt lat="44.42514" lon="6.4789">
        <ele>1925.18</ele>
        <time>2017-10-12T08:29:41Z</time>
      </trkpt>
      <trkpt lat="44.42518" lon="6.479">
        <ele>1927.58</ele>
        <time>2017-10-12T08:29:56Z</time>
      </trkpt>
      <trkpt lat="44.42525" lon="6.47909">
        <ele>1930.46</ele>
        <time>2017-10-12T08:30:11Z</time>
      </trkpt>
      <trkpt lat="44.42534" lon="6.47922">
        <ele>1932.87</ele>
        <time>2017-10-12T08:30:27Z</time>
      </trkpt>
      <trkpt lat="44.42537" lon="6.47927">
        <ele>1933.83</ele>
        <time>2017-10-12T08:30:35Z</time>
      </trkpt>
      <trkpt lat="44.42546" lon="6.47938">
        <ele>1936.23</ele>
        <time>2017-10-12T08:30:52Z</time>
      </trkpt>
      <trkpt lat="44.42548" lon="6.47941">
        <ele>1937.67</ele>
        <time>2017-10-12T08:30:58Z</time>
      </trkpt>
      <trkpt lat="44.42557" lon="6.47952">
        <ele>1940.08</ele>
        <time>2017-10-12T08:31:14Z</time>
      </trkpt>
      <trkpt lat="44.42563" lon="6.47962">
        <ele>1941.04</ele>
        <time>2017-10-12T08:31:27Z</time>
      </trkpt>
      <trkpt lat="44.42569" lon="6.47974">
        <ele>1942.96</ele>
        <time>2017-10-12T08:31:41Z</time>
      </trkpt>
      <trkpt lat="44.42572" lon="6.47984">
        <ele>1943.92</ele>
        <time>2017-10-12T08:31:56Z</time>
      </trkpt>
      <trkpt lat="44.42582" lon="6.47996">
        <ele>1945.36</ele>
        <time>2017-10-12T08:32:10Z</time>
      </trkpt>
      <trkpt lat="44.4259" lon="6.48003">
        <ele>1947.77</ele>
        <time>2017-10-12T08:32:24Z</time>
      </trkpt>
      <trkpt lat="44.42599" lon="6.48009">
        <ele>1949.69</ele>
        <time>2017-10-12T08:32:39Z</time>
      </trkpt>
      <trkpt lat="44.42606" lon="6.48022">
        <ele>1952.57</ele>
        <time>2017-10-12T08:32:55Z</time>
      </trkpt>
      <trkpt lat="44.42607" lon="6.48028">
        <ele>1953.06</ele>
        <time>2017-10-12T08:33:00Z</time>
      </trkpt>
      <trkpt lat="44.42613" lon="6.4804">
        <ele>1954.5</ele>
        <time>2017-10-12T08:33:14Z</time>
      </trkpt>
      <trkpt lat="44.42619" lon="6.48051">
        <ele>1955.94</ele>
        <time>2017-10-12T08:33:28Z</time>
      </trkpt>
      <trkpt lat="44.4262" lon="6.48065">
        <ele>1957.86</ele>
        <time>2017-10-12T08:33:42Z</time>
      </trkpt>
      <trkpt lat="44.42622" lon="6.48076">
        <ele>1957.86</ele>
        <time>2017-10-12T08:33:57Z</time>
      </trkpt>
      <trkpt lat="44.42626" lon="6.48077">
        <ele>1958.34</ele>
        <time>2017-10-12T08:34:02Z</time>
      </trkpt>
      <trkpt lat="44.42628" lon="6.48074">
        <ele>1959.3</ele>
        <time>2017-10-12T08:34:05Z</time>
      </trkpt>
      <trkpt lat="44.42635" lon="6.48065">
        <ele>1960.27</ele>
        <time>2017-10-12T08:34:18Z</time>
      </trkpt>
      <trkpt lat="44.42643" lon="6.48059">
        <ele>1962.19</ele>
        <time>2017-10-12T08:34:32Z</time>
      </trkpt>
      <trkpt lat="44.42652" lon="6.48054">
        <ele>1964.59</ele>
        <time>2017-10-12T08:34:47Z</time>
      </trkpt>
      <trkpt lat="44.42657" lon="6.48051">
        <ele>1966.51</ele>
        <time>2017-10-12T08:35:02Z</time>
      </trkpt>
      <trkpt lat="44.42664" lon="6.48045">
        <ele>1968.92</ele>
        <time>2017-10-12T08:35:16Z</time>
      </trkpt>
      <trkpt lat="44.42673" lon="6.48037">
        <ele>1971.32</ele>
        <time>2017-10-12T08:35:30Z</time>
      </trkpt>
      <trkpt lat="44.4268" lon="6.48035">
        <ele>1972.28</ele>
        <time>2017-10-12T08:35:40Z</time>
      </trkpt>
      <trkpt lat="44.4269" lon="6.48036">
        <ele>1974.69</ele>
        <time>2017-10-12T08:35:54Z</time>
      </trkpt>
      <trkpt lat="44.42689" lon="6.48038">
        <ele>1975.65</ele>
        <time>2017-10-12T08:36:07Z</time>
      </trkpt>
      <trkpt lat="44.42693" lon="6.48041">
        <ele>1976.13</ele>
        <time>2017-10-12T08:36:22Z</time>
      </trkpt>
      <trkpt lat="44.42692" lon="6.4804">
        <ele>1976.61</ele>
        <time>2017-10-12T08:36:41Z</time>
      </trkpt>
      <trkpt lat="44.42693" lon="6.48037">
        <ele>1976.61</ele>
        <time>2017-10-12T08:37:00Z</time>
      </trkpt>
      <trkpt lat="44.4269" lon="6.48038">
        <ele>1976.61</ele>
        <time>2017-10-12T08:37:17Z</time>
      </trkpt>
      <trkpt lat="44.42692" lon="6.48039">
        <ele>1975.65</ele>
        <time>2017-10-12T08:37:34Z</time>
      </trkpt>
      <trkpt lat="44.42692" lon="6.48043">
        <ele>1975.65</ele>
        <time>2017-10-12T08:37:59Z</time>
      </trkpt>
      <trkpt lat="44.42693" lon="6.48041">
        <ele>1975.65</ele>
        <time>2017-10-12T08:38:25Z</time>
      </trkpt>
      <trkpt lat="44.42693" lon="6.4804">
        <ele>1976.13</ele>
        <time>2017-10-12T08:38:56Z</time>
      </trkpt>
      <trkpt lat="44.42693" lon="6.48041">
        <ele>1976.13</ele>
        <time>2017-10-12T08:39:18Z</time>
      </trkpt>
      <trkpt lat="44.42691" lon="6.48043">
        <ele>1976.13</ele>
        <time>2017-10-12T08:39:48Z</time>
      </trkpt>
      <trkpt lat="44.4269" lon="6.48043">
        <ele>1977.57</ele>
        <time>2017-10-12T08:40:06Z</time>
      </trkpt>
      <trkpt lat="44.42692" lon="6.48039">
        <ele>1977.57</ele>
        <time>2017-10-12T08:40:25Z</time>
      </trkpt>
      <trkpt lat="44.42692" lon="6.48038">
        <ele>1977.57</ele>
        <time>2017-10-12T08:40:45Z</time>
      </trkpt>
      <trkpt lat="44.42694" lon="6.48042">
        <ele>1977.57</ele>
        <time>2017-10-12T08:41:04Z</time>
      </trkpt>
      <trkpt lat="44.42694" lon="6.48043">
        <ele>1977.57</ele>
        <time>2017-10-12T08:41:33Z</time>
      </trkpt>
      <trkpt lat="44.42691" lon="6.48037">
        <ele>1977.57</ele>
        <time>2017-10-12T08:42:05Z</time>
      </trkpt>
      <trkpt lat="44.42693" lon="6.48044">
        <ele>1977.57</ele>
        <time>2017-10-12T08:42:28Z</time>
      </trkpt>
      <trkpt lat="44.42695" lon="6.48047">
        <ele>1977.57</ele>
        <time>2017-10-12T08:42:50Z</time>
      </trkpt>
      <trkpt lat="44.42692" lon="6.48044">
        <ele>1977.57</ele>
        <time>2017-10-12T08:43:14Z</time>
      </trkpt>
      <trkpt lat="44.42688" lon="6.48049">
        <ele>1977.57</ele>
        <time>2017-10-12T08:43:34Z</time>
      </trkpt>
      <trkpt lat="44.42679" lon="6.48062">
        <ele>1980.45</ele>
        <time>2017-10-12T08:43:50Z</time>
      </trkpt>
      <trkpt lat="44.42679" lon="6.48062">
        <ele>1980.45</ele>
        <time>2017-10-12T08:43:51Z</time>
      </trkpt>
      <trkpt lat="44.4267" lon="6.48077">
        <ele>1981.41</ele>
        <time>2017-10-12T08:44:07Z</time>
      </trkpt>
      <trkpt lat="44.42667" lon="6.48096">
        <ele>1982.86</ele>
        <time>2017-10-12T08:44:23Z</time>
      </trkpt>
      <trkpt lat="44.42658" lon="6.48108">
        <ele>1984.3</ele>
        <time>2017-10-12T08:44:38Z</time>
      </trkpt>
      <trkpt lat="44.42649" lon="6.48119">
        <ele>1985.74</ele>
        <time>2017-10-12T08:44:53Z</time>
      </trkpt>
      <trkpt lat="44.42645" lon="6.48127">
        <ele>1986.22</ele>
        <time>2017-10-12T08:45:07Z</time>
      </trkpt>
      <trkpt lat="44.42642" lon="6.48137">
        <ele>1985.26</ele>
        <time>2017-10-12T08:45:22Z</time>
      </trkpt>
      <trkpt lat="44.42639" lon="6.48146">
        <ele>1987.18</ele>
        <time>2017-10-12T08:45:35Z</time>
      </trkpt>
      <trkpt lat="44.42635" lon="6.48151">
        <ele>1987.18</ele>
        <time>2017-10-12T08:45:44Z</time>
      </trkpt>
      <trkpt lat="44.42626" lon="6.48154">
        <ele>1988.62</ele>
        <time>2017-10-12T08:45:56Z</time>
      </trkpt>
      <trkpt lat="44.42618" lon="6.48155">
        <ele>1990.55</ele>
        <time>2017-10-12T08:46:10Z</time>
      </trkpt>
      <trkpt lat="44.4261" lon="6.48166">
        <ele>1992.47</ele>
        <time>2017-10-12T08:46:26Z</time>
      </trkpt>
      <trkpt lat="44.42602" lon="6.48174">
        <ele>1994.87</ele>
        <time>2017-10-12T08:46:41Z</time>
      </trkpt>
      <trkpt lat="44.42596" lon="6.48185">
        <ele>1997.76</ele>
        <time>2017-10-12T08:47:00Z</time>
      </trkpt>
      <trkpt lat="44.42593" lon="6.48186">
        <ele>1998.24</ele>
        <time>2017-10-12T08:47:04Z</time>
      </trkpt>
      <trkpt lat="44.42589" lon="6.48201">
        <ele>2000.16</ele>
        <time>2017-10-12T08:47:20Z</time>
      </trkpt>
      <trkpt lat="44.42588" lon="6.48209">
        <ele>2002.08</ele>
        <time>2017-10-12T08:47:33Z</time>
      </trkpt>
      <trkpt lat="44.42582" lon="6.48219">
        <ele>2004.49</ele>
        <time>2017-10-12T08:47:48Z</time>
      </trkpt>
      <trkpt lat="44.42581" lon="6.48227">
        <ele>2006.41</ele>
        <time>2017-10-12T08:47:59Z</time>
      </trkpt>
      <trkpt lat="44.42579" lon="6.48233">
        <ele>2008.33</ele>
        <time>2017-10-12T08:48:14Z</time>
      </trkpt>
      <trkpt lat="44.42578" lon="6.48245">
        <ele>2010.73</ele>
        <time>2017-10-12T08:48:30Z</time>
      </trkpt>
      <trkpt lat="44.42574" lon="6.4825">
        <ele>2013.14</ele>
        <time>2017-10-12T08:48:47Z</time>
      </trkpt>
      <trkpt lat="44.4257" lon="6.48254">
        <ele>2014.58</ele>
        <time>2017-10-12T08:49:00Z</time>
      </trkpt>
      <trkpt lat="44.42566" lon="6.48257">
        <ele>2016.98</ele>
        <time>2017-10-12T08:49:13Z</time>
      </trkpt>
      <trkpt lat="44.42563" lon="6.48261">
        <ele>2018.91</ele>
        <time>2017-10-12T08:49:27Z</time>
      </trkpt>
      <trkpt lat="44.42556" lon="6.48265">
        <ele>2021.79</ele>
        <time>2017-10-12T08:49:42Z</time>
      </trkpt>
      <trkpt lat="44.42549" lon="6.48263">
        <ele>2024.19</ele>
        <time>2017-10-12T08:49:58Z</time>
      </trkpt>
      <trkpt lat="44.42544" lon="6.48273">
        <ele>2027.08</ele>
        <time>2017-10-12T08:50:11Z</time>
      </trkpt>
      <trkpt lat="44.42537" lon="6.48277">
        <ele>2029.48</ele>
        <time>2017-10-12T08:50:28Z</time>
      </trkpt>
      <trkpt lat="44.4253" lon="6.48282">
        <ele>2032.84</ele>
        <time>2017-10-12T08:50:43Z</time>
      </trkpt>
      <trkpt lat="44.4252" lon="6.48287">
        <ele>2035.73</ele>
        <time>2017-10-12T08:51:00Z</time>
      </trkpt>
      <trkpt lat="44.42512" lon="6.48298">
        <ele>2038.13</ele>
        <time>2017-10-12T08:51:16Z</time>
      </trkpt>
      <trkpt lat="44.4251" lon="6.48302">
        <ele>2038.61</ele>
        <time>2017-10-12T08:51:21Z</time>
      </trkpt>
      <trkpt lat="44.42496" lon="6.48313">
        <ele>2039.09</ele>
        <time>2017-10-12T08:51:38Z</time>
      </trkpt>
      <trkpt lat="44.42489" lon="6.4832">
        <ele>2040.05</ele>
        <time>2017-10-12T08:51:49Z</time>
      </trkpt>
      <trkpt lat="44.42488" lon="6.48323">
        <ele>2040.54</ele>
        <time>2017-10-12T08:51:51Z</time>
      </trkpt>
      <trkpt lat="44.42484" lon="6.4833">
        <ele>2041.98</ele>
        <time>2017-10-12T08:52:01Z</time>
      </trkpt>
      <trkpt lat="44.42482" lon="6.48335">
        <ele>2041.5</ele>
        <time>2017-10-12T08:52:05Z</time>
      </trkpt>
      <trkpt lat="44.4247" lon="6.48343">
        <ele>2042.94</ele>
        <time>2017-10-12T08:52:18Z</time>
      </trkpt>
      <trkpt lat="44.42467" lon="6.48347">
        <ele>2042.94</ele>
        <time>2017-10-12T08:52:22Z</time>
      </trkpt>
      <trkpt lat="44.42455" lon="6.48371">
        <ele>2043.9</ele>
        <time>2017-10-12T08:52:41Z</time>
      </trkpt>
      <trkpt lat="44.42449" lon="6.48379">
        <ele>2044.86</ele>
        <time>2017-10-12T08:52:55Z</time>
      </trkpt>
      <trkpt lat="44.42447" lon="6.48381">
        <ele>2045.34</ele>
        <time>2017-10-12T08:52:58Z</time>
      </trkpt>
      <trkpt lat="44.42442" lon="6.48387">
        <ele>2046.78</ele>
        <time>2017-10-12T08:53:06Z</time>
      </trkpt>
      <trkpt lat="44.42432" lon="6.484">
        <ele>2049.19</ele>
        <time>2017-10-12T08:53:22Z</time>
      </trkpt>
      <trkpt lat="44.42425" lon="6.48415">
        <ele>2050.63</ele>
        <time>2017-10-12T08:53:36Z</time>
      </trkpt>
      <trkpt lat="44.42419" lon="6.48428">
        <ele>2052.07</ele>
        <time>2017-10-12T08:53:50Z</time>
      </trkpt>
      <trkpt lat="44.42417" lon="6.48435">
        <ele>2053.03</ele>
        <time>2017-10-12T08:54:04Z</time>
      </trkpt>
      <trkpt lat="44.42417" lon="6.48425">
        <ele>2053.51</ele>
        <time>2017-10-12T08:54:24Z</time>
      </trkpt>
      <trkpt lat="44.42417" lon="6.48428">
        <ele>2053.51</ele>
        <time>2017-10-12T08:54:41Z</time>
      </trkpt>
      <trkpt lat="44.42418" lon="6.48434">
        <ele>2053.51</ele>
        <time>2017-10-12T08:55:14Z</time>
      </trkpt>
      <trkpt lat="44.42418" lon="6.48429">
        <ele>2053.51</ele>
        <time>2017-10-12T08:55:33Z</time>
      </trkpt>
      <trkpt lat="44.42415" lon="6.48422">
        <ele>2053.51</ele>
        <time>2017-10-12T08:56:01Z</time>
      </trkpt>
      <trkpt lat="44.4241" lon="6.48424">
        <ele>2053.51</ele>
        <time>2017-10-12T08:56:29Z</time>
      </trkpt>
      <trkpt lat="44.42411" lon="6.4844">
        <ele>2053.99</ele>
        <time>2017-10-12T08:57:02Z</time>
      </trkpt>
      <trkpt lat="44.42409" lon="6.48452">
        <ele>2055.92</ele>
        <time>2017-10-12T08:57:18Z</time>
      </trkpt>
      <trkpt lat="44.42409" lon="6.4846">
        <ele>2057.36</ele>
        <time>2017-10-12T08:57:31Z</time>
      </trkpt>
      <trkpt lat="44.42404" lon="6.48466">
        <ele>2059.28</ele>
        <time>2017-10-12T08:57:45Z</time>
      </trkpt>
      <trkpt lat="44.42401" lon="6.48466">
        <ele>2061.2</ele>
        <time>2017-10-12T08:57:58Z</time>
      </trkpt>
      <trkpt lat="44.42394" lon="6.48471">
        <ele>2063.61</ele>
        <time>2017-10-12T08:58:11Z</time>
      </trkpt>
      <trkpt lat="44.42393" lon="6.48474">
        <ele>2066.01</ele>
        <time>2017-10-12T08:58:26Z</time>
      </trkpt>
      <trkpt lat="44.42389" lon="6.48482">
        <ele>2069.38</ele>
        <time>2017-10-12T08:58:42Z</time>
      </trkpt>
      <trkpt lat="44.42383" lon="6.48492">
        <ele>2071.78</ele>
        <time>2017-10-12T08:58:58Z</time>
      </trkpt>
      <trkpt lat="44.42378" lon="6.48504">
        <ele>2075.14</ele>
        <time>2017-10-12T08:59:14Z</time>
      </trkpt>
      <trkpt lat="44.42373" lon="6.48511">
        <ele>2077.55</ele>
        <time>2017-10-12T08:59:28Z</time>
      </trkpt>
      <trkpt lat="44.4237" lon="6.48519">
        <ele>2079.47</ele>
        <time>2017-10-12T08:59:42Z</time>
      </trkpt>
      <trkpt lat="44.42369" lon="6.48519">
        <ele>2079.95</ele>
        <time>2017-10-12T08:59:44Z</time>
      </trkpt>
      <trkpt lat="44.4236" lon="6.48529">
        <ele>2082.35</ele>
        <time>2017-10-12T09:00:00Z</time>
      </trkpt>
      <trkpt lat="44.42356" lon="6.48538">
        <ele>2084.28</ele>
        <time>2017-10-12T09:00:15Z</time>
      </trkpt>
      <trkpt lat="44.42353" lon="6.48544">
        <ele>2086.68</ele>
        <time>2017-10-12T09:00:29Z</time>
      </trkpt>
      <trkpt lat="44.42342" lon="6.48554">
        <ele>2089.08</ele>
        <time>2017-10-12T09:00:45Z</time>
      </trkpt>
      <trkpt lat="44.42335" lon="6.48562">
        <ele>2091.49</ele>
        <time>2017-10-12T09:01:00Z</time>
      </trkpt>
      <trkpt lat="44.42331" lon="6.48568">
        <ele>2094.37</ele>
        <time>2017-10-12T09:01:14Z</time>
      </trkpt>
      <trkpt lat="44.42328" lon="6.48576">
        <ele>2096.77</ele>
        <time>2017-10-12T09:01:27Z</time>
      </trkpt>
      <trkpt lat="44.42323" lon="6.48586">
        <ele>2098.7</ele>
        <time>2017-10-12T09:01:40Z</time>
      </trkpt>
      <trkpt lat="44.42316" lon="6.48595">
        <ele>2101.1</ele>
        <time>2017-10-12T09:01:56Z</time>
      </trkpt>
      <trkpt lat="44.42308" lon="6.48597">
        <ele>2103.02</ele>
        <time>2017-10-12T09:02:11Z</time>
      </trkpt>
      <trkpt lat="44.42298" lon="6.486">
        <ele>2105.42</ele>
        <time>2017-10-12T09:02:27Z</time>
      </trkpt>
      <trkpt lat="44.42297" lon="6.48599">
        <ele>2105.91</ele>
        <time>2017-10-12T09:02:30Z</time>
      </trkpt>
      <trkpt lat="44.42291" lon="6.48598">
        <ele>2106.87</ele>
        <time>2017-10-12T09:02:38Z</time>
      </trkpt>
      <trkpt lat="44.42283" lon="6.48605">
        <ele>2108.79</ele>
        <time>2017-10-12T09:02:55Z</time>
      </trkpt>
      <trkpt lat="44.42276" lon="6.48613">
        <ele>2111.19</ele>
        <time>2017-10-12T09:03:10Z</time>
      </trkpt>
      <trkpt lat="44.42271" lon="6.48622">
        <ele>2112.63</ele>
        <time>2017-10-12T09:03:25Z</time>
      </trkpt>
      <trkpt lat="44.42272" lon="6.48629">
        <ele>2115.04</ele>
        <time>2017-10-12T09:03:40Z</time>
      </trkpt>
      <trkpt lat="44.42276" lon="6.48637">
        <ele>2116.96</ele>
        <time>2017-10-12T09:03:55Z</time>
      </trkpt>
      <trkpt lat="44.42281" lon="6.48644">
        <ele>2119.84</ele>
        <time>2017-10-12T09:04:11Z</time>
      </trkpt>
      <trkpt lat="44.42282" lon="6.48652">
        <ele>2121.77</ele>
        <time>2017-10-12T09:04:25Z</time>
      </trkpt>
      <trkpt lat="44.4228" lon="6.48659">
        <ele>2124.17</ele>
        <time>2017-10-12T09:04:37Z</time>
      </trkpt>
      <trkpt lat="44.42291" lon="6.48662">
        <ele>2126.57</ele>
        <time>2017-10-12T09:04:52Z</time>
      </trkpt>
      <trkpt lat="44.42286" lon="6.48668">
        <ele>2128.02</ele>
        <time>2017-10-12T09:05:01Z</time>
      </trkpt>
      <trkpt lat="44.42277" lon="6.48675">
        <ele>2129.94</ele>
        <time>2017-10-12T09:05:16Z</time>
      </trkpt>
      <trkpt lat="44.4227" lon="6.48676">
        <ele>2130.42</ele>
        <time>2017-10-12T09:05:30Z</time>
      </trkpt>
      <trkpt lat="44.42265" lon="6.48674">
        <ele>2131.38</ele>
        <time>2017-10-12T09:05:44Z</time>
      </trkpt>
      <trkpt lat="44.42257" lon="6.48683">
        <ele>2133.78</ele>
        <time>2017-10-12T09:06:00Z</time>
      </trkpt>
      <trkpt lat="44.42248" lon="6.48687">
        <ele>2136.19</ele>
        <time>2017-10-12T09:06:15Z</time>
      </trkpt>
      <trkpt lat="44.42244" lon="6.48686">
        <ele>2137.15</ele>
        <time>2017-10-12T09:06:30Z</time>
      </trkpt>
      <trkpt lat="44.42237" lon="6.48692">
        <ele>2139.07</ele>
        <time>2017-10-12T09:06:44Z</time>
      </trkpt>
      <trkpt lat="44.42231" lon="6.48692">
        <ele>2140.99</ele>
        <time>2017-10-12T09:07:01Z</time>
      </trkpt>
      <trkpt lat="44.42227" lon="6.48691">
        <ele>2142.44</ele>
        <time>2017-10-12T09:07:16Z</time>
      </trkpt>
      <trkpt lat="44.42224" lon="6.48693">
        <ele>2144.84</ele>
        <time>2017-10-12T09:07:29Z</time>
      </trkpt>
      <trkpt lat="44.42224" lon="6.48692">
        <ele>2144.84</ele>
        <time>2017-10-12T09:07:30Z</time>
      </trkpt>
      <trkpt lat="44.42218" lon="6.48687">
        <ele>2146.76</ele>
        <time>2017-10-12T09:07:43Z</time>
      </trkpt>
      <trkpt lat="44.4221" lon="6.48683">
        <ele>2149.65</ele>
        <time>2017-10-12T09:08:01Z</time>
      </trkpt>
      <trkpt lat="44.42205" lon="6.48682">
        <ele>2152.05</ele>
        <time>2017-10-12T09:08:17Z</time>
      </trkpt>
      <trkpt lat="44.42201" lon="6.48675">
        <ele>2153.97</ele>
        <time>2017-10-12T09:08:32Z</time>
      </trkpt>
      <trkpt lat="44.42205" lon="6.48674">
        <ele>2153.97</ele>
        <time>2017-10-12T09:09:02Z</time>
      </trkpt>
      <trkpt lat="44.42198" lon="6.48678">
        <ele>2155.89</ele>
        <time>2017-10-12T09:09:38Z</time>
      </trkpt>
      <trkpt lat="44.42194" lon="6.48675">
        <ele>2157.34</ele>
        <time>2017-10-12T09:09:55Z</time>
      </trkpt>
      <trkpt lat="44.42196" lon="6.48678">
        <ele>2156.86</ele>
        <time>2017-10-12T09:10:25Z</time>
      </trkpt>
      <trkpt lat="44.42192" lon="6.48676">
        <ele>2157.34</ele>
        <time>2017-10-12T09:10:54Z</time>
      </trkpt>
      <trkpt lat="44.42194" lon="6.4868">
        <ele>2157.34</ele>
        <time>2017-10-12T09:11:23Z</time>
      </trkpt>
      <trkpt lat="44.42191" lon="6.48673">
        <ele>2157.34</ele>
        <time>2017-10-12T09:11:46Z</time>
      </trkpt>
      <trkpt lat="44.42191" lon="6.48676">
        <ele>2157.34</ele>
        <time>2017-10-12T09:12:07Z</time>
      </trkpt>
      <trkpt lat="44.42191" lon="6.48669">
        <ele>2157.34</ele>
        <time>2017-10-12T09:12:34Z</time>
      </trkpt>
      <trkpt lat="44.42188" lon="6.48671">
        <ele>2157.82</ele>
        <time>2017-10-12T09:13:07Z</time>
      </trkpt>
      <trkpt lat="44.42188" lon="6.48668">
        <ele>2157.82</ele>
        <time>2017-10-12T09:13:31Z</time>
      </trkpt>
      <trkpt lat="44.42191" lon="6.48672">
        <ele>2157.82</ele>
        <time>2017-10-12T09:13:48Z</time>
      </trkpt>
      <trkpt lat="44.4219" lon="6.4867">
        <ele>2157.82</ele>
        <time>2017-10-12T09:14:18Z</time>
      </trkpt>
      <trkpt lat="44.42191" lon="6.48669">
        <ele>2158.3</ele>
        <time>2017-10-12T09:14:36Z</time>
      </trkpt>
      <trkpt lat="44.42184" lon="6.48681">
        <ele>2160.22</ele>
        <time>2017-10-12T09:14:55Z</time>
      </trkpt>
      <trkpt lat="44.42183" lon="6.48681">
        <ele>2160.22</ele>
        <time>2017-10-12T09:14:56Z</time>
      </trkpt>
      <trkpt lat="44.42177" lon="6.48678">
        <ele>2161.66</ele>
        <time>2017-10-12T09:15:09Z</time>
      </trkpt>
      <trkpt lat="44.42172" lon="6.48679">
        <ele>2163.58</ele>
        <time>2017-10-12T09:15:23Z</time>
      </trkpt>
      <trkpt lat="44.4217" lon="6.48678">
        <ele>2164.55</ele>
        <time>2017-10-12T09:15:39Z</time>
      </trkpt>
      <trkpt lat="44.42162" lon="6.48682">
        <ele>2167.43</ele>
        <time>2017-10-12T09:15:56Z</time>
      </trkpt>
      <trkpt lat="44.42154" lon="6.48687">
        <ele>2169.35</ele>
        <time>2017-10-12T09:16:12Z</time>
      </trkpt>
      <trkpt lat="44.42152" lon="6.48692">
        <ele>2171.27</ele>
        <time>2017-10-12T09:16:23Z</time>
      </trkpt>
      <trkpt lat="44.42151" lon="6.48698">
        <ele>2173.2</ele>
        <time>2017-10-12T09:16:36Z</time>
      </trkpt>
      <trkpt lat="44.42152" lon="6.48708">
        <ele>2176.08</ele>
        <time>2017-10-12T09:16:53Z</time>
      </trkpt>
      <trkpt lat="44.42156" lon="6.48713">
        <ele>2177.52</ele>
        <time>2017-10-12T09:17:04Z</time>
      </trkpt>
      <trkpt lat="44.42158" lon="6.48719">
        <ele>2179.45</ele>
        <time>2017-10-12T09:17:17Z</time>
      </trkpt>
      <trkpt lat="44.42153" lon="6.48729">
        <ele>2181.85</ele>
        <time>2017-10-12T09:17:33Z</time>
      </trkpt>
      <trkpt lat="44.42144" lon="6.48738">
        <ele>2184.25</ele>
        <time>2017-10-12T09:17:49Z</time>
      </trkpt>
      <trkpt lat="44.4214" lon="6.48747">
        <ele>2187.14</ele>
        <time>2017-10-12T09:18:06Z</time>
      </trkpt>
      <trkpt lat="44.42137" lon="6.48751">
        <ele>2188.1</ele>
        <time>2017-10-12T09:18:17Z</time>
      </trkpt>
      <trkpt lat="44.42127" lon="6.48753">
        <ele>2190.98</ele>
        <time>2017-10-12T09:18:35Z</time>
      </trkpt>
      <trkpt lat="44.42119" lon="6.48761">
        <ele>2195.31</ele>
        <time>2017-10-12T09:18:51Z</time>
      </trkpt>
      <trkpt lat="44.42112" lon="6.48768">
        <ele>2196.27</ele>
        <time>2017-10-12T09:19:06Z</time>
      </trkpt>
      <trkpt lat="44.42103" lon="6.48773">
        <ele>2199.15</ele>
        <time>2017-10-12T09:19:22Z</time>
      </trkpt>
      <trkpt lat="44.42097" lon="6.48781">
        <ele>2201.08</ele>
        <time>2017-10-12T09:19:36Z</time>
      </trkpt>
      <trkpt lat="44.42091" lon="6.48789">
        <ele>2204.44</ele>
        <time>2017-10-12T09:19:52Z</time>
      </trkpt>
      <trkpt lat="44.42087" lon="6.48798">
        <ele>2206.84</ele>
        <time>2017-10-12T09:20:07Z</time>
      </trkpt>
      <trkpt lat="44.42078" lon="6.48803">
        <ele>2209.25</ele>
        <time>2017-10-12T09:20:24Z</time>
      </trkpt>
      <trkpt lat="44.42073" lon="6.48811">
        <ele>2212.13</ele>
        <time>2017-10-12T09:20:38Z</time>
      </trkpt>
      <trkpt lat="44.42068" lon="6.48813">
        <ele>2214.53</ele>
        <time>2017-10-12T09:20:51Z</time>
      </trkpt>
      <trkpt lat="44.42061" lon="6.48812">
        <ele>2216.94</ele>
        <time>2017-10-12T09:21:06Z</time>
      </trkpt>
      <trkpt lat="44.42055" lon="6.4881">
        <ele>2219.34</ele>
        <time>2017-10-12T09:21:21Z</time>
      </trkpt>
      <trkpt lat="44.42052" lon="6.48817">
        <ele>2222.22</ele>
        <time>2017-10-12T09:21:37Z</time>
      </trkpt>
      <trkpt lat="44.42048" lon="6.48817">
        <ele>2224.63</ele>
        <time>2017-10-12T09:21:51Z</time>
      </trkpt>
      <trkpt lat="44.42051" lon="6.48825">
        <ele>2226.55</ele>
        <time>2017-10-12T09:22:07Z</time>
      </trkpt>
      <trkpt lat="44.42054" lon="6.48833">
        <ele>2228.95</ele>
        <time>2017-10-12T09:22:22Z</time>
      </trkpt>
      <trkpt lat="44.42052" lon="6.48841">
        <ele>2231.36</ele>
        <time>2017-10-12T09:22:36Z</time>
      </trkpt>
      <trkpt lat="44.42049" lon="6.48843">
        <ele>2233.76</ele>
        <time>2017-10-12T09:22:50Z</time>
      </trkpt>
      <trkpt lat="44.42053" lon="6.48851">
        <ele>2236.16</ele>
        <time>2017-10-12T09:23:06Z</time>
      </trkpt>
      <trkpt lat="44.42059" lon="6.48857">
        <ele>2238.57</ele>
        <time>2017-10-12T09:23:24Z</time>
      </trkpt>
      <trkpt lat="44.42059" lon="6.48858">
        <ele>2239.53</ele>
        <time>2017-10-12T09:23:47Z</time>
      </trkpt>
      <trkpt lat="44.42055" lon="6.48857">
        <ele>2239.05</ele>
        <time>2017-10-12T09:24:03Z</time>
      </trkpt>
      <trkpt lat="44.42057" lon="6.48853">
        <ele>2239.05</ele>
        <time>2017-10-12T09:24:24Z</time>
      </trkpt>
      <trkpt lat="44.42059" lon="6.48854">
        <ele>2239.53</ele>
        <time>2017-10-12T09:24:53Z</time>
      </trkpt>
      <trkpt lat="44.4206" lon="6.48858">
        <ele>2240.01</ele>
        <time>2017-10-12T09:25:07Z</time>
      </trkpt>
      <trkpt lat="44.4206" lon="6.4886">
        <ele>2240.49</ele>
        <time>2017-10-12T09:25:29Z</time>
      </trkpt>
      <trkpt lat="44.42059" lon="6.48856">
        <ele>2240.49</ele>
        <time>2017-10-12T09:25:59Z</time>
      </trkpt>
      <trkpt lat="44.42059" lon="6.48854">
        <ele>2240.49</ele>
        <time>2017-10-12T09:26:28Z</time>
      </trkpt>
      <trkpt lat="44.42055" lon="6.4885">
        <ele>2240.97</ele>
        <time>2017-10-12T09:26:48Z</time>
      </trkpt>
      <trkpt lat="44.4205" lon="6.48849">
        <ele>2240.97</ele>
        <time>2017-10-12T09:27:17Z</time>
      </trkpt>
      <trkpt lat="44.42048" lon="6.48846">
        <ele>2241.45</ele>
        <time>2017-10-12T09:27:49Z</time>
      </trkpt>
      <trkpt lat="44.4205" lon="6.4884">
        <ele>2241.45</ele>
        <time>2017-10-12T09:28:17Z</time>
      </trkpt>
      <trkpt lat="44.42053" lon="6.48844">
        <ele>2241.93</ele>
        <time>2017-10-12T09:28:50Z</time>
      </trkpt>
      <trkpt lat="44.42054" lon="6.4885">
        <ele>2242.41</ele>
        <time>2017-10-12T09:29:25Z</time>
      </trkpt>
      <trkpt lat="44.42054" lon="6.48864">
        <ele>2244.33</ele>
        <time>2017-10-12T09:29:37Z</time>
      </trkpt>
      <trkpt lat="44.4205" lon="6.48868">
        <ele>2247.22</ele>
        <time>2017-10-12T09:29:53Z</time>
      </trkpt>
      <trkpt lat="44.42042" lon="6.48863">
        <ele>2249.14</ele>
        <time>2017-10-12T09:30:07Z</time>
      </trkpt>
      <trkpt lat="44.42046" lon="6.48871">
        <ele>2251.06</ele>
        <time>2017-10-12T09:30:20Z</time>
      </trkpt>
      <trkpt lat="44.42051" lon="6.48878">
        <ele>2252.99</ele>
        <time>2017-10-12T09:30:34Z</time>
      </trkpt>
      <trkpt lat="44.42053" lon="6.48879">
        <ele>2253.47</ele>
        <time>2017-10-12T09:30:37Z</time>
      </trkpt>
      <trkpt lat="44.42063" lon="6.48889">
        <ele>2255.39</ele>
        <time>2017-10-12T09:30:53Z</time>
      </trkpt>
      <trkpt lat="44.42068" lon="6.48896">
        <ele>2257.79</ele>
        <time>2017-10-12T09:31:09Z</time>
      </trkpt>
      <trkpt lat="44.42073" lon="6.48899">
        <ele>2260.2</ele>
        <time>2017-10-12T09:31:24Z</time>
      </trkpt>
      <trkpt lat="44.42077" lon="6.48902">
        <ele>2261.16</ele>
        <time>2017-10-12T09:31:39Z</time>
      </trkpt>
      <trkpt lat="44.4208" lon="6.48907">
        <ele>2263.56</ele>
        <time>2017-10-12T09:31:52Z</time>
      </trkpt>
      <trkpt lat="44.42084" lon="6.48912">
        <ele>2265.96</ele>
        <time>2017-10-12T09:32:05Z</time>
      </trkpt>
      <trkpt lat="44.42093" lon="6.48917">
        <ele>2267.89</ele>
        <time>2017-10-12T09:32:20Z</time>
      </trkpt>
      <trkpt lat="44.42096" lon="6.48925">
        <ele>2270.29</ele>
        <time>2017-10-12T09:32:35Z</time>
      </trkpt>
      <trkpt lat="44.42086" lon="6.48931">
        <ele>2272.69</ele>
        <time>2017-10-12T09:32:50Z</time>
      </trkpt>
      <trkpt lat="44.42081" lon="6.48934">
        <ele>2274.62</ele>
        <time>2017-10-12T09:33:04Z</time>
      </trkpt>
      <trkpt lat="44.4207" lon="6.48939">
        <ele>2277.5</ele>
        <time>2017-10-12T09:33:22Z</time>
      </trkpt>
      <trkpt lat="44.42057" lon="6.48942">
        <ele>2280.38</ele>
        <time>2017-10-12T09:33:40Z</time>
      </trkpt>
      <trkpt lat="44.42051" lon="6.48947">
        <ele>2282.79</ele>
        <time>2017-10-12T09:33:56Z</time>
      </trkpt>
      <trkpt lat="44.42041" lon="6.48945">
        <ele>2285.67</ele>
        <time>2017-10-12T09:34:12Z</time>
      </trkpt>
      <trkpt lat="44.42034" lon="6.48946">
        <ele>2287.59</ele>
        <time>2017-10-12T09:34:27Z</time>
      </trkpt>
      <trkpt lat="44.42025" lon="6.48947">
        <ele>2290</ele>
        <time>2017-10-12T09:34:43Z</time>
      </trkpt>
      <trkpt lat="44.42021" lon="6.48953">
        <ele>2292.4</ele>
        <time>2017-10-12T09:34:57Z</time>
      </trkpt>
      <trkpt lat="44.42017" lon="6.48961">
        <ele>2295.28</ele>
        <time>2017-10-12T09:35:13Z</time>
      </trkpt>
      <trkpt lat="44.42011" lon="6.48973">
        <ele>2298.17</ele>
        <time>2017-10-12T09:35:33Z</time>
      </trkpt>
      <trkpt lat="44.42011" lon="6.48977">
        <ele>2298.65</ele>
        <time>2017-10-12T09:35:47Z</time>
      </trkpt>
      <trkpt lat="44.42006" lon="6.48972">
        <ele>2300.09</ele>
        <time>2017-10-12T09:36:02Z</time>
      </trkpt>
      <trkpt lat="44.42008" lon="6.48974">
        <ele>2300.09</ele>
        <time>2017-10-12T09:36:19Z</time>
      </trkpt>
      <trkpt lat="44.42005" lon="6.48973">
        <ele>2299.61</ele>
        <time>2017-10-12T09:36:50Z</time>
      </trkpt>
      <trkpt lat="44.42005" lon="6.48974">
        <ele>2299.61</ele>
        <time>2017-10-12T09:37:17Z</time>
      </trkpt>
      <trkpt lat="44.42006" lon="6.48973">
        <ele>2299.61</ele>
        <time>2017-10-12T09:37:36Z</time>
      </trkpt>
      <trkpt lat="44.42007" lon="6.48973">
        <ele>2300.09</ele>
        <time>2017-10-12T09:37:51Z</time>
      </trkpt>
      <trkpt lat="44.42009" lon="6.48973">
        <ele>2300.09</ele>
        <time>2017-10-12T09:38:21Z</time>
      </trkpt>
      <trkpt lat="44.42009" lon="6.48974">
        <ele>2300.09</ele>
        <time>2017-10-12T09:38:50Z</time>
      </trkpt>
      <trkpt lat="44.42009" lon="6.48975">
        <ele>2300.09</ele>
        <time>2017-10-12T09:39:25Z</time>
      </trkpt>
      <trkpt lat="44.42009" lon="6.48974">
        <ele>2300.09</ele>
        <time>2017-10-12T09:40:05Z</time>
      </trkpt>
      <trkpt lat="44.42011" lon="6.48973">
        <ele>2300.09</ele>
        <time>2017-10-12T09:40:33Z</time>
      </trkpt>
      <trkpt lat="44.4201" lon="6.48974">
        <ele>2300.09</ele>
        <time>2017-10-12T09:41:06Z</time>
      </trkpt>
      <trkpt lat="44.42003" lon="6.48969">
        <ele>2300.57</ele>
        <time>2017-10-12T09:41:23Z</time>
      </trkpt>
      <trkpt lat="44.41997" lon="6.48966">
        <ele>2302.49</ele>
        <time>2017-10-12T09:41:40Z</time>
      </trkpt>
      <trkpt lat="44.4199" lon="6.48963">
        <ele>2304.42</ele>
        <time>2017-10-12T09:41:58Z</time>
      </trkpt>
      <trkpt lat="44.41983" lon="6.48955">
        <ele>2306.34</ele>
        <time>2017-10-12T09:42:12Z</time>
      </trkpt>
      <trkpt lat="44.41975" lon="6.48948">
        <ele>2307.78</ele>
        <time>2017-10-12T09:42:28Z</time>
      </trkpt>
      <trkpt lat="44.41966" lon="6.48944">
        <ele>2310.67</ele>
        <time>2017-10-12T09:42:46Z</time>
      </trkpt>
      <trkpt lat="44.41956" lon="6.48937">
        <ele>2312.59</ele>
        <time>2017-10-12T09:43:01Z</time>
      </trkpt>
      <trkpt lat="44.41943" lon="6.48933">
        <ele>2314.51</ele>
        <time>2017-10-12T09:43:19Z</time>
      </trkpt>
      <trkpt lat="44.41932" lon="6.48931">
        <ele>2316.43</ele>
        <time>2017-10-12T09:43:36Z</time>
      </trkpt>
      <trkpt lat="44.41922" lon="6.48927">
        <ele>2318.36</ele>
        <time>2017-10-12T09:43:50Z</time>
      </trkpt>
      <trkpt lat="44.41912" lon="6.48919">
        <ele>2319.8</ele>
        <time>2017-10-12T09:44:05Z</time>
      </trkpt>
      <trkpt lat="44.41903" lon="6.48914">
        <ele>2322.2</ele>
        <time>2017-10-12T09:44:21Z</time>
      </trkpt>
      <trkpt lat="44.41904" lon="6.48918">
        <ele>2322.2</ele>
        <time>2017-10-12T09:44:40Z</time>
      </trkpt>
      <trkpt lat="44.41905" lon="6.48915">
        <ele>2322.2</ele>
        <time>2017-10-12T09:45:12Z</time>
      </trkpt>
      <trkpt lat="44.41902" lon="6.48917">
        <ele>2322.2</ele>
        <time>2017-10-12T09:45:48Z</time>
      </trkpt>
      <trkpt lat="44.41903" lon="6.48907">
        <ele>2322.68</ele>
        <time>2017-10-12T09:46:02Z</time>
      </trkpt>
      <trkpt lat="44.41898" lon="6.48902">
        <ele>2323.16</ele>
        <time>2017-10-12T09:46:15Z</time>
      </trkpt>
      <trkpt lat="44.41892" lon="6.48898">
        <ele>2325.57</ele>
        <time>2017-10-12T09:46:32Z</time>
      </trkpt>
      <trkpt lat="44.41886" lon="6.48901">
        <ele>2328.93</ele>
        <time>2017-10-12T09:46:45Z</time>
      </trkpt>
      <trkpt lat="44.41881" lon="6.48899">
        <ele>2331.33</ele>
        <time>2017-10-12T09:46:58Z</time>
      </trkpt>
      <trkpt lat="44.41877" lon="6.48896">
        <ele>2333.74</ele>
        <time>2017-10-12T09:47:11Z</time>
      </trkpt>
      <trkpt lat="44.41872" lon="6.48894">
        <ele>2336.62</ele>
        <time>2017-10-12T09:47:26Z</time>
      </trkpt>
      <trkpt lat="44.41868" lon="6.48889">
        <ele>2338.54</ele>
        <time>2017-10-12T09:47:42Z</time>
      </trkpt>
      <trkpt lat="44.41863" lon="6.48878">
        <ele>2340.95</ele>
        <time>2017-10-12T09:47:58Z</time>
      </trkpt>
      <trkpt lat="44.41858" lon="6.48877">
        <ele>2342.87</ele>
        <time>2017-10-12T09:48:11Z</time>
      </trkpt>
      <trkpt lat="44.41852" lon="6.48869">
        <ele>2345.27</ele>
        <time>2017-10-12T09:48:26Z</time>
      </trkpt>
      <trkpt lat="44.4185" lon="6.4887">
        <ele>2347.68</ele>
        <time>2017-10-12T09:48:40Z</time>
      </trkpt>
      <trkpt lat="44.41846" lon="6.48876">
        <ele>2350.08</ele>
        <time>2017-10-12T09:48:56Z</time>
      </trkpt>
      <trkpt lat="44.4184" lon="6.48866">
        <ele>2352</ele>
        <time>2017-10-12T09:49:09Z</time>
      </trkpt>
      <trkpt lat="44.41836" lon="6.48861">
        <ele>2354.89</ele>
        <time>2017-10-12T09:49:26Z</time>
      </trkpt>
      <trkpt lat="44.41831" lon="6.48854">
        <ele>2357.29</ele>
        <time>2017-10-12T09:49:43Z</time>
      </trkpt>
      <trkpt lat="44.41829" lon="6.48844">
        <ele>2360.65</ele>
        <time>2017-10-12T09:49:58Z</time>
      </trkpt>
      <trkpt lat="44.41825" lon="6.48837">
        <ele>2362.1</ele>
        <time>2017-10-12T09:50:14Z</time>
      </trkpt>
      <trkpt lat="44.41822" lon="6.4883">
        <ele>2364.5</ele>
        <time>2017-10-12T09:50:29Z</time>
      </trkpt>
      <trkpt lat="44.41818" lon="6.48838">
        <ele>2366.9</ele>
        <time>2017-10-12T09:50:46Z</time>
      </trkpt>
      <trkpt lat="44.41816" lon="6.48831">
        <ele>2368.83</ele>
        <time>2017-10-12T09:51:02Z</time>
      </trkpt>
      <trkpt lat="44.41813" lon="6.48827">
        <ele>2370.75</ele>
        <time>2017-10-12T09:51:15Z</time>
      </trkpt>
      <trkpt lat="44.4181" lon="6.48823">
        <ele>2373.15</ele>
        <time>2017-10-12T09:51:33Z</time>
      </trkpt>
      <trkpt lat="44.41809" lon="6.48814">
        <ele>2375.55</ele>
        <time>2017-10-12T09:51:50Z</time>
      </trkpt>
      <trkpt lat="44.41805" lon="6.48815">
        <ele>2377.48</ele>
        <time>2017-10-12T09:52:03Z</time>
      </trkpt>
      <trkpt lat="44.41801" lon="6.48821">
        <ele>2379.88</ele>
        <time>2017-10-12T09:52:18Z</time>
      </trkpt>
      <trkpt lat="44.418" lon="6.48811">
        <ele>2381.8</ele>
        <time>2017-10-12T09:52:33Z</time>
      </trkpt>
      <trkpt lat="44.41797" lon="6.48804">
        <ele>2384.21</ele>
        <time>2017-10-12T09:52:47Z</time>
      </trkpt>
      <trkpt lat="44.41791" lon="6.48796">
        <ele>2386.61</ele>
        <time>2017-10-12T09:53:03Z</time>
      </trkpt>
      <trkpt lat="44.41786" lon="6.48795">
        <ele>2389.01</ele>
        <time>2017-10-12T09:53:19Z</time>
      </trkpt>
      <trkpt lat="44.4178" lon="6.48793">
        <ele>2391.42</ele>
        <time>2017-10-12T09:53:36Z</time>
      </trkpt>
      <trkpt lat="44.41774" lon="6.48787">
        <ele>2394.3</ele>
        <time>2017-10-12T09:53:51Z</time>
      </trkpt>
      <trkpt lat="44.41768" lon="6.48782">
        <ele>2397.18</ele>
        <time>2017-10-12T09:54:06Z</time>
      </trkpt>
      <trkpt lat="44.41764" lon="6.48777">
        <ele>2399.59</ele>
        <time>2017-10-12T09:54:20Z</time>
      </trkpt>
      <trkpt lat="44.41758" lon="6.48776">
        <ele>2401.99</ele>
        <time>2017-10-12T09:54:34Z</time>
      </trkpt>
      <trkpt lat="44.41753" lon="6.48773">
        <ele>2404.39</ele>
        <time>2017-10-12T09:54:48Z</time>
      </trkpt>
      <trkpt lat="44.41746" lon="6.48777">
        <ele>2406.8</ele>
        <time>2017-10-12T09:55:04Z</time>
      </trkpt>
      <trkpt lat="44.4174" lon="6.48779">
        <ele>2408.24</ele>
        <time>2017-10-12T09:55:21Z</time>
      </trkpt>
      <trkpt lat="44.4174" lon="6.48782">
        <ele>2409.2</ele>
        <time>2017-10-12T09:55:36Z</time>
      </trkpt>
      <trkpt lat="44.41739" lon="6.48778">
        <ele>2409.2</ele>
        <time>2017-10-12T09:55:58Z</time>
      </trkpt>
      <trkpt lat="44.41739" lon="6.4878">
        <ele>2409.2</ele>
        <time>2017-10-12T09:56:19Z</time>
      </trkpt>
      <trkpt lat="44.41738" lon="6.48784">
        <ele>2409.68</ele>
        <time>2017-10-12T09:56:42Z</time>
      </trkpt>
      <trkpt lat="44.41739" lon="6.48783">
        <ele>2410.16</ele>
        <time>2017-10-12T09:57:03Z</time>
      </trkpt>
      <trkpt lat="44.4174" lon="6.48783">
        <ele>2409.68</ele>
        <time>2017-10-12T09:57:24Z</time>
      </trkpt>
      <trkpt lat="44.4174" lon="6.48783">
        <ele>2409.68</ele>
        <time>2017-10-12T09:57:50Z</time>
      </trkpt>
      <trkpt lat="44.41737" lon="6.48784">
        <ele>2408.72</ele>
        <time>2017-10-12T09:58:07Z</time>
      </trkpt>
      <trkpt lat="44.41737" lon="6.48782">
        <ele>2409.2</ele>
        <time>2017-10-12T09:58:35Z</time>
      </trkpt>
      <trkpt lat="44.41737" lon="6.48783">
        <ele>2409.2</ele>
        <time>2017-10-12T09:59:16Z</time>
      </trkpt>
      <trkpt lat="44.41737" lon="6.48782">
        <ele>2409.2</ele>
        <time>2017-10-12T09:59:46Z</time>
      </trkpt>
      <trkpt lat="44.41738" lon="6.48782">
        <ele>2409.2</ele>
        <time>2017-10-12T10:00:16Z</time>
      </trkpt>
      <trkpt lat="44.41738" lon="6.48782">
        <ele>2409.2</ele>
        <time>2017-10-12T10:00:51Z</time>
      </trkpt>
      <trkpt lat="44.41738" lon="6.48782">
        <ele>2409.2</ele>
        <time>2017-10-12T10:01:29Z</time>
      </trkpt>
      <trkpt lat="44.41738" lon="6.48782">
        <ele>2408.72</ele>
        <time>2017-10-12T10:01:57Z</time>
      </trkpt>
      <trkpt lat="44.41738" lon="6.48782">
        <ele>2408.72</ele>
        <time>2017-10-12T10:02:25Z</time>
      </trkpt>
      <trkpt lat="44.41738" lon="6.48782">
        <ele>2408.72</ele>
        <time>2017-10-12T10:03:02Z</time>
      </trkpt>
      <trkpt lat="44.41738" lon="6.48782">
        <ele>2408.72</ele>
        <time>2017-10-12T10:03:34Z</time>
      </trkpt>
      <trkpt lat="44.41738" lon="6.48782">
        <ele>2408.72</ele>
        <time>2017-10-12T10:04:09Z</time>
      </trkpt>
      <trkpt lat="44.41737" lon="6.48782">
        <ele>2408.72</ele>
        <time>2017-10-12T10:04:40Z</time>
      </trkpt>
      <trkpt lat="44.41738" lon="6.48782">
        <ele>2408.72</ele>
        <time>2017-10-12T10:05:11Z</time>
      </trkpt>
      <trkpt lat="44.41738" lon="6.48782">
        <ele>2408.72</ele>
        <time>2017-10-12T10:05:12Z</time>
      </trkpt>
      <trkpt lat="44.41736" lon="6.48783">
        <ele>2409.2</ele>
        <time>2017-10-12T10:05:20Z</time>
      </trkpt>
      <trkpt lat="44.41739" lon="6.48781">
        <ele>2409.2</ele>
        <time>2017-10-12T10:05:35Z</time>
      </trkpt>
      <trkpt lat="44.41741" lon="6.48783">
        <ele>2408.72</ele>
        <time>2017-10-12T10:05:46Z</time>
      </trkpt>
      <trkpt lat="44.41741" lon="6.48782">
        <ele>2408.72</ele>
        <time>2017-10-12T10:05:47Z</time>
      </trkpt>
      <trkpt lat="44.41744" lon="6.48779">
        <ele>2407.28</ele>
        <time>2017-10-12T10:05:57Z</time>
      </trkpt>
      <trkpt lat="44.41746" lon="6.4878">
        <ele>2407.28</ele>
        <time>2017-10-12T10:06:20Z</time>
      </trkpt>
      <trkpt lat="44.41745" lon="6.48781">
        <ele>2407.28</ele>
        <time>2017-10-12T10:06:45Z</time>
      </trkpt>
      <trkpt lat="44.41746" lon="6.48782">
        <ele>2407.28</ele>
        <time>2017-10-12T10:07:32Z</time>
      </trkpt>
      <trkpt lat="44.41746" lon="6.48781">
        <ele>2407.28</ele>
        <time>2017-10-12T10:08:12Z</time>
      </trkpt>
      <trkpt lat="44.41745" lon="6.48781">
        <ele>2407.28</ele>
        <time>2017-10-12T10:08:59Z</time>
      </trkpt>
      <trkpt lat="44.41746" lon="6.48782">
        <ele>2407.76</ele>
        <time>2017-10-12T10:09:47Z</time>
      </trkpt>
      <trkpt lat="44.41745" lon="6.4878">
        <ele>2407.76</ele>
        <time>2017-10-12T10:10:29Z</time>
      </trkpt>
      <trkpt lat="44.41744" lon="6.48779">
        <ele>2407.76</ele>
        <time>2017-10-12T10:11:15Z</time>
      </trkpt>
      <trkpt lat="44.41745" lon="6.48778">
        <ele>2407.76</ele>
        <time>2017-10-12T10:11:47Z</time>
      </trkpt>
      <trkpt lat="44.41744" lon="6.48779">
        <ele>2407.76</ele>
        <time>2017-10-12T10:12:23Z</time>
      </trkpt>
      <trkpt lat="44.41744" lon="6.48778">
        <ele>2407.76</ele>
        <time>2017-10-12T10:12:59Z</time>
      </trkpt>
      <trkpt lat="44.41744" lon="6.48778">
        <ele>2407.76</ele>
        <time>2017-10-12T10:13:38Z</time>
      </trkpt>
      <trkpt lat="44.41744" lon="6.48778">
        <ele>2407.76</ele>
        <time>2017-10-12T10:14:17Z</time>
      </trkpt>
      <trkpt lat="44.41744" lon="6.48778">
        <ele>2407.76</ele>
        <time>2017-10-12T10:14:55Z</time>
      </trkpt>
      <trkpt lat="44.41745" lon="6.4878">
        <ele>2407.28</ele>
        <time>2017-10-12T10:15:35Z</time>
      </trkpt>
      <trkpt lat="44.41745" lon="6.4878">
        <ele>2407.28</ele>
        <time>2017-10-12T10:16:17Z</time>
      </trkpt>
      <trkpt lat="44.41743" lon="6.4878">
        <ele>2407.76</ele>
        <time>2017-10-12T10:16:33Z</time>
      </trkpt>
      <trkpt lat="44.41743" lon="6.4878">
        <ele>2407.76</ele>
        <time>2017-10-12T10:17:13Z</time>
      </trkpt>
      <trkpt lat="44.41743" lon="6.4878">
        <ele>2407.76</ele>
        <time>2017-10-12T10:17:53Z</time>
      </trkpt>
      <trkpt lat="44.41743" lon="6.4878">
        <ele>2408.24</ele>
        <time>2017-10-12T10:18:35Z</time>
      </trkpt>
      <trkpt lat="44.41743" lon="6.4878">
        <ele>2408.24</ele>
        <time>2017-10-12T10:19:07Z</time>
      </trkpt>
      <trkpt lat="44.41743" lon="6.48779">
        <ele>2408.72</ele>
        <time>2017-10-12T10:19:48Z</time>
      </trkpt>
      <trkpt lat="44.41743" lon="6.4878">
        <ele>2409.2</ele>
        <time>2017-10-12T10:20:28Z</time>
      </trkpt>
      <trkpt lat="44.41743" lon="6.4878">
        <ele>2409.68</ele>
        <time>2017-10-12T10:21:01Z</time>
      </trkpt>
      <trkpt lat="44.41743" lon="6.4878">
        <ele>2409.68</ele>
        <time>2017-10-12T10:21:48Z</time>
      </trkpt>
      <trkpt lat="44.41743" lon="6.4878">
        <ele>2410.16</ele>
        <time>2017-10-12T10:22:27Z</time>
      </trkpt>
      <trkpt lat="44.41743" lon="6.4878">
        <ele>2410.16</ele>
        <time>2017-10-12T10:23:10Z</time>
      </trkpt>
      <trkpt lat="44.41743" lon="6.4878">
        <ele>2410.16</ele>
        <time>2017-10-12T10:23:48Z</time>
      </trkpt>
      <trkpt lat="44.41743" lon="6.4878">
        <ele>2410.64</ele>
        <time>2017-10-12T10:24:25Z</time>
      </trkpt>
      <trkpt lat="44.41743" lon="6.4878">
        <ele>2411.12</ele>
        <time>2017-10-12T10:25:01Z</time>
      </trkpt>
      <trkpt lat="44.41743" lon="6.48781">
        <ele>2410.64</ele>
        <time>2017-10-12T10:25:36Z</time>
      </trkpt>
      <trkpt lat="44.41744" lon="6.4878">
        <ele>2411.12</ele>
        <time>2017-10-12T10:26:13Z</time>
      </trkpt>
      <trkpt lat="44.41743" lon="6.4878">
        <ele>2410.64</ele>
        <time>2017-10-12T10:26:47Z</time>
      </trkpt>
      <trkpt lat="44.41744" lon="6.4878">
        <ele>2410.64</ele>
        <time>2017-10-12T10:27:27Z</time>
      </trkpt>
      <trkpt lat="44.41744" lon="6.4878">
        <ele>2410.64</ele>
        <time>2017-10-12T10:28:05Z</time>
      </trkpt>
      <trkpt lat="44.41744" lon="6.48781">
        <ele>2411.12</ele>
        <time>2017-10-12T10:28:46Z</time>
      </trkpt>
      <trkpt lat="44.41744" lon="6.48781">
        <ele>2411.12</ele>
        <time>2017-10-12T10:29:22Z</time>
      </trkpt>
      <trkpt lat="44.41743" lon="6.48781">
        <ele>2411.6</ele>
        <time>2017-10-12T10:30:06Z</time>
      </trkpt>
      <trkpt lat="44.41744" lon="6.48781">
        <ele>2411.6</ele>
        <time>2017-10-12T10:30:42Z</time>
      </trkpt>
      <trkpt lat="44.41744" lon="6.48781">
        <ele>2411.6</ele>
        <time>2017-10-12T10:31:23Z</time>
      </trkpt>
      <trkpt lat="44.41744" lon="6.48781">
        <ele>2411.6</ele>
        <time>2017-10-12T10:31:53Z</time>
      </trkpt>
      <trkpt lat="44.41743" lon="6.48781">
        <ele>2412.09</ele>
        <time>2017-10-12T10:32:28Z</time>
      </trkpt>
      <trkpt lat="44.41744" lon="6.48781">
        <ele>2411.6</ele>
        <time>2017-10-12T10:33:04Z</time>
      </trkpt>
      <trkpt lat="44.41744" lon="6.48781">
        <ele>2412.09</ele>
        <time>2017-10-12T10:33:44Z</time>
      </trkpt>
      <trkpt lat="44.41743" lon="6.48781">
        <ele>2412.09</ele>
        <time>2017-10-12T10:34:21Z</time>
      </trkpt>
      <trkpt lat="44.41744" lon="6.48781">
        <ele>2412.09</ele>
        <time>2017-10-12T10:35:01Z</time>
      </trkpt>
      <trkpt lat="44.41743" lon="6.48781">
        <ele>2412.09</ele>
        <time>2017-10-12T10:35:34Z</time>
      </trkpt>
      <trkpt lat="44.41744" lon="6.48781">
        <ele>2412.09</ele>
        <time>2017-10-12T10:36:07Z</time>
      </trkpt>
      <trkpt lat="44.41744" lon="6.48781">
        <ele>2412.57</ele>
        <time>2017-10-12T10:36:34Z</time>
      </trkpt>
      <trkpt lat="44.41743" lon="6.48781">
        <ele>2412.09</ele>
        <time>2017-10-12T10:37:11Z</time>
      </trkpt>
      <trkpt lat="44.41744" lon="6.48781">
        <ele>2412.09</ele>
        <time>2017-10-12T10:37:45Z</time>
      </trkpt>
      <trkpt lat="44.41744" lon="6.48781">
        <ele>2412.57</ele>
        <time>2017-10-12T10:38:12Z</time>
      </trkpt>
      <trkpt lat="44.41744" lon="6.48781">
        <ele>2412.57</ele>
        <time>2017-10-12T10:38:51Z</time>
      </trkpt>
      <trkpt lat="44.41744" lon="6.48781">
        <ele>2413.05</ele>
        <time>2017-10-12T10:39:18Z</time>
      </trkpt>
      <trkpt lat="44.41744" lon="6.48781">
        <ele>2412.57</ele>
        <time>2017-10-12T10:39:45Z</time>
      </trkpt>
      <trkpt lat="44.41743" lon="6.48781">
        <ele>2412.57</ele>
        <time>2017-10-12T10:40:19Z</time>
      </trkpt>
      <trkpt lat="44.41743" lon="6.48781">
        <ele>2412.57</ele>
        <time>2017-10-12T10:40:56Z</time>
      </trkpt>
      <trkpt lat="44.41743" lon="6.48781">
        <ele>2412.57</ele>
        <time>2017-10-12T10:41:29Z</time>
      </trkpt>
      <trkpt lat="44.41743" lon="6.48781">
        <ele>2412.57</ele>
        <time>2017-10-12T10:42:06Z</time>
      </trkpt>
      <trkpt lat="44.41743" lon="6.4878">
        <ele>2412.57</ele>
        <time>2017-10-12T10:42:37Z</time>
      </trkpt>
      <trkpt lat="44.41743" lon="6.48781">
        <ele>2412.57</ele>
        <time>2017-10-12T10:43:11Z</time>
      </trkpt>
      <trkpt lat="44.41743" lon="6.4878">
        <ele>2413.05</ele>
        <time>2017-10-12T10:43:41Z</time>
      </trkpt>
      <trkpt lat="44.41743" lon="6.4878">
        <ele>2413.05</ele>
        <time>2017-10-12T10:44:26Z</time>
      </trkpt>
      <trkpt lat="44.41743" lon="6.4878">
        <ele>2412.57</ele>
        <time>2017-10-12T10:45:02Z</time>
      </trkpt>
      <trkpt lat="44.41743" lon="6.4878">
        <ele>2413.05</ele>
        <time>2017-10-12T10:45:33Z</time>
      </trkpt>
      <trkpt lat="44.41743" lon="6.4878">
        <ele>2413.05</ele>
        <time>2017-10-12T10:46:18Z</time>
      </trkpt>
      <trkpt lat="44.41744" lon="6.48779">
        <ele>2413.05</ele>
        <time>2017-10-12T10:46:46Z</time>
      </trkpt>
      <trkpt lat="44.41745" lon="6.48778">
        <ele>2413.05</ele>
        <time>2017-10-12T10:47:28Z</time>
      </trkpt>
      <trkpt lat="44.41746" lon="6.48777">
        <ele>2413.05</ele>
        <time>2017-10-12T10:48:03Z</time>
      </trkpt>
      <trkpt lat="44.41745" lon="6.48777">
        <ele>2413.05</ele>
        <time>2017-10-12T10:48:39Z</time>
      </trkpt>
      <trkpt lat="44.41745" lon="6.48777">
        <ele>2413.05</ele>
        <time>2017-10-12T10:49:09Z</time>
      </trkpt>
      <trkpt lat="44.41743" lon="6.48779">
        <ele>2413.05</ele>
        <time>2017-10-12T10:49:41Z</time>
      </trkpt>
      <trkpt lat="44.41744" lon="6.48779">
        <ele>2413.05</ele>
        <time>2017-10-12T10:50:19Z</time>
      </trkpt>
      <trkpt lat="44.41744" lon="6.48779">
        <ele>2413.05</ele>
        <time>2017-10-12T10:50:53Z</time>
      </trkpt>
      <trkpt lat="44.41743" lon="6.48779">
        <ele>2412.57</ele>
        <time>2017-10-12T10:51:36Z</time>
      </trkpt>
      <trkpt lat="44.41743" lon="6.48779">
        <ele>2413.05</ele>
        <time>2017-10-12T10:52:15Z</time>
      </trkpt>
      <trkpt lat="44.41743" lon="6.48779">
        <ele>2413.05</ele>
        <time>2017-10-12T10:52:59Z</time>
      </trkpt>
      <trkpt lat="44.41742" lon="6.48779">
        <ele>2413.53</ele>
        <time>2017-10-12T10:53:27Z</time>
      </trkpt>
      <trkpt lat="44.41743" lon="6.48779">
        <ele>2413.05</ele>
        <time>2017-10-12T10:54:04Z</time>
      </trkpt>
      <trkpt lat="44.41743" lon="6.48779">
        <ele>2413.05</ele>
        <time>2017-10-12T10:54:42Z</time>
      </trkpt>
      <trkpt lat="44.41743" lon="6.48779">
        <ele>2413.53</ele>
        <time>2017-10-12T10:55:19Z</time>
      </trkpt>
      <trkpt lat="44.41743" lon="6.4878">
        <ele>2413.53</ele>
        <time>2017-10-12T10:55:49Z</time>
      </trkpt>
      <trkpt lat="44.41743" lon="6.48779">
        <ele>2413.53</ele>
        <time>2017-10-12T10:56:26Z</time>
      </trkpt>
      <trkpt lat="44.41743" lon="6.4878">
        <ele>2413.53</ele>
        <time>2017-10-12T10:57:08Z</time>
      </trkpt>
      <trkpt lat="44.41743" lon="6.4878">
        <ele>2413.53</ele>
        <time>2017-10-12T10:57:45Z</time>
      </trkpt>
      <trkpt lat="44.41743" lon="6.48779">
        <ele>2413.05</ele>
        <time>2017-10-12T10:58:23Z</time>
      </trkpt>
      <trkpt lat="44.41743" lon="6.48779">
        <ele>2413.05</ele>
        <time>2017-10-12T10:59:01Z</time>
      </trkpt>
      <trkpt lat="44.41743" lon="6.48779">
        <ele>2412.57</ele>
        <time>2017-10-12T10:59:38Z</time>
      </trkpt>
      <trkpt lat="44.41743" lon="6.48779">
        <ele>2412.57</ele>
        <time>2017-10-12T11:00:07Z</time>
      </trkpt>
      <trkpt lat="44.41743" lon="6.48779">
        <ele>2412.57</ele>
        <time>2017-10-12T11:00:42Z</time>
      </trkpt>
      <trkpt lat="44.41742" lon="6.48779">
        <ele>2412.57</ele>
        <time>2017-10-12T11:01:12Z</time>
      </trkpt>
      <trkpt lat="44.41742" lon="6.48779">
        <ele>2413.05</ele>
        <time>2017-10-12T11:01:42Z</time>
      </trkpt>
      <trkpt lat="44.41743" lon="6.48779">
        <ele>2413.05</ele>
        <time>2017-10-12T11:02:14Z</time>
      </trkpt>
      <trkpt lat="44.41743" lon="6.48778">
        <ele>2413.05</ele>
        <time>2017-10-12T11:02:53Z</time>
      </trkpt>
      <trkpt lat="44.41743" lon="6.48779">
        <ele>2413.05</ele>
        <time>2017-10-12T11:03:26Z</time>
      </trkpt>
      <trkpt lat="44.41743" lon="6.48779">
        <ele>2413.05</ele>
        <time>2017-10-12T11:04:04Z</time>
      </trkpt>
      <trkpt lat="44.41743" lon="6.48779">
        <ele>2413.05</ele>
        <time>2017-10-12T11:04:39Z</time>
      </trkpt>
      <trkpt lat="44.41743" lon="6.48779">
        <ele>2412.57</ele>
        <time>2017-10-12T11:05:11Z</time>
      </trkpt>
      <trkpt lat="44.41744" lon="6.48778">
        <ele>2412.09</ele>
        <time>2017-10-12T11:05:42Z</time>
      </trkpt>
      <trkpt lat="44.41743" lon="6.48778">
        <ele>2412.57</ele>
        <time>2017-10-12T11:06:11Z</time>
      </trkpt>
      <trkpt lat="44.41744" lon="6.48779">
        <ele>2412.57</ele>
        <time>2017-10-12T11:06:40Z</time>
      </trkpt>
      <trkpt lat="44.41743" lon="6.48778">
        <ele>2412.09</ele>
        <time>2017-10-12T11:07:11Z</time>
      </trkpt>
      <trkpt lat="44.41744" lon="6.48778">
        <ele>2412.09</ele>
        <time>2017-10-12T11:07:41Z</time>
      </trkpt>
      <trkpt lat="44.41743" lon="6.48779">
        <ele>2412.09</ele>
        <time>2017-10-12T11:08:11Z</time>
      </trkpt>
      <trkpt lat="44.41743" lon="6.48778">
        <ele>2412.57</ele>
        <time>2017-10-12T11:08:47Z</time>
      </trkpt>
      <trkpt lat="44.41743" lon="6.48778">
        <ele>2412.09</ele>
        <time>2017-10-12T11:09:21Z</time>
      </trkpt>
      <trkpt lat="44.41743" lon="6.48778">
        <ele>2411.6</ele>
        <time>2017-10-12T11:09:45Z</time>
      </trkpt>
      <trkpt lat="44.41743" lon="6.48778">
        <ele>2412.09</ele>
        <time>2017-10-12T11:10:25Z</time>
      </trkpt>
      <trkpt lat="44.41743" lon="6.48777">
        <ele>2412.09</ele>
        <time>2017-10-12T11:10:56Z</time>
      </trkpt>
      <trkpt lat="44.41743" lon="6.48778">
        <ele>2412.09</ele>
        <time>2017-10-12T11:11:32Z</time>
      </trkpt>
      <trkpt lat="44.41743" lon="6.48778">
        <ele>2412.57</ele>
        <time>2017-10-12T11:12:04Z</time>
      </trkpt>
      <trkpt lat="44.41743" lon="6.48778">
        <ele>2412.57</ele>
        <time>2017-10-12T11:12:32Z</time>
      </trkpt>
      <trkpt lat="44.41743" lon="6.48778">
        <ele>2412.57</ele>
        <time>2017-10-12T11:13:08Z</time>
      </trkpt>
      <trkpt lat="44.41743" lon="6.48778">
        <ele>2412.57</ele>
        <time>2017-10-12T11:13:43Z</time>
      </trkpt>
      <trkpt lat="44.41743" lon="6.48778">
        <ele>2412.57</ele>
        <time>2017-10-12T11:14:11Z</time>
      </trkpt>
      <trkpt lat="44.41743" lon="6.48778">
        <ele>2412.09</ele>
        <time>2017-10-12T11:14:43Z</time>
      </trkpt>
      <trkpt lat="44.41743" lon="6.48778">
        <ele>2412.09</ele>
        <time>2017-10-12T11:15:10Z</time>
      </trkpt>
      <trkpt lat="44.41743" lon="6.48778">
        <ele>2412.57</ele>
        <time>2017-10-12T11:15:45Z</time>
      </trkpt>
      <trkpt lat="44.41743" lon="6.48778">
        <ele>2412.09</ele>
        <time>2017-10-12T11:16:19Z</time>
      </trkpt>
      <trkpt lat="44.41743" lon="6.48779">
        <ele>2411.6</ele>
        <time>2017-10-12T11:16:42Z</time>
      </trkpt>
      <trkpt lat="44.41742" lon="6.48778">
        <ele>2411.6</ele>
        <time>2017-10-12T11:17:20Z</time>
      </trkpt>
      <trkpt lat="44.41743" lon="6.48778">
        <ele>2411.6</ele>
        <time>2017-10-12T11:17:51Z</time>
      </trkpt>
      <trkpt lat="44.41743" lon="6.48778">
        <ele>2412.09</ele>
        <time>2017-10-12T11:18:23Z</time>
      </trkpt>
      <trkpt lat="44.41743" lon="6.48778">
        <ele>2411.6</ele>
        <time>2017-10-12T11:18:52Z</time>
      </trkpt>
      <trkpt lat="44.41743" lon="6.48778">
        <ele>2412.09</ele>
        <time>2017-10-12T11:19:27Z</time>
      </trkpt>
      <trkpt lat="44.41743" lon="6.48778">
        <ele>2411.6</ele>
        <time>2017-10-12T11:19:56Z</time>
      </trkpt>
      <trkpt lat="44.41743" lon="6.48778">
        <ele>2411.6</ele>
        <time>2017-10-12T11:20:23Z</time>
      </trkpt>
      <trkpt lat="44.41743" lon="6.48779">
        <ele>2411.6</ele>
        <time>2017-10-12T11:20:58Z</time>
      </trkpt>
      <trkpt lat="44.41744" lon="6.48779">
        <ele>2412.09</ele>
        <time>2017-10-12T11:21:22Z</time>
      </trkpt>
      <trkpt lat="44.41745" lon="6.48779">
        <ele>2411.6</ele>
        <time>2017-10-12T11:21:40Z</time>
      </trkpt>
      <trkpt lat="44.41744" lon="6.48779">
        <ele>2411.6</ele>
        <time>2017-10-12T11:22:10Z</time>
      </trkpt>
      <trkpt lat="44.41744" lon="6.48779">
        <ele>2411.12</ele>
        <time>2017-10-12T11:22:37Z</time>
      </trkpt>
      <trkpt lat="44.41744" lon="6.4878">
        <ele>2411.12</ele>
        <time>2017-10-12T11:23:18Z</time>
      </trkpt>
      <trkpt lat="44.41743" lon="6.48779">
        <ele>2411.6</ele>
        <time>2017-10-12T11:23:27Z</time>
      </trkpt>
      <trkpt lat="44.41745" lon="6.48779">
        <ele>2410.64</ele>
        <time>2017-10-12T11:23:44Z</time>
      </trkpt>
      <trkpt lat="44.41744" lon="6.48779">
        <ele>2411.12</ele>
        <time>2017-10-12T11:24:20Z</time>
      </trkpt>
      <trkpt lat="44.41746" lon="6.48778">
        <ele>2411.12</ele>
        <time>2017-10-12T11:25:07Z</time>
      </trkpt>
      <trkpt lat="44.41745" lon="6.48777">
        <ele>2411.12</ele>
        <time>2017-10-12T11:25:55Z</time>
      </trkpt>
      <trkpt lat="44.41746" lon="6.48778">
        <ele>2411.12</ele>
        <time>2017-10-12T11:26:40Z</time>
      </trkpt>
      <trkpt lat="44.41746" lon="6.48778">
        <ele>2411.12</ele>
        <time>2017-10-12T11:27:23Z</time>
      </trkpt>
      <trkpt lat="44.41745" lon="6.48777">
        <ele>2410.64</ele>
        <time>2017-10-12T11:27:59Z</time>
      </trkpt>
      <trkpt lat="44.41745" lon="6.48778">
        <ele>2411.12</ele>
        <time>2017-10-12T11:28:32Z</time>
      </trkpt>
      <trkpt lat="44.41745" lon="6.48777">
        <ele>2410.64</ele>
        <time>2017-10-12T11:29:19Z</time>
      </trkpt>
      <trkpt lat="44.41744" lon="6.48778">
        <ele>2411.6</ele>
        <time>2017-10-12T11:29:53Z</time>
      </trkpt>
      <trkpt lat="44.41745" lon="6.48777">
        <ele>2411.6</ele>
        <time>2017-10-12T11:30:27Z</time>
      </trkpt>
      <trkpt lat="44.41743" lon="6.48778">
        <ele>2410.64</ele>
        <time>2017-10-12T11:31:06Z</time>
      </trkpt>
      <trkpt lat="44.41743" lon="6.48778">
        <ele>2411.12</ele>
        <time>2017-10-12T11:31:41Z</time>
      </trkpt>
      <trkpt lat="44.41744" lon="6.48777">
        <ele>2410.16</ele>
        <time>2017-10-12T11:32:21Z</time>
      </trkpt>
      <trkpt lat="44.41747" lon="6.48778">
        <ele>2410.64</ele>
        <time>2017-10-12T11:33:04Z</time>
      </trkpt>
      <trkpt lat="44.41747" lon="6.48778">
        <ele>2411.12</ele>
        <time>2017-10-12T11:33:43Z</time>
      </trkpt>
      <trkpt lat="44.41747" lon="6.48778">
        <ele>2410.64</ele>
        <time>2017-10-12T11:34:19Z</time>
      </trkpt>
      <trkpt lat="44.41747" lon="6.48779">
        <ele>2410.64</ele>
        <time>2017-10-12T11:35:07Z</time>
      </trkpt>
      <trkpt lat="44.41747" lon="6.48778">
        <ele>2410.16</ele>
        <time>2017-10-12T11:35:43Z</time>
      </trkpt>
      <trkpt lat="44.41747" lon="6.48778">
        <ele>2410.16</ele>
        <time>2017-10-12T11:36:16Z</time>
      </trkpt>
      <trkpt lat="44.41746" lon="6.48777">
        <ele>2410.16</ele>
        <time>2017-10-12T11:36:56Z</time>
      </trkpt>
      <trkpt lat="44.41747" lon="6.4878">
        <ele>2410.16</ele>
        <time>2017-10-12T11:37:26Z</time>
      </trkpt>
      <trkpt lat="44.41746" lon="6.4878">
        <ele>2410.16</ele>
        <time>2017-10-12T11:37:30Z</time>
      </trkpt>
      <trkpt lat="44.41744" lon="6.48781">
        <ele>2411.12</ele>
        <time>2017-10-12T11:37:39Z</time>
      </trkpt>
      <trkpt lat="44.4174" lon="6.48775">
        <ele>2412.09</ele>
        <time>2017-10-12T11:37:54Z</time>
      </trkpt>
      <trkpt lat="44.41741" lon="6.48776">
        <ele>2411.6</ele>
        <time>2017-10-12T11:38:14Z</time>
      </trkpt>
      <trkpt lat="44.41737" lon="6.48776">
        <ele>2411.12</ele>
        <time>2017-10-12T11:38:28Z</time>
      </trkpt>
      <trkpt lat="44.41737" lon="6.48774">
        <ele>2411.12</ele>
        <time>2017-10-12T11:38:46Z</time>
      </trkpt>
      <trkpt lat="44.4174" lon="6.48777">
        <ele>2411.12</ele>
        <time>2017-10-12T11:39:16Z</time>
      </trkpt>
      <trkpt lat="44.41742" lon="6.48778">
        <ele>2412.09</ele>
        <time>2017-10-12T11:39:27Z</time>
      </trkpt>
      <trkpt lat="44.41741" lon="6.48777">
        <ele>2411.6</ele>
        <time>2017-10-12T11:39:48Z</time>
      </trkpt>
      <trkpt lat="44.41743" lon="6.48778">
        <ele>2411.6</ele>
        <time>2017-10-12T11:40:05Z</time>
      </trkpt>
      <trkpt lat="44.41746" lon="6.48778">
        <ele>2410.64</ele>
        <time>2017-10-12T11:40:27Z</time>
      </trkpt>
      <trkpt lat="44.41751" lon="6.48772">
        <ele>2408.72</ele>
        <time>2017-10-12T11:40:40Z</time>
      </trkpt>
      <trkpt lat="44.41758" lon="6.48773">
        <ele>2406.8</ele>
        <time>2017-10-12T11:40:54Z</time>
      </trkpt>
      <trkpt lat="44.41766" lon="6.48778">
        <ele>2403.43</ele>
        <time>2017-10-12T11:41:08Z</time>
      </trkpt>
      <trkpt lat="44.41773" lon="6.48785">
        <ele>2400.07</ele>
        <time>2017-10-12T11:41:21Z</time>
      </trkpt>
      <trkpt lat="44.41779" lon="6.4879">
        <ele>2396.7</ele>
        <time>2017-10-12T11:41:33Z</time>
      </trkpt>
      <trkpt lat="44.41787" lon="6.48797">
        <ele>2393.34</ele>
        <time>2017-10-12T11:41:46Z</time>
      </trkpt>
      <trkpt lat="44.41795" lon="6.48798">
        <ele>2390.46</ele>
        <time>2017-10-12T11:41:59Z</time>
      </trkpt>
      <trkpt lat="44.41799" lon="6.48805">
        <ele>2387.09</ele>
        <time>2017-10-12T11:42:13Z</time>
      </trkpt>
      <trkpt lat="44.41803" lon="6.48816">
        <ele>2384.21</ele>
        <time>2017-10-12T11:42:27Z</time>
      </trkpt>
      <trkpt lat="44.41804" lon="6.48816">
        <ele>2381.8</ele>
        <time>2017-10-12T11:42:40Z</time>
      </trkpt>
      <trkpt lat="44.4181" lon="6.48818">
        <ele>2379.88</ele>
        <time>2017-10-12T11:43:00Z</time>
      </trkpt>
      <trkpt lat="44.41811" lon="6.48818">
        <ele>2378.92</ele>
        <time>2017-10-12T11:43:02Z</time>
      </trkpt>
      <trkpt lat="44.41815" lon="6.48825">
        <ele>2376.52</ele>
        <time>2017-10-12T11:43:15Z</time>
      </trkpt>
      <trkpt lat="44.4182" lon="6.48829">
        <ele>2373.63</ele>
        <time>2017-10-12T11:43:25Z</time>
      </trkpt>
      <trkpt lat="44.41823" lon="6.48833">
        <ele>2371.23</ele>
        <time>2017-10-12T11:43:40Z</time>
      </trkpt>
      <trkpt lat="44.41824" lon="6.48834">
        <ele>2369.79</ele>
        <time>2017-10-12T11:43:59Z</time>
      </trkpt>
      <trkpt lat="44.41828" lon="6.48836">
        <ele>2368.35</ele>
        <time>2017-10-12T11:44:12Z</time>
      </trkpt>
      <trkpt lat="44.41831" lon="6.48838">
        <ele>2366.9</ele>
        <time>2017-10-12T11:44:30Z</time>
      </trkpt>
      <trkpt lat="44.41836" lon="6.4885">
        <ele>2364.02</ele>
        <time>2017-10-12T11:44:46Z</time>
      </trkpt>
      <trkpt lat="44.41838" lon="6.48858">
        <ele>2360.65</ele>
        <time>2017-10-12T11:44:55Z</time>
      </trkpt>
      <trkpt lat="44.41843" lon="6.48865">
        <ele>2357.29</ele>
        <time>2017-10-12T11:45:10Z</time>
      </trkpt>
      <trkpt lat="44.41849" lon="6.48872">
        <ele>2354.41</ele>
        <time>2017-10-12T11:45:23Z</time>
      </trkpt>
      <trkpt lat="44.4185" lon="6.48874">
        <ele>2352.96</ele>
        <time>2017-10-12T11:45:30Z</time>
      </trkpt>
      <trkpt lat="44.41853" lon="6.48871">
        <ele>2350.56</ele>
        <time>2017-10-12T11:45:40Z</time>
      </trkpt>
      <trkpt lat="44.41859" lon="6.48874">
        <ele>2348.16</ele>
        <time>2017-10-12T11:45:53Z</time>
      </trkpt>
      <trkpt lat="44.41864" lon="6.48877">
        <ele>2344.79</ele>
        <time>2017-10-12T11:46:02Z</time>
      </trkpt>
      <trkpt lat="44.41869" lon="6.48884">
        <ele>2343.35</ele>
        <time>2017-10-12T11:46:17Z</time>
      </trkpt>
      <trkpt lat="44.41874" lon="6.48889">
        <ele>2340.95</ele>
        <time>2017-10-12T11:46:26Z</time>
      </trkpt>
      <trkpt lat="44.41876" lon="6.48894">
        <ele>2339.51</ele>
        <time>2017-10-12T11:46:36Z</time>
      </trkpt>
      <trkpt lat="44.4188" lon="6.48892">
        <ele>2337.1</ele>
        <time>2017-10-12T11:46:44Z</time>
      </trkpt>
      <trkpt lat="44.41882" lon="6.48893">
        <ele>2335.66</ele>
        <time>2017-10-12T11:46:47Z</time>
      </trkpt>
      <trkpt lat="44.41888" lon="6.48897">
        <ele>2332.78</ele>
        <time>2017-10-12T11:46:58Z</time>
      </trkpt>
      <trkpt lat="44.41894" lon="6.48895">
        <ele>2330.37</ele>
        <time>2017-10-12T11:47:07Z</time>
      </trkpt>
      <trkpt lat="44.419" lon="6.489">
        <ele>2328.45</ele>
        <time>2017-10-12T11:47:18Z</time>
      </trkpt>
      <trkpt lat="44.41902" lon="6.48903">
        <ele>2327.97</ele>
        <time>2017-10-12T11:47:24Z</time>
      </trkpt>
      <trkpt lat="44.41902" lon="6.48906">
        <ele>2326.53</ele>
        <time>2017-10-12T11:47:53Z</time>
      </trkpt>
      <trkpt lat="44.41907" lon="6.48912">
        <ele>2325.09</ele>
        <time>2017-10-12T11:48:01Z</time>
      </trkpt>
      <trkpt lat="44.41908" lon="6.48914">
        <ele>2325.09</ele>
        <time>2017-10-12T11:48:02Z</time>
      </trkpt>
      <trkpt lat="44.41925" lon="6.48933">
        <ele>2323.64</ele>
        <time>2017-10-12T11:48:21Z</time>
      </trkpt>
      <trkpt lat="44.41934" lon="6.48937">
        <ele>2321.24</ele>
        <time>2017-10-12T11:48:31Z</time>
      </trkpt>
      <trkpt lat="44.41948" lon="6.48942">
        <ele>2321.24</ele>
        <time>2017-10-12T11:48:44Z</time>
      </trkpt>
      <trkpt lat="44.41962" lon="6.48949">
        <ele>2321.24</ele>
        <time>2017-10-12T11:48:59Z</time>
      </trkpt>
      <trkpt lat="44.41963" lon="6.48952">
        <ele>2321.24</ele>
        <time>2017-10-12T11:49:01Z</time>
      </trkpt>
      <trkpt lat="44.41965" lon="6.48953">
        <ele>2319.32</ele>
        <time>2017-10-12T11:49:03Z</time>
      </trkpt>
      <trkpt lat="44.41968" lon="6.48954">
        <ele>2319.8</ele>
        <time>2017-10-12T11:49:10Z</time>
      </trkpt>
      <trkpt lat="44.41968" lon="6.48954">
        <ele>2318.36</ele>
        <time>2017-10-12T11:49:12Z</time>
      </trkpt>
      <trkpt lat="44.41977" lon="6.48959">
        <ele>2315.95</ele>
        <time>2017-10-12T11:49:24Z</time>
      </trkpt>
      <trkpt lat="44.41983" lon="6.48962">
        <ele>2313.07</ele>
        <time>2017-10-12T11:49:35Z</time>
      </trkpt>
      <trkpt lat="44.4199" lon="6.48964">
        <ele>2310.67</ele>
        <time>2017-10-12T11:49:47Z</time>
      </trkpt>
      <trkpt lat="44.41992" lon="6.48958">
        <ele>2307.78</ele>
        <time>2017-10-12T11:49:56Z</time>
      </trkpt>
      <trkpt lat="44.41993" lon="6.48957">
        <ele>2307.3</ele>
        <time>2017-10-12T11:49:57Z</time>
      </trkpt>
      <trkpt lat="44.41994" lon="6.48959">
        <ele>2309.22</ele>
        <time>2017-10-12T11:50:01Z</time>
      </trkpt>
      <trkpt lat="44.41998" lon="6.48964">
        <ele>2305.86</ele>
        <time>2017-10-12T11:50:13Z</time>
      </trkpt>
      <trkpt lat="44.41999" lon="6.48963">
        <ele>2305.86</ele>
        <time>2017-10-12T11:50:14Z</time>
      </trkpt>
      <trkpt lat="44.42008" lon="6.48968">
        <ele>2303.94</ele>
        <time>2017-10-12T11:50:27Z</time>
      </trkpt>
      <trkpt lat="44.42009" lon="6.4897">
        <ele>2303.46</ele>
        <time>2017-10-12T11:50:41Z</time>
      </trkpt>
      <trkpt lat="44.42011" lon="6.48968">
        <ele>2302.98</ele>
        <time>2017-10-12T11:51:02Z</time>
      </trkpt>
      <trkpt lat="44.42012" lon="6.48968">
        <ele>2302.01</ele>
        <time>2017-10-12T11:51:10Z</time>
      </trkpt>
      <trkpt lat="44.42009" lon="6.48966">
        <ele>2301.53</ele>
        <time>2017-10-12T11:51:42Z</time>
      </trkpt>
      <trkpt lat="44.42013" lon="6.48965">
        <ele>2301.53</ele>
        <time>2017-10-12T11:51:59Z</time>
      </trkpt>
      <trkpt lat="44.42015" lon="6.48967">
        <ele>2302.01</ele>
        <time>2017-10-12T11:52:03Z</time>
      </trkpt>
      <trkpt lat="44.42019" lon="6.48961">
        <ele>2299.13</ele>
        <time>2017-10-12T11:52:16Z</time>
      </trkpt>
      <trkpt lat="44.42024" lon="6.48953">
        <ele>2297.21</ele>
        <time>2017-10-12T11:52:28Z</time>
      </trkpt>
      <trkpt lat="44.42027" lon="6.48947">
        <ele>2295.77</ele>
        <time>2017-10-12T11:52:38Z</time>
      </trkpt>
      <trkpt lat="44.42031" lon="6.4894">
        <ele>2292.88</ele>
        <time>2017-10-12T11:52:49Z</time>
      </trkpt>
      <trkpt lat="44.42039" lon="6.48942">
        <ele>2290.48</ele>
        <time>2017-10-12T11:53:01Z</time>
      </trkpt>
      <trkpt lat="44.42051" lon="6.4894">
        <ele>2288.08</ele>
        <time>2017-10-12T11:53:16Z</time>
      </trkpt>
      <trkpt lat="44.42058" lon="6.48941">
        <ele>2287.11</ele>
        <time>2017-10-12T11:53:27Z</time>
      </trkpt>
      <trkpt lat="44.42065" lon="6.48937">
        <ele>2283.75</ele>
        <time>2017-10-12T11:53:37Z</time>
      </trkpt>
      <trkpt lat="44.42069" lon="6.48935">
        <ele>2283.27</ele>
        <time>2017-10-12T11:53:43Z</time>
      </trkpt>
      <trkpt lat="44.42078" lon="6.48933">
        <ele>2280.38</ele>
        <time>2017-10-12T11:53:55Z</time>
      </trkpt>
      <trkpt lat="44.42084" lon="6.48931">
        <ele>2278.94</ele>
        <time>2017-10-12T11:54:03Z</time>
      </trkpt>
      <trkpt lat="44.42092" lon="6.48925">
        <ele>2276.06</ele>
        <time>2017-10-12T11:54:15Z</time>
      </trkpt>
      <trkpt lat="44.42099" lon="6.48921">
        <ele>2273.66</ele>
        <time>2017-10-12T11:54:27Z</time>
      </trkpt>
      <trkpt lat="44.42093" lon="6.48918">
        <ele>2272.21</ele>
        <time>2017-10-12T11:54:36Z</time>
      </trkpt>
      <trkpt lat="44.42081" lon="6.48911">
        <ele>2269.81</ele>
        <time>2017-10-12T11:54:52Z</time>
      </trkpt>
      <trkpt lat="44.42077" lon="6.48906">
        <ele>2267.89</ele>
        <time>2017-10-12T11:55:04Z</time>
      </trkpt>
      <trkpt lat="44.42073" lon="6.48902">
        <ele>2265</ele>
        <time>2017-10-12T11:55:18Z</time>
      </trkpt>
      <trkpt lat="44.42065" lon="6.48891">
        <ele>2261.64</ele>
        <time>2017-10-12T11:55:32Z</time>
      </trkpt>
      <trkpt lat="44.42055" lon="6.48882">
        <ele>2258.75</ele>
        <time>2017-10-12T11:55:48Z</time>
      </trkpt>
      <trkpt lat="44.42047" lon="6.48875">
        <ele>2256.35</ele>
        <time>2017-10-12T11:55:58Z</time>
      </trkpt>
      <trkpt lat="44.42045" lon="6.4887">
        <ele>2254.91</ele>
        <time>2017-10-12T11:56:04Z</time>
      </trkpt>
      <trkpt lat="44.4205" lon="6.48866">
        <ele>2252.99</ele>
        <time>2017-10-12T11:56:17Z</time>
      </trkpt>
      <trkpt lat="44.42057" lon="6.48863">
        <ele>2250.1</ele>
        <time>2017-10-12T11:56:27Z</time>
      </trkpt>
      <trkpt lat="44.42062" lon="6.48861">
        <ele>2247.22</ele>
        <time>2017-10-12T11:56:40Z</time>
      </trkpt>
      <trkpt lat="44.42054" lon="6.48851">
        <ele>2244.33</ele>
        <time>2017-10-12T11:56:54Z</time>
      </trkpt>
      <trkpt lat="44.4205" lon="6.4884">
        <ele>2241.45</ele>
        <time>2017-10-12T11:57:09Z</time>
      </trkpt>
      <trkpt lat="44.42054" lon="6.48837">
        <ele>2238.57</ele>
        <time>2017-10-12T11:57:23Z</time>
      </trkpt>
      <trkpt lat="44.42052" lon="6.4883">
        <ele>2236.16</ele>
        <time>2017-10-12T11:57:37Z</time>
      </trkpt>
      <trkpt lat="44.42048" lon="6.48817">
        <ele>2233.28</ele>
        <time>2017-10-12T11:57:51Z</time>
      </trkpt>
      <trkpt lat="44.42051" lon="6.48811">
        <ele>2230.88</ele>
        <time>2017-10-12T11:58:04Z</time>
      </trkpt>
      <trkpt lat="44.42056" lon="6.48807">
        <ele>2228.47</ele>
        <time>2017-10-12T11:58:14Z</time>
      </trkpt>
      <trkpt lat="44.42062" lon="6.48812">
        <ele>2225.59</ele>
        <time>2017-10-12T11:58:26Z</time>
      </trkpt>
      <trkpt lat="44.42072" lon="6.48804">
        <ele>2222.22</ele>
        <time>2017-10-12T11:58:40Z</time>
      </trkpt>
      <trkpt lat="44.42078" lon="6.48805">
        <ele>2219.82</ele>
        <time>2017-10-12T11:58:49Z</time>
      </trkpt>
      <trkpt lat="44.42082" lon="6.48801">
        <ele>2217.9</ele>
        <time>2017-10-12T11:58:56Z</time>
      </trkpt>
      <trkpt lat="44.42089" lon="6.48793">
        <ele>2214.53</ele>
        <time>2017-10-12T11:59:09Z</time>
      </trkpt>
      <trkpt lat="44.4209" lon="6.48792">
        <ele>2214.53</ele>
        <time>2017-10-12T11:59:10Z</time>
      </trkpt>
      <trkpt lat="44.42098" lon="6.48782">
        <ele>2211.17</ele>
        <time>2017-10-12T11:59:24Z</time>
      </trkpt>
      <trkpt lat="44.42105" lon="6.48773">
        <ele>2207.81</ele>
        <time>2017-10-12T11:59:36Z</time>
      </trkpt>
      <trkpt lat="44.42114" lon="6.48764">
        <ele>2204.44</ele>
        <time>2017-10-12T11:59:48Z</time>
      </trkpt>
      <trkpt lat="44.42122" lon="6.48755">
        <ele>2201.56</ele>
        <time>2017-10-12T11:59:58Z</time>
      </trkpt>
      <trkpt lat="44.42127" lon="6.48751">
        <ele>2200.11</ele>
        <time>2017-10-12T12:00:06Z</time>
      </trkpt>
      <trkpt lat="44.4214" lon="6.48749">
        <ele>2197.23</ele>
        <time>2017-10-12T12:00:19Z</time>
      </trkpt>
      <trkpt lat="44.42146" lon="6.48738">
        <ele>2193.87</ele>
        <time>2017-10-12T12:00:30Z</time>
      </trkpt>
      <trkpt lat="44.4215" lon="6.48728">
        <ele>2190.98</ele>
        <time>2017-10-12T12:00:42Z</time>
      </trkpt>
      <trkpt lat="44.42155" lon="6.48723">
        <ele>2189.54</ele>
        <time>2017-10-12T12:00:56Z</time>
      </trkpt>
      <trkpt lat="44.42155" lon="6.48724">
        <ele>2189.06</ele>
        <time>2017-10-12T12:01:20Z</time>
      </trkpt>
      <trkpt lat="44.42158" lon="6.48725">
        <ele>2189.06</ele>
        <time>2017-10-12T12:01:45Z</time>
      </trkpt>
      <trkpt lat="44.42157" lon="6.48729">
        <ele>2189.06</ele>
        <time>2017-10-12T12:02:11Z</time>
      </trkpt>
      <trkpt lat="44.42165" lon="6.48736">
        <ele>2191.46</ele>
        <time>2017-10-12T12:02:24Z</time>
      </trkpt>
      <trkpt lat="44.4217" lon="6.48735">
        <ele>2191.46</ele>
        <time>2017-10-12T12:02:51Z</time>
      </trkpt>
      <trkpt lat="44.42176" lon="6.48737">
        <ele>2191.46</ele>
        <time>2017-10-12T12:03:26Z</time>
      </trkpt>
      <trkpt lat="44.42161" lon="6.48737">
        <ele>2191.94</ele>
        <time>2017-10-12T12:03:44Z</time>
      </trkpt>
      <trkpt lat="44.42156" lon="6.48725">
        <ele>2189.54</ele>
        <time>2017-10-12T12:04:01Z</time>
      </trkpt>
      <trkpt lat="44.42158" lon="6.48719">
        <ele>2188.58</ele>
        <time>2017-10-12T12:04:23Z</time>
      </trkpt>
      <trkpt lat="44.42155" lon="6.48709">
        <ele>2186.66</ele>
        <time>2017-10-12T12:04:36Z</time>
      </trkpt>
      <trkpt lat="44.42154" lon="6.48706">
        <ele>2185.21</ele>
        <time>2017-10-12T12:04:51Z</time>
      </trkpt>
      <trkpt lat="44.42153" lon="6.48705">
        <ele>2185.69</ele>
        <time>2017-10-12T12:04:53Z</time>
      </trkpt>
      <trkpt lat="44.42147" lon="6.48694">
        <ele>2182.33</ele>
        <time>2017-10-12T12:05:06Z</time>
      </trkpt>
      <trkpt lat="44.4215" lon="6.48686">
        <ele>2180.41</ele>
        <time>2017-10-12T12:05:14Z</time>
      </trkpt>
      <trkpt lat="44.42158" lon="6.48683">
        <ele>2178</ele>
        <time>2017-10-12T12:05:22Z</time>
      </trkpt>
      <trkpt lat="44.42161" lon="6.48681">
        <ele>2176.08</ele>
        <time>2017-10-12T12:05:29Z</time>
      </trkpt>
      <trkpt lat="44.42165" lon="6.48678">
        <ele>2175.12</ele>
        <time>2017-10-12T12:05:34Z</time>
      </trkpt>
      <trkpt lat="44.42173" lon="6.48675">
        <ele>2172.24</ele>
        <time>2017-10-12T12:05:46Z</time>
      </trkpt>
      <trkpt lat="44.42182" lon="6.48674">
        <ele>2169.35</ele>
        <time>2017-10-12T12:06:03Z</time>
      </trkpt>
      <trkpt lat="44.42189" lon="6.48675">
        <ele>2167.43</ele>
        <time>2017-10-12T12:06:18Z</time>
      </trkpt>
      <trkpt lat="44.4219" lon="6.48675">
        <ele>2166.95</ele>
        <time>2017-10-12T12:06:31Z</time>
      </trkpt>
      <trkpt lat="44.42187" lon="6.48672">
        <ele>2166.47</ele>
        <time>2017-10-12T12:06:46Z</time>
      </trkpt>
      <trkpt lat="44.42187" lon="6.48674">
        <ele>2166.47</ele>
        <time>2017-10-12T12:06:50Z</time>
      </trkpt>
      <trkpt lat="44.4219" lon="6.48679">
        <ele>2166.47</ele>
        <time>2017-10-12T12:07:04Z</time>
      </trkpt>
      <trkpt lat="44.42192" lon="6.48675">
        <ele>2165.51</ele>
        <time>2017-10-12T12:07:09Z</time>
      </trkpt>
      <trkpt lat="44.42202" lon="6.48669">
        <ele>2163.1</ele>
        <time>2017-10-12T12:07:21Z</time>
      </trkpt>
      <trkpt lat="44.42204" lon="6.48669">
        <ele>2162.14</ele>
        <time>2017-10-12T12:07:23Z</time>
      </trkpt>
      <trkpt lat="44.42208" lon="6.48669">
        <ele>2160.7</ele>
        <time>2017-10-12T12:07:31Z</time>
      </trkpt>
      <trkpt lat="44.42208" lon="6.48666">
        <ele>2160.22</ele>
        <time>2017-10-12T12:07:33Z</time>
      </trkpt>
      <trkpt lat="44.42214" lon="6.48667">
        <ele>2158.78</ele>
        <time>2017-10-12T12:07:39Z</time>
      </trkpt>
      <trkpt lat="44.42214" lon="6.48672">
        <ele>2158.3</ele>
        <time>2017-10-12T12:07:56Z</time>
      </trkpt>
      <trkpt lat="44.42212" lon="6.48675">
        <ele>2157.82</ele>
        <time>2017-10-12T12:08:21Z</time>
      </trkpt>
      <trkpt lat="44.42215" lon="6.48674">
        <ele>2157.82</ele>
        <time>2017-10-12T12:08:42Z</time>
      </trkpt>
      <trkpt lat="44.42211" lon="6.48681">
        <ele>2157.34</ele>
        <time>2017-10-12T12:09:01Z</time>
      </trkpt>
      <trkpt lat="44.42219" lon="6.4868">
        <ele>2156.86</ele>
        <time>2017-10-12T12:09:15Z</time>
      </trkpt>
      <trkpt lat="44.42221" lon="6.48684">
        <ele>2154.45</ele>
        <time>2017-10-12T12:09:28Z</time>
      </trkpt>
      <trkpt lat="44.42228" lon="6.48685">
        <ele>2151.09</ele>
        <time>2017-10-12T12:09:40Z</time>
      </trkpt>
      <trkpt lat="44.42233" lon="6.48687">
        <ele>2148.68</ele>
        <time>2017-10-12T12:09:55Z</time>
      </trkpt>
      <trkpt lat="44.42236" lon="6.48688">
        <ele>2148.68</ele>
        <time>2017-10-12T12:10:11Z</time>
      </trkpt>
      <trkpt lat="44.42235" lon="6.48685">
        <ele>2148.68</ele>
        <time>2017-10-12T12:10:30Z</time>
      </trkpt>
      <trkpt lat="44.42237" lon="6.48684">
        <ele>2148.68</ele>
        <time>2017-10-12T12:10:43Z</time>
      </trkpt>
      <trkpt lat="44.42244" lon="6.48685">
        <ele>2148.2</ele>
        <time>2017-10-12T12:10:57Z</time>
      </trkpt>
      <trkpt lat="44.42249" lon="6.48683">
        <ele>2146.76</ele>
        <time>2017-10-12T12:11:09Z</time>
      </trkpt>
      <trkpt lat="44.42258" lon="6.48679">
        <ele>2144.36</ele>
        <time>2017-10-12T12:11:24Z</time>
      </trkpt>
      <trkpt lat="44.42266" lon="6.48675">
        <ele>2141.95</ele>
        <time>2017-10-12T12:11:37Z</time>
      </trkpt>
      <trkpt lat="44.4227" lon="6.48671">
        <ele>2140.51</ele>
        <time>2017-10-12T12:11:49Z</time>
      </trkpt>
      <trkpt lat="44.42277" lon="6.48669">
        <ele>2138.59</ele>
        <time>2017-10-12T12:12:03Z</time>
      </trkpt>
      <trkpt lat="44.42287" lon="6.48665">
        <ele>2137.15</ele>
        <time>2017-10-12T12:12:16Z</time>
      </trkpt>
      <trkpt lat="44.42285" lon="6.4866">
        <ele>2135.23</ele>
        <time>2017-10-12T12:12:31Z</time>
      </trkpt>
      <trkpt lat="44.42281" lon="6.4866">
        <ele>2134.26</ele>
        <time>2017-10-12T12:12:37Z</time>
      </trkpt>
      <trkpt lat="44.42279" lon="6.48651">
        <ele>2131.86</ele>
        <time>2017-10-12T12:12:49Z</time>
      </trkpt>
      <trkpt lat="44.4228" lon="6.48646">
        <ele>2129.94</ele>
        <time>2017-10-12T12:13:02Z</time>
      </trkpt>
      <trkpt lat="44.42274" lon="6.48639">
        <ele>2127.53</ele>
        <time>2017-10-12T12:13:19Z</time>
      </trkpt>
      <trkpt lat="44.4227" lon="6.48631">
        <ele>2125.13</ele>
        <time>2017-10-12T12:13:31Z</time>
      </trkpt>
      <trkpt lat="44.42269" lon="6.48623">
        <ele>2122.73</ele>
        <time>2017-10-12T12:13:41Z</time>
      </trkpt>
      <trkpt lat="44.42276" lon="6.48614">
        <ele>2121.29</ele>
        <time>2017-10-12T12:13:54Z</time>
      </trkpt>
      <trkpt lat="44.42279" lon="6.48609">
        <ele>2119.84</ele>
        <time>2017-10-12T12:14:00Z</time>
      </trkpt>
      <trkpt lat="44.42286" lon="6.48605">
        <ele>2117.92</ele>
        <time>2017-10-12T12:14:13Z</time>
      </trkpt>
      <trkpt lat="44.42293" lon="6.48597">
        <ele>2116</ele>
        <time>2017-10-12T12:14:28Z</time>
      </trkpt>
      <trkpt lat="44.42299" lon="6.48595">
        <ele>2115.04</ele>
        <time>2017-10-12T12:14:42Z</time>
      </trkpt>
      <trkpt lat="44.42303" lon="6.48594">
        <ele>2114.08</ele>
        <time>2017-10-12T12:14:46Z</time>
      </trkpt>
      <trkpt lat="44.42312" lon="6.48591">
        <ele>2112.15</ele>
        <time>2017-10-12T12:15:00Z</time>
      </trkpt>
      <trkpt lat="44.42319" lon="6.48588">
        <ele>2110.71</ele>
        <time>2017-10-12T12:15:12Z</time>
      </trkpt>
      <trkpt lat="44.42321" lon="6.48582">
        <ele>2109.27</ele>
        <time>2017-10-12T12:15:18Z</time>
      </trkpt>
      <trkpt lat="44.42327" lon="6.48574">
        <ele>2106.87</ele>
        <time>2017-10-12T12:15:32Z</time>
      </trkpt>
      <trkpt lat="44.4233" lon="6.48566">
        <ele>2104.94</ele>
        <time>2017-10-12T12:15:42Z</time>
      </trkpt>
      <trkpt lat="44.42332" lon="6.4856">
        <ele>2102.54</ele>
        <time>2017-10-12T12:15:53Z</time>
      </trkpt>
      <trkpt lat="44.42337" lon="6.48551">
        <ele>2099.66</ele>
        <time>2017-10-12T12:16:07Z</time>
      </trkpt>
      <trkpt lat="44.42346" lon="6.48541">
        <ele>2096.77</ele>
        <time>2017-10-12T12:16:22Z</time>
      </trkpt>
      <trkpt lat="44.42354" lon="6.48532">
        <ele>2093.89</ele>
        <time>2017-10-12T12:16:35Z</time>
      </trkpt>
      <trkpt lat="44.42364" lon="6.48522">
        <ele>2091.49</ele>
        <time>2017-10-12T12:16:49Z</time>
      </trkpt>
      <trkpt lat="44.42368" lon="6.48515">
        <ele>2090.04</ele>
        <time>2017-10-12T12:17:01Z</time>
      </trkpt>
      <trkpt lat="44.42376" lon="6.48504">
        <ele>2086.2</ele>
        <time>2017-10-12T12:17:12Z</time>
      </trkpt>
      <trkpt lat="44.4238" lon="6.48494">
        <ele>2083.31</ele>
        <time>2017-10-12T12:17:23Z</time>
      </trkpt>
      <trkpt lat="44.42382" lon="6.48482">
        <ele>2080.43</ele>
        <time>2017-10-12T12:17:35Z</time>
      </trkpt>
      <trkpt lat="44.42392" lon="6.48475">
        <ele>2077.07</ele>
        <time>2017-10-12T12:17:48Z</time>
      </trkpt>
      <trkpt lat="44.42395" lon="6.48468">
        <ele>2074.18</ele>
        <time>2017-10-12T12:17:58Z</time>
      </trkpt>
      <trkpt lat="44.42402" lon="6.48463">
        <ele>2070.82</ele>
        <time>2017-10-12T12:18:08Z</time>
      </trkpt>
      <trkpt lat="44.42405" lon="6.4846">
        <ele>2068.89</ele>
        <time>2017-10-12T12:18:12Z</time>
      </trkpt>
      <trkpt lat="44.42408" lon="6.48451">
        <ele>2065.53</ele>
        <time>2017-10-12T12:18:24Z</time>
      </trkpt>
      <trkpt lat="44.42409" lon="6.48448">
        <ele>2065.05</ele>
        <time>2017-10-12T12:18:26Z</time>
      </trkpt>
      <trkpt lat="44.42415" lon="6.48431">
        <ele>2063.13</ele>
        <time>2017-10-12T12:18:44Z</time>
      </trkpt>
      <trkpt lat="44.42415" lon="6.48432">
        <ele>2062.65</ele>
        <time>2017-10-12T12:18:55Z</time>
      </trkpt>
      <trkpt lat="44.42424" lon="6.48416">
        <ele>2059.76</ele>
        <time>2017-10-12T12:19:10Z</time>
      </trkpt>
      <trkpt lat="44.42429" lon="6.48401">
        <ele>2058.8</ele>
        <time>2017-10-12T12:19:21Z</time>
      </trkpt>
      <trkpt lat="44.42439" lon="6.48387">
        <ele>2056.4</ele>
        <time>2017-10-12T12:19:37Z</time>
      </trkpt>
      <trkpt lat="44.42447" lon="6.48375">
        <ele>2054.47</ele>
        <time>2017-10-12T12:19:51Z</time>
      </trkpt>
      <trkpt lat="44.42457" lon="6.48362">
        <ele>2053.03</ele>
        <time>2017-10-12T12:20:06Z</time>
      </trkpt>
      <trkpt lat="44.42466" lon="6.48345">
        <ele>2052.55</ele>
        <time>2017-10-12T12:20:20Z</time>
      </trkpt>
      <trkpt lat="44.4248" lon="6.48339">
        <ele>2050.63</ele>
        <time>2017-10-12T12:20:36Z</time>
      </trkpt>
      <trkpt lat="44.42486" lon="6.48327">
        <ele>2050.63</ele>
        <time>2017-10-12T12:20:52Z</time>
      </trkpt>
      <trkpt lat="44.4249" lon="6.4832">
        <ele>2050.15</ele>
        <time>2017-10-12T12:21:05Z</time>
      </trkpt>
      <trkpt lat="44.42494" lon="6.48315">
        <ele>2048.23</ele>
        <time>2017-10-12T12:21:17Z</time>
      </trkpt>
      <trkpt lat="44.42504" lon="6.48308">
        <ele>2047.26</ele>
        <time>2017-10-12T12:21:33Z</time>
      </trkpt>
      <trkpt lat="44.42512" lon="6.48302">
        <ele>2046.78</ele>
        <time>2017-10-12T12:21:45Z</time>
      </trkpt>
      <trkpt lat="44.42518" lon="6.48292">
        <ele>2046.78</ele>
        <time>2017-10-12T12:21:53Z</time>
      </trkpt>
      <trkpt lat="44.42526" lon="6.48284">
        <ele>2044.38</ele>
        <time>2017-10-12T12:22:04Z</time>
      </trkpt>
      <trkpt lat="44.42528" lon="6.48283">
        <ele>2041.98</ele>
        <time>2017-10-12T12:22:10Z</time>
      </trkpt>
      <trkpt lat="44.42533" lon="6.48282">
        <ele>2040.54</ele>
        <time>2017-10-12T12:22:26Z</time>
      </trkpt>
      <trkpt lat="44.42541" lon="6.48277">
        <ele>2038.13</ele>
        <time>2017-10-12T12:22:37Z</time>
      </trkpt>
      <trkpt lat="44.42548" lon="6.48272">
        <ele>2035.25</ele>
        <time>2017-10-12T12:22:46Z</time>
      </trkpt>
      <trkpt lat="44.42553" lon="6.48266">
        <ele>2033.81</ele>
        <time>2017-10-12T12:22:55Z</time>
      </trkpt>
      <trkpt lat="44.42556" lon="6.48264">
        <ele>2031.88</ele>
        <time>2017-10-12T12:22:58Z</time>
      </trkpt>
      <trkpt lat="44.42564" lon="6.48264">
        <ele>2029.48</ele>
        <time>2017-10-12T12:23:07Z</time>
      </trkpt>
      <trkpt lat="44.42568" lon="6.4826">
        <ele>2027.08</ele>
        <time>2017-10-12T12:23:17Z</time>
      </trkpt>
      <trkpt lat="44.42575" lon="6.48254">
        <ele>2023.71</ele>
        <time>2017-10-12T12:23:27Z</time>
      </trkpt>
      <trkpt lat="44.4258" lon="6.48245">
        <ele>2020.83</ele>
        <time>2017-10-12T12:23:37Z</time>
      </trkpt>
      <trkpt lat="44.4258" lon="6.48244">
        <ele>2020.35</ele>
        <time>2017-10-12T12:23:38Z</time>
      </trkpt>
      <trkpt lat="44.4258" lon="6.48237">
        <ele>2019.39</ele>
        <time>2017-10-12T12:23:43Z</time>
      </trkpt>
      <trkpt lat="44.42583" lon="6.48227">
        <ele>2016.02</ele>
        <time>2017-10-12T12:23:51Z</time>
      </trkpt>
      <trkpt lat="44.42588" lon="6.48216">
        <ele>2013.62</ele>
        <time>2017-10-12T12:24:06Z</time>
      </trkpt>
      <trkpt lat="44.4259" lon="6.48205">
        <ele>2010.73</ele>
        <time>2017-10-12T12:24:15Z</time>
      </trkpt>
      <trkpt lat="44.42592" lon="6.48196">
        <ele>2009.77</ele>
        <time>2017-10-12T12:24:21Z</time>
      </trkpt>
      <trkpt lat="44.42599" lon="6.48184">
        <ele>2007.37</ele>
        <time>2017-10-12T12:24:36Z</time>
      </trkpt>
      <trkpt lat="44.42599" lon="6.48186">
        <ele>2007.37</ele>
        <time>2017-10-12T12:24:42Z</time>
      </trkpt>
      <trkpt lat="44.4261" lon="6.48167">
        <ele>2003.52</ele>
        <time>2017-10-12T12:24:58Z</time>
      </trkpt>
      <trkpt lat="44.42619" lon="6.48156">
        <ele>2000.64</ele>
        <time>2017-10-12T12:25:11Z</time>
      </trkpt>
      <trkpt lat="44.4262" lon="6.48153">
        <ele>2000.16</ele>
        <time>2017-10-12T12:25:15Z</time>
      </trkpt>
      <trkpt lat="44.42626" lon="6.48153">
        <ele>1999.2</ele>
        <time>2017-10-12T12:25:21Z</time>
      </trkpt>
      <trkpt lat="44.42633" lon="6.48155">
        <ele>1997.76</ele>
        <time>2017-10-12T12:25:27Z</time>
      </trkpt>
      <trkpt lat="44.42639" lon="6.48147">
        <ele>1996.8</ele>
        <time>2017-10-12T12:25:36Z</time>
      </trkpt>
      <trkpt lat="44.42646" lon="6.48131">
        <ele>1995.35</ele>
        <time>2017-10-12T12:25:49Z</time>
      </trkpt>
      <trkpt lat="44.42654" lon="6.48111">
        <ele>1995.35</ele>
        <time>2017-10-12T12:26:04Z</time>
      </trkpt>
      <trkpt lat="44.42667" lon="6.481">
        <ele>1993.91</ele>
        <time>2017-10-12T12:26:18Z</time>
      </trkpt>
      <trkpt lat="44.42668" lon="6.48099">
        <ele>1993.43</ele>
        <time>2017-10-12T12:26:19Z</time>
      </trkpt>
      <trkpt lat="44.42671" lon="6.48076">
        <ele>1991.51</ele>
        <time>2017-10-12T12:26:35Z</time>
      </trkpt>
      <trkpt lat="44.42672" lon="6.48075">
        <ele>1991.51</ele>
        <time>2017-10-12T12:26:36Z</time>
      </trkpt>
      <trkpt lat="44.42674" lon="6.4807">
        <ele>1990.55</ele>
        <time>2017-10-12T12:26:40Z</time>
      </trkpt>
      <trkpt lat="44.42675" lon="6.48068">
        <ele>1990.55</ele>
        <time>2017-10-12T12:26:42Z</time>
      </trkpt>
      <trkpt lat="44.42683" lon="6.48057">
        <ele>1989.59</ele>
        <time>2017-10-12T12:26:54Z</time>
      </trkpt>
      <trkpt lat="44.42686" lon="6.48053">
        <ele>1989.1</ele>
        <time>2017-10-12T12:26:58Z</time>
      </trkpt>
      <trkpt lat="44.42688" lon="6.48049">
        <ele>1989.1</ele>
        <time>2017-10-12T12:27:05Z</time>
      </trkpt>
      <trkpt lat="44.4269" lon="6.48048">
        <ele>1988.14</ele>
        <time>2017-10-12T12:27:21Z</time>
      </trkpt>
      <trkpt lat="44.42689" lon="6.48047">
        <ele>1987.66</ele>
        <time>2017-10-12T12:27:43Z</time>
      </trkpt>
      <trkpt lat="44.42688" lon="6.48045">
        <ele>1987.66</ele>
        <time>2017-10-12T12:28:10Z</time>
      </trkpt>
      <trkpt lat="44.42689" lon="6.48044">
        <ele>1987.66</ele>
        <time>2017-10-12T12:28:44Z</time>
      </trkpt>
      <trkpt lat="44.42688" lon="6.48045">
        <ele>1987.18</ele>
        <time>2017-10-12T12:29:17Z</time>
      </trkpt>
      <trkpt lat="44.42689" lon="6.48044">
        <ele>1986.7</ele>
        <time>2017-10-12T12:29:51Z</time>
      </trkpt>
      <trkpt lat="44.42687" lon="6.4804">
        <ele>1985.74</ele>
        <time>2017-10-12T12:30:03Z</time>
      </trkpt>
      <trkpt lat="44.42677" lon="6.48038">
        <ele>1983.34</ele>
        <time>2017-10-12T12:30:17Z</time>
      </trkpt>
      <trkpt lat="44.42668" lon="6.48043">
        <ele>1981.41</ele>
        <time>2017-10-12T12:30:30Z</time>
      </trkpt>
      <trkpt lat="44.42668" lon="6.48043">
        <ele>1981.41</ele>
        <time>2017-10-12T12:30:31Z</time>
      </trkpt>
      <trkpt lat="44.42658" lon="6.48051">
        <ele>1979.01</ele>
        <time>2017-10-12T12:30:46Z</time>
      </trkpt>
      <trkpt lat="44.42649" lon="6.48057">
        <ele>1976.61</ele>
        <time>2017-10-12T12:31:02Z</time>
      </trkpt>
      <trkpt lat="44.42643" lon="6.48059">
        <ele>1973.24</ele>
        <time>2017-10-12T12:31:15Z</time>
      </trkpt>
      <trkpt lat="44.42634" lon="6.48068">
        <ele>1970.84</ele>
        <time>2017-10-12T12:31:28Z</time>
      </trkpt>
      <trkpt lat="44.42625" lon="6.48076">
        <ele>1969.4</ele>
        <time>2017-10-12T12:31:43Z</time>
      </trkpt>
      <trkpt lat="44.42622" lon="6.48071">
        <ele>1968.44</ele>
        <time>2017-10-12T12:31:57Z</time>
      </trkpt>
      <trkpt lat="44.42621" lon="6.48068">
        <ele>1968.44</ele>
        <time>2017-10-12T12:31:59Z</time>
      </trkpt>
      <trkpt lat="44.42617" lon="6.48051">
        <ele>1967.48</ele>
        <time>2017-10-12T12:32:14Z</time>
      </trkpt>
      <trkpt lat="44.42612" lon="6.48038">
        <ele>1966.03</ele>
        <time>2017-10-12T12:32:28Z</time>
      </trkpt>
      <trkpt lat="44.42606" lon="6.4802">
        <ele>1963.63</ele>
        <time>2017-10-12T12:32:44Z</time>
      </trkpt>
      <trkpt lat="44.42605" lon="6.48019">
        <ele>1963.63</ele>
        <time>2017-10-12T12:32:45Z</time>
      </trkpt>
      <trkpt lat="44.42596" lon="6.48005">
        <ele>1960.27</ele>
        <time>2017-10-12T12:33:01Z</time>
      </trkpt>
      <trkpt lat="44.42594" lon="6.48003">
        <ele>1959.78</ele>
        <time>2017-10-12T12:33:04Z</time>
      </trkpt>
      <trkpt lat="44.4259" lon="6.48001">
        <ele>1958.82</ele>
        <time>2017-10-12T12:33:09Z</time>
      </trkpt>
      <trkpt lat="44.42581" lon="6.47989">
        <ele>1955.94</ele>
        <time>2017-10-12T12:33:23Z</time>
      </trkpt>
      <trkpt lat="44.42575" lon="6.47974">
        <ele>1953.06</ele>
        <time>2017-10-12T12:33:38Z</time>
      </trkpt>
      <trkpt lat="44.42571" lon="6.47957">
        <ele>1950.17</ele>
        <time>2017-10-12T12:33:53Z</time>
      </trkpt>
      <trkpt lat="44.42564" lon="6.47943">
        <ele>1948.25</ele>
        <time>2017-10-12T12:34:11Z</time>
      </trkpt>
      <trkpt lat="44.42564" lon="6.47942">
        <ele>1947.77</ele>
        <time>2017-10-12T12:34:30Z</time>
      </trkpt>
      <trkpt lat="44.42561" lon="6.47938">
        <ele>1947.29</ele>
        <time>2017-10-12T12:34:52Z</time>
      </trkpt>
      <trkpt lat="44.42561" lon="6.47936">
        <ele>1947.29</ele>
        <time>2017-10-12T12:35:13Z</time>
      </trkpt>
      <trkpt lat="44.4256" lon="6.4793">
        <ele>1945.85</ele>
        <time>2017-10-12T12:35:32Z</time>
      </trkpt>
      <trkpt lat="44.42559" lon="6.47931">
        <ele>1945.36</ele>
        <time>2017-10-12T12:35:49Z</time>
      </trkpt>
      <trkpt lat="44.42558" lon="6.47931">
        <ele>1944.4</ele>
        <time>2017-10-12T12:36:03Z</time>
      </trkpt>
      <trkpt lat="44.42559" lon="6.47929">
        <ele>1943.92</ele>
        <time>2017-10-12T12:36:35Z</time>
      </trkpt>
      <trkpt lat="44.42561" lon="6.47929">
        <ele>1943.92</ele>
        <time>2017-10-12T12:36:51Z</time>
      </trkpt>
      <trkpt lat="44.4256" lon="6.4793">
        <ele>1945.36</ele>
        <time>2017-10-12T12:36:56Z</time>
      </trkpt>
      <trkpt lat="44.42558" lon="6.47931">
        <ele>1944.88</ele>
        <time>2017-10-12T12:37:07Z</time>
      </trkpt>
      <trkpt lat="44.42557" lon="6.47932">
        <ele>1944.88</ele>
        <time>2017-10-12T12:37:10Z</time>
      </trkpt>
      <trkpt lat="44.42549" lon="6.47915">
        <ele>1941.52</ele>
        <time>2017-10-12T12:37:22Z</time>
      </trkpt>
      <trkpt lat="44.4254" lon="6.479">
        <ele>1939.12</ele>
        <time>2017-10-12T12:37:38Z</time>
      </trkpt>
      <trkpt lat="44.4253" lon="6.47895">
        <ele>1938.16</ele>
        <time>2017-10-12T12:37:52Z</time>
      </trkpt>
      <trkpt lat="44.42522" lon="6.47884">
        <ele>1936.23</ele>
        <time>2017-10-12T12:38:07Z</time>
      </trkpt>
      <trkpt lat="44.42518" lon="6.4788">
        <ele>1934.79</ele>
        <time>2017-10-12T12:38:13Z</time>
      </trkpt>
      <trkpt lat="44.42505" lon="6.47873">
        <ele>1931.43</ele>
        <time>2017-10-12T12:38:27Z</time>
      </trkpt>
      <trkpt lat="44.42494" lon="6.47865">
        <ele>1929.98</ele>
        <time>2017-10-12T12:38:42Z</time>
      </trkpt>
      <trkpt lat="44.42483" lon="6.47855">
        <ele>1928.06</ele>
        <time>2017-10-12T12:38:57Z</time>
      </trkpt>
      <trkpt lat="44.42471" lon="6.47845">
        <ele>1929.02</ele>
        <time>2017-10-12T12:39:13Z</time>
      </trkpt>
      <trkpt lat="44.42457" lon="6.47833">
        <ele>1929.5</ele>
        <time>2017-10-12T12:39:33Z</time>
      </trkpt>
      <trkpt lat="44.42449" lon="6.47827">
        <ele>1926.62</ele>
        <time>2017-10-12T12:39:49Z</time>
      </trkpt>
      <trkpt lat="44.42443" lon="6.47821">
        <ele>1924.7</ele>
        <time>2017-10-12T12:40:00Z</time>
      </trkpt>
      <trkpt lat="44.42431" lon="6.47809">
        <ele>1922.29</ele>
        <time>2017-10-12T12:40:14Z</time>
      </trkpt>
      <trkpt lat="44.42419" lon="6.47801">
        <ele>1921.81</ele>
        <time>2017-10-12T12:40:29Z</time>
      </trkpt>
      <trkpt lat="44.42406" lon="6.47789">
        <ele>1921.81</ele>
        <time>2017-10-12T12:40:43Z</time>
      </trkpt>
      <trkpt lat="44.42401" lon="6.47768">
        <ele>1920.85</ele>
        <time>2017-10-12T12:40:58Z</time>
      </trkpt>
      <trkpt lat="44.42393" lon="6.47748">
        <ele>1920.85</ele>
        <time>2017-10-12T12:41:14Z</time>
      </trkpt>
      <trkpt lat="44.4238" lon="6.47729">
        <ele>1921.33</ele>
        <time>2017-10-12T12:41:32Z</time>
      </trkpt>
      <trkpt lat="44.42369" lon="6.47712">
        <ele>1919.89</ele>
        <time>2017-10-12T12:41:48Z</time>
      </trkpt>
      <trkpt lat="44.42359" lon="6.47695">
        <ele>1920.37</ele>
        <time>2017-10-12T12:42:03Z</time>
      </trkpt>
      <trkpt lat="44.42349" lon="6.47683">
        <ele>1919.89</ele>
        <time>2017-10-12T12:42:17Z</time>
      </trkpt>
      <trkpt lat="44.42339" lon="6.47661">
        <ele>1919.41</ele>
        <time>2017-10-12T12:42:30Z</time>
      </trkpt>
      <trkpt lat="44.42341" lon="6.47645">
        <ele>1917.97</ele>
        <time>2017-10-12T12:42:46Z</time>
      </trkpt>
      <trkpt lat="44.42346" lon="6.47644">
        <ele>1917.97</ele>
        <time>2017-10-12T12:43:11Z</time>
      </trkpt>
      <trkpt lat="44.42337" lon="6.47629">
        <ele>1915.56</ele>
        <time>2017-10-12T12:43:26Z</time>
      </trkpt>
      <trkpt lat="44.42324" lon="6.47611">
        <ele>1913.16</ele>
        <time>2017-10-12T12:43:40Z</time>
      </trkpt>
      <trkpt lat="44.42313" lon="6.47592">
        <ele>1911.72</ele>
        <time>2017-10-12T12:43:53Z</time>
      </trkpt>
      <trkpt lat="44.42302" lon="6.47573">
        <ele>1908.83</ele>
        <time>2017-10-12T12:44:08Z</time>
      </trkpt>
      <trkpt lat="44.42293" lon="6.47568">
        <ele>1907.39</ele>
        <time>2017-10-12T12:44:25Z</time>
      </trkpt>
      <trkpt lat="44.42286" lon="6.47563">
        <ele>1906.91</ele>
        <time>2017-10-12T12:44:55Z</time>
      </trkpt>
      <trkpt lat="44.42286" lon="6.47559">
        <ele>1905.47</ele>
        <time>2017-10-12T12:45:09Z</time>
      </trkpt>
      <trkpt lat="44.42285" lon="6.47559">
        <ele>1905.47</ele>
        <time>2017-10-12T12:45:13Z</time>
      </trkpt>
      <trkpt lat="44.42271" lon="6.47547">
        <ele>1901.63</ele>
        <time>2017-10-12T12:45:26Z</time>
      </trkpt>
      <trkpt lat="44.42266" lon="6.47541">
        <ele>1900.66</ele>
        <time>2017-10-12T12:45:31Z</time>
      </trkpt>
      <trkpt lat="44.42255" lon="6.47532">
        <ele>1898.74</ele>
        <time>2017-10-12T12:45:43Z</time>
      </trkpt>
      <trkpt lat="44.42253" lon="6.47528">
        <ele>1898.26</ele>
        <time>2017-10-12T12:45:47Z</time>
      </trkpt>
      <trkpt lat="44.42242" lon="6.47514">
        <ele>1896.34</ele>
        <time>2017-10-12T12:46:01Z</time>
      </trkpt>
      <trkpt lat="44.42233" lon="6.47504">
        <ele>1894.42</ele>
        <time>2017-10-12T12:46:14Z</time>
      </trkpt>
      <trkpt lat="44.42223" lon="6.47496">
        <ele>1891.05</ele>
        <time>2017-10-12T12:46:28Z</time>
      </trkpt>
      <trkpt lat="44.42212" lon="6.47485">
        <ele>1889.61</ele>
        <time>2017-10-12T12:46:43Z</time>
      </trkpt>
      <trkpt lat="44.42204" lon="6.47478">
        <ele>1888.65</ele>
        <time>2017-10-12T12:46:55Z</time>
      </trkpt>
      <trkpt lat="44.422" lon="6.47471">
        <ele>1888.65</ele>
        <time>2017-10-12T12:47:13Z</time>
      </trkpt>
      <trkpt lat="44.42199" lon="6.47464">
        <ele>1888.17</ele>
        <time>2017-10-12T12:47:34Z</time>
      </trkpt>
      <trkpt lat="44.422" lon="6.47469">
        <ele>1888.17</ele>
        <time>2017-10-12T12:47:50Z</time>
      </trkpt>
      <trkpt lat="44.42194" lon="6.47456">
        <ele>1887.21</ele>
        <time>2017-10-12T12:48:02Z</time>
      </trkpt>
      <trkpt lat="44.42202" lon="6.47439">
        <ele>1885.28</ele>
        <time>2017-10-12T12:48:14Z</time>
      </trkpt>
      <trkpt lat="44.42207" lon="6.47424">
        <ele>1883.84</ele>
        <time>2017-10-12T12:48:29Z</time>
      </trkpt>
      <trkpt lat="44.42215" lon="6.47412">
        <ele>1881.92</ele>
        <time>2017-10-12T12:48:42Z</time>
      </trkpt>
      <trkpt lat="44.42224" lon="6.47396">
        <ele>1881.92</ele>
        <time>2017-10-12T12:48:56Z</time>
      </trkpt>
      <trkpt lat="44.42231" lon="6.47381">
        <ele>1880.48</ele>
        <time>2017-10-12T12:49:11Z</time>
      </trkpt>
      <trkpt lat="44.42232" lon="6.4738">
        <ele>1881.44</ele>
        <time>2017-10-12T12:49:17Z</time>
      </trkpt>
      <trkpt lat="44.42233" lon="6.47377">
        <ele>1880</ele>
        <time>2017-10-12T12:49:20Z</time>
      </trkpt>
      <trkpt lat="44.42226" lon="6.47365">
        <ele>1877.59</ele>
        <time>2017-10-12T12:49:35Z</time>
      </trkpt>
      <trkpt lat="44.4222" lon="6.47358">
        <ele>1875.67</ele>
        <time>2017-10-12T12:49:44Z</time>
      </trkpt>
      <trkpt lat="44.42207" lon="6.47347">
        <ele>1874.71</ele>
        <time>2017-10-12T12:49:59Z</time>
      </trkpt>
      <trkpt lat="44.42208" lon="6.47334">
        <ele>1872.3</ele>
        <time>2017-10-12T12:50:09Z</time>
      </trkpt>
      <trkpt lat="44.42199" lon="6.4732">
        <ele>1869.42</ele>
        <time>2017-10-12T12:50:24Z</time>
      </trkpt>
      <trkpt lat="44.42195" lon="6.47291">
        <ele>1867.02</ele>
        <time>2017-10-12T12:50:39Z</time>
      </trkpt>
      <trkpt lat="44.42195" lon="6.47267">
        <ele>1865.09</ele>
        <time>2017-10-12T12:50:55Z</time>
      </trkpt>
      <trkpt lat="44.42196" lon="6.47247">
        <ele>1862.69</ele>
        <time>2017-10-12T12:51:07Z</time>
      </trkpt>
      <trkpt lat="44.4219" lon="6.47232">
        <ele>1860.29</ele>
        <time>2017-10-12T12:51:20Z</time>
      </trkpt>
      <trkpt lat="44.42183" lon="6.4721">
        <ele>1859.81</ele>
        <time>2017-10-12T12:51:35Z</time>
      </trkpt>
      <trkpt lat="44.42176" lon="6.47202">
        <ele>1858.37</ele>
        <time>2017-10-12T12:51:45Z</time>
      </trkpt>
      <trkpt lat="44.42165" lon="6.47191">
        <ele>1855.96</ele>
        <time>2017-10-12T12:52:01Z</time>
      </trkpt>
      <trkpt lat="44.42157" lon="6.4718">
        <ele>1853.56</ele>
        <time>2017-10-12T12:52:14Z</time>
      </trkpt>
      <trkpt lat="44.42149" lon="6.47178">
        <ele>1850.19</ele>
        <time>2017-10-12T12:52:27Z</time>
      </trkpt>
      <trkpt lat="44.4214" lon="6.4717">
        <ele>1847.79</ele>
        <time>2017-10-12T12:52:41Z</time>
      </trkpt>
      <trkpt lat="44.42136" lon="6.47167">
        <ele>1846.83</ele>
        <time>2017-10-12T12:52:45Z</time>
      </trkpt>
      <trkpt lat="44.42126" lon="6.47162">
        <ele>1844.43</ele>
        <time>2017-10-12T12:52:58Z</time>
      </trkpt>
      <trkpt lat="44.42116" lon="6.47159">
        <ele>1841.54</ele>
        <time>2017-10-12T12:53:12Z</time>
      </trkpt>
      <trkpt lat="44.42107" lon="6.47154">
        <ele>1839.62</ele>
        <time>2017-10-12T12:53:22Z</time>
      </trkpt>
      <trkpt lat="44.42097" lon="6.4715">
        <ele>1836.74</ele>
        <time>2017-10-12T12:53:36Z</time>
      </trkpt>
      <trkpt lat="44.42087" lon="6.47145">
        <ele>1834.33</ele>
        <time>2017-10-12T12:53:48Z</time>
      </trkpt>
      <trkpt lat="44.42072" lon="6.47132">
        <ele>1830.97</ele>
        <time>2017-10-12T12:54:05Z</time>
      </trkpt>
      <trkpt lat="44.42063" lon="6.47125">
        <ele>1829.05</ele>
        <time>2017-10-12T12:54:22Z</time>
      </trkpt>
      <trkpt lat="44.42053" lon="6.47117">
        <ele>1827.6</ele>
        <time>2017-10-12T12:54:43Z</time>
      </trkpt>
      <trkpt lat="44.42041" lon="6.47109">
        <ele>1825.2</ele>
        <time>2017-10-12T12:54:58Z</time>
      </trkpt>
      <trkpt lat="44.42036" lon="6.47105">
        <ele>1824.72</ele>
        <time>2017-10-12T12:55:15Z</time>
      </trkpt>
      <trkpt lat="44.42035" lon="6.47097">
        <ele>1823.76</ele>
        <time>2017-10-12T12:55:34Z</time>
      </trkpt>
      <trkpt lat="44.42032" lon="6.47098">
        <ele>1823.28</ele>
        <time>2017-10-12T12:55:49Z</time>
      </trkpt>
      <trkpt lat="44.42033" lon="6.47092">
        <ele>1822.8</ele>
        <time>2017-10-12T12:56:02Z</time>
      </trkpt>
      <trkpt lat="44.42026" lon="6.47089">
        <ele>1820.87</ele>
        <time>2017-10-12T12:56:16Z</time>
      </trkpt>
      <trkpt lat="44.42018" lon="6.47086">
        <ele>1817.51</ele>
        <time>2017-10-12T12:56:28Z</time>
      </trkpt>
      <trkpt lat="44.42017" lon="6.47086">
        <ele>1817.51</ele>
        <time>2017-10-12T12:56:29Z</time>
      </trkpt>
      <trkpt lat="44.42009" lon="6.47084">
        <ele>1816.07</ele>
        <time>2017-10-12T12:56:42Z</time>
      </trkpt>
      <trkpt lat="44.42002" lon="6.47078">
        <ele>1813.66</ele>
        <time>2017-10-12T12:56:55Z</time>
      </trkpt>
      <trkpt lat="44.41995" lon="6.47074">
        <ele>1811.74</ele>
        <time>2017-10-12T12:57:07Z</time>
      </trkpt>
      <trkpt lat="44.41992" lon="6.47074">
        <ele>1810.3</ele>
        <time>2017-10-12T12:57:15Z</time>
      </trkpt>
      <trkpt lat="44.41989" lon="6.47065">
        <ele>1808.38</ele>
        <time>2017-10-12T12:57:24Z</time>
      </trkpt>
      <trkpt lat="44.41982" lon="6.47058">
        <ele>1805.97</ele>
        <time>2017-10-12T12:57:39Z</time>
      </trkpt>
      <trkpt lat="44.41977" lon="6.47053">
        <ele>1803.57</ele>
        <time>2017-10-12T12:57:50Z</time>
      </trkpt>
      <trkpt lat="44.41969" lon="6.47044">
        <ele>1800.69</ele>
        <time>2017-10-12T12:58:03Z</time>
      </trkpt>
      <trkpt lat="44.41962" lon="6.47034">
        <ele>1798.28</ele>
        <time>2017-10-12T12:58:17Z</time>
      </trkpt>
      <trkpt lat="44.41954" lon="6.47026">
        <ele>1796.36</ele>
        <time>2017-10-12T12:58:30Z</time>
      </trkpt>
      <trkpt lat="44.41949" lon="6.47018">
        <ele>1793.96</ele>
        <time>2017-10-12T12:58:42Z</time>
      </trkpt>
      <trkpt lat="44.41949" lon="6.47003">
        <ele>1792.03</ele>
        <time>2017-10-12T12:58:56Z</time>
      </trkpt>
      <trkpt lat="44.41947" lon="6.4699">
        <ele>1790.11</ele>
        <time>2017-10-12T12:59:09Z</time>
      </trkpt>
      <trkpt lat="44.41947" lon="6.46989">
        <ele>1790.11</ele>
        <time>2017-10-12T12:59:10Z</time>
      </trkpt>
      <trkpt lat="44.41948" lon="6.46977">
        <ele>1788.67</ele>
        <time>2017-10-12T12:59:19Z</time>
      </trkpt>
      <trkpt lat="44.41947" lon="6.46969">
        <ele>1787.23</ele>
        <time>2017-10-12T12:59:32Z</time>
      </trkpt>
      <trkpt lat="44.41949" lon="6.46979">
        <ele>1787.23</ele>
        <time>2017-10-12T12:59:54Z</time>
      </trkpt>
      <trkpt lat="44.41945" lon="6.46973">
        <ele>1787.23</ele>
        <time>2017-10-12T13:00:19Z</time>
      </trkpt>
      <trkpt lat="44.4195" lon="6.46971">
        <ele>1786.27</ele>
        <time>2017-10-12T13:00:38Z</time>
      </trkpt>
      <trkpt lat="44.41948" lon="6.46963">
        <ele>1785.79</ele>
        <time>2017-10-12T13:00:48Z</time>
      </trkpt>
      <trkpt lat="44.41946" lon="6.46961">
        <ele>1783.86</ele>
        <time>2017-10-12T13:01:03Z</time>
      </trkpt>
      <trkpt lat="44.41944" lon="6.46959">
        <ele>1783.38</ele>
        <time>2017-10-12T13:01:22Z</time>
      </trkpt>
      <trkpt lat="44.41944" lon="6.46955">
        <ele>1781.46</ele>
        <time>2017-10-12T13:01:29Z</time>
      </trkpt>
      <trkpt lat="44.41947" lon="6.46954">
        <ele>1780.5</ele>
        <time>2017-10-12T13:01:42Z</time>
      </trkpt>
      <trkpt lat="44.41945" lon="6.46956">
        <ele>1779.54</ele>
        <time>2017-10-12T13:02:02Z</time>
      </trkpt>
      <trkpt lat="44.41944" lon="6.46956">
        <ele>1779.54</ele>
        <time>2017-10-12T13:02:31Z</time>
      </trkpt>
      <trkpt lat="44.41944" lon="6.46952">
        <ele>1780.02</ele>
        <time>2017-10-12T13:03:04Z</time>
      </trkpt>
      <trkpt lat="44.41944" lon="6.46952">
        <ele>1780.02</ele>
        <time>2017-10-12T13:03:29Z</time>
      </trkpt>
      <trkpt lat="44.41946" lon="6.46953">
        <ele>1779.54</ele>
        <time>2017-10-12T13:03:59Z</time>
      </trkpt>
      <trkpt lat="44.41945" lon="6.46952">
        <ele>1779.06</ele>
        <time>2017-10-12T13:04:32Z</time>
      </trkpt>
      <trkpt lat="44.41945" lon="6.46952">
        <ele>1779.54</ele>
        <time>2017-10-12T13:04:53Z</time>
      </trkpt>
      <trkpt lat="44.41944" lon="6.46952">
        <ele>1779.06</ele>
        <time>2017-10-12T13:05:27Z</time>
      </trkpt>
      <trkpt lat="44.41945" lon="6.4695">
        <ele>1779.06</ele>
        <time>2017-10-12T13:06:00Z</time>
      </trkpt>
      <trkpt lat="44.41943" lon="6.46948">
        <ele>1779.06</ele>
        <time>2017-10-12T13:06:14Z</time>
      </trkpt>
      <trkpt lat="44.41943" lon="6.46947">
        <ele>1779.06</ele>
        <time>2017-10-12T13:06:40Z</time>
      </trkpt>
      <trkpt lat="44.41942" lon="6.46951">
        <ele>1780.98</ele>
        <time>2017-10-12T13:06:59Z</time>
      </trkpt>
      <trkpt lat="44.41941" lon="6.46951">
        <ele>1780.98</ele>
        <time>2017-10-12T13:07:01Z</time>
      </trkpt>
      <trkpt lat="44.41939" lon="6.46946">
        <ele>1780.02</ele>
        <time>2017-10-12T13:07:13Z</time>
      </trkpt>
      <trkpt lat="44.41944" lon="6.46948">
        <ele>1780.98</ele>
        <time>2017-10-12T13:07:23Z</time>
      </trkpt>
      <trkpt lat="44.41945" lon="6.46955">
        <ele>1780.98</ele>
        <time>2017-10-12T13:07:33Z</time>
      </trkpt>
      <trkpt lat="44.41943" lon="6.46956">
        <ele>1780.98</ele>
        <time>2017-10-12T13:07:36Z</time>
      </trkpt>
      <trkpt lat="44.41934" lon="6.46946">
        <ele>1778.58</ele>
        <time>2017-10-12T13:07:48Z</time>
      </trkpt>
      <trkpt lat="44.41932" lon="6.46944">
        <ele>1778.1</ele>
        <time>2017-10-12T13:07:51Z</time>
      </trkpt>
      <trkpt lat="44.41935" lon="6.46932">
        <ele>1777.13</ele>
        <time>2017-10-12T13:08:04Z</time>
      </trkpt>
      <trkpt lat="44.41937" lon="6.46932">
        <ele>1777.61</ele>
        <time>2017-10-12T13:08:26Z</time>
      </trkpt>
      <trkpt lat="44.41932" lon="6.46928">
        <ele>1777.61</ele>
        <time>2017-10-12T13:08:51Z</time>
      </trkpt>
      <trkpt lat="44.41934" lon="6.46935">
        <ele>1778.58</ele>
        <time>2017-10-12T13:09:09Z</time>
      </trkpt>
      <trkpt lat="44.41936" lon="6.46938">
        <ele>1778.1</ele>
        <time>2017-10-12T13:09:13Z</time>
      </trkpt>
      <trkpt lat="44.41934" lon="6.4695">
        <ele>1779.54</ele>
        <time>2017-10-12T13:09:29Z</time>
      </trkpt>
      <trkpt lat="44.41934" lon="6.46949">
        <ele>1779.06</ele>
        <time>2017-10-12T13:09:59Z</time>
      </trkpt>
      <trkpt lat="44.41934" lon="6.46943">
        <ele>1779.06</ele>
        <time>2017-10-12T13:10:36Z</time>
      </trkpt>
      <trkpt lat="44.41933" lon="6.46943">
        <ele>1778.58</ele>
        <time>2017-10-12T13:11:09Z</time>
      </trkpt>
      <trkpt lat="44.41933" lon="6.46942">
        <ele>1778.58</ele>
        <time>2017-10-12T13:11:40Z</time>
      </trkpt>
      <trkpt lat="44.41936" lon="6.46945">
        <ele>1778.58</ele>
        <time>2017-10-12T13:12:10Z</time>
      </trkpt>
      <trkpt lat="44.41934" lon="6.46942">
        <ele>1778.58</ele>
        <time>2017-10-12T13:12:40Z</time>
      </trkpt>
      <trkpt lat="44.41932" lon="6.46941">
        <ele>1778.58</ele>
        <time>2017-10-12T13:13:11Z</time>
      </trkpt>
      <trkpt lat="44.41931" lon="6.46938">
        <ele>1778.58</ele>
        <time>2017-10-12T13:13:40Z</time>
      </trkpt>
      <trkpt lat="44.41932" lon="6.46936">
        <ele>1779.06</ele>
        <time>2017-10-12T13:14:12Z</time>
      </trkpt>
      <trkpt lat="44.4194" lon="6.46943">
        <ele>1779.06</ele>
        <time>2017-10-12T13:14:33Z</time>
      </trkpt>
      <trkpt lat="44.41949" lon="6.46948">
        <ele>1778.58</ele>
        <time>2017-10-12T13:14:46Z</time>
      </trkpt>
      <trkpt lat="44.4196" lon="6.46947">
        <ele>1775.69</ele>
        <time>2017-10-12T13:15:02Z</time>
      </trkpt>
      <trkpt lat="44.41956" lon="6.46937">
        <ele>1773.29</ele>
        <time>2017-10-12T13:15:16Z</time>
      </trkpt>
      <trkpt lat="44.41955" lon="6.46936">
        <ele>1773.29</ele>
        <time>2017-10-12T13:15:17Z</time>
      </trkpt>
      <trkpt lat="44.41947" lon="6.46928">
        <ele>1772.33</ele>
        <time>2017-10-12T13:15:26Z</time>
      </trkpt>
      <trkpt lat="44.41947" lon="6.46915">
        <ele>1771.85</ele>
        <time>2017-10-12T13:15:36Z</time>
      </trkpt>
      <trkpt lat="44.41946" lon="6.46905">
        <ele>1770.41</ele>
        <time>2017-10-12T13:15:48Z</time>
      </trkpt>
      <trkpt lat="44.41942" lon="6.469">
        <ele>1767.52</ele>
        <time>2017-10-12T13:15:58Z</time>
      </trkpt>
      <trkpt lat="44.41944" lon="6.46899">
        <ele>1767.52</ele>
        <time>2017-10-12T13:16:00Z</time>
      </trkpt>
      <trkpt lat="44.41949" lon="6.46898">
        <ele>1767.04</ele>
        <time>2017-10-12T13:16:04Z</time>
      </trkpt>
      <trkpt lat="44.41959" lon="6.46896">
        <ele>1764.16</ele>
        <time>2017-10-12T13:16:17Z</time>
      </trkpt>
      <trkpt lat="44.41968" lon="6.46897">
        <ele>1762.23</ele>
        <time>2017-10-12T13:16:29Z</time>
      </trkpt>
      <trkpt lat="44.4196" lon="6.46887">
        <ele>1759.83</ele>
        <time>2017-10-12T13:16:43Z</time>
      </trkpt>
      <trkpt lat="44.41953" lon="6.46881">
        <ele>1757.43</ele>
        <time>2017-10-12T13:16:53Z</time>
      </trkpt>
      <trkpt lat="44.41947" lon="6.46877">
        <ele>1755.5</ele>
        <time>2017-10-12T13:17:00Z</time>
      </trkpt>
      <trkpt lat="44.41938" lon="6.46872">
        <ele>1752.62</ele>
        <time>2017-10-12T13:17:12Z</time>
      </trkpt>
      <trkpt lat="44.41933" lon="6.46867">
        <ele>1751.66</ele>
        <time>2017-10-12T13:17:17Z</time>
      </trkpt>
      <trkpt lat="44.41921" lon="6.46865">
        <ele>1749.26</ele>
        <time>2017-10-12T13:17:30Z</time>
      </trkpt>
      <trkpt lat="44.41915" lon="6.46872">
        <ele>1746.37</ele>
        <time>2017-10-12T13:17:43Z</time>
      </trkpt>
      <trkpt lat="44.41906" lon="6.46873">
        <ele>1743.01</ele>
        <time>2017-10-12T13:17:58Z</time>
      </trkpt>
      <trkpt lat="44.419" lon="6.4687">
        <ele>1740.12</ele>
        <time>2017-10-12T13:18:08Z</time>
      </trkpt>
      <trkpt lat="44.41898" lon="6.46864">
        <ele>1739.16</ele>
        <time>2017-10-12T13:18:24Z</time>
      </trkpt>
      <trkpt lat="44.41895" lon="6.46859">
        <ele>1738.68</ele>
        <time>2017-10-12T13:18:45Z</time>
      </trkpt>
      <trkpt lat="44.41899" lon="6.46856">
        <ele>1737.72</ele>
        <time>2017-10-12T13:19:00Z</time>
      </trkpt>
      <trkpt lat="44.41905" lon="6.4686">
        <ele>1735.32</ele>
        <time>2017-10-12T13:19:15Z</time>
      </trkpt>
      <trkpt lat="44.41897" lon="6.46854">
        <ele>1732.43</ele>
        <time>2017-10-12T13:19:28Z</time>
      </trkpt>
      <trkpt lat="44.41898" lon="6.4685">
        <ele>1730.51</ele>
        <time>2017-10-12T13:19:36Z</time>
      </trkpt>
      <trkpt lat="44.4191" lon="6.46849">
        <ele>1728.11</ele>
        <time>2017-10-12T13:19:49Z</time>
      </trkpt>
      <trkpt lat="44.41912" lon="6.46847">
        <ele>1725.7</ele>
        <time>2017-10-12T13:20:01Z</time>
      </trkpt>
      <trkpt lat="44.41912" lon="6.46847">
        <ele>1725.22</ele>
        <time>2017-10-12T13:20:03Z</time>
      </trkpt>
      <trkpt lat="44.41904" lon="6.46842">
        <ele>1721.86</ele>
        <time>2017-10-12T13:20:17Z</time>
      </trkpt>
      <trkpt lat="44.41902" lon="6.4684">
        <ele>1721.86</ele>
        <time>2017-10-12T13:20:20Z</time>
      </trkpt>
      <trkpt lat="44.41892" lon="6.46838">
        <ele>1719.46</ele>
        <time>2017-10-12T13:20:32Z</time>
      </trkpt>
      <trkpt lat="44.41883" lon="6.46826">
        <ele>1716.57</ele>
        <time>2017-10-12T13:20:43Z</time>
      </trkpt>
      <trkpt lat="44.41874" lon="6.46814">
        <ele>1714.17</ele>
        <time>2017-10-12T13:20:57Z</time>
      </trkpt>
      <trkpt lat="44.4187" lon="6.46809">
        <ele>1712.73</ele>
        <time>2017-10-12T13:21:04Z</time>
      </trkpt>
      <trkpt lat="44.41862" lon="6.46802">
        <ele>1710.8</ele>
        <time>2017-10-12T13:21:15Z</time>
      </trkpt>
      <trkpt lat="44.41858" lon="6.46801">
        <ele>1709.84</ele>
        <time>2017-10-12T13:21:22Z</time>
      </trkpt>
      <trkpt lat="44.4185" lon="6.46799">
        <ele>1707.92</ele>
        <time>2017-10-12T13:21:31Z</time>
      </trkpt>
      <trkpt lat="44.41847" lon="6.46793">
        <ele>1706.96</ele>
        <time>2017-10-12T13:21:35Z</time>
      </trkpt>
      <trkpt lat="44.41839" lon="6.46787">
        <ele>1704.07</ele>
        <time>2017-10-12T13:21:49Z</time>
      </trkpt>
      <trkpt lat="44.4183" lon="6.46774">
        <ele>1700.71</ele>
        <time>2017-10-12T13:22:04Z</time>
      </trkpt>
      <trkpt lat="44.4183" lon="6.46756">
        <ele>1697.83</ele>
        <time>2017-10-12T13:22:20Z</time>
      </trkpt>
      <trkpt lat="44.41831" lon="6.46753">
        <ele>1694.94</ele>
        <time>2017-10-12T13:22:33Z</time>
      </trkpt>
      <trkpt lat="44.41824" lon="6.46756">
        <ele>1692.06</ele>
        <time>2017-10-12T13:22:48Z</time>
      </trkpt>
      <trkpt lat="44.41819" lon="6.4675">
        <ele>1690.14</ele>
        <time>2017-10-12T13:22:59Z</time>
      </trkpt>
      <trkpt lat="44.41809" lon="6.46751">
        <ele>1687.25</ele>
        <time>2017-10-12T13:23:14Z</time>
      </trkpt>
      <trkpt lat="44.418" lon="6.46753">
        <ele>1684.85</ele>
        <time>2017-10-12T13:23:27Z</time>
      </trkpt>
      <trkpt lat="44.41792" lon="6.46751">
        <ele>1681.96</ele>
        <time>2017-10-12T13:23:40Z</time>
      </trkpt>
      <trkpt lat="44.41794" lon="6.46744">
        <ele>1679.56</ele>
        <time>2017-10-12T13:23:51Z</time>
      </trkpt>
      <trkpt lat="44.41802" lon="6.46737">
        <ele>1676.2</ele>
        <time>2017-10-12T13:24:04Z</time>
      </trkpt>
      <trkpt lat="44.41802" lon="6.46733">
        <ele>1673.79</ele>
        <time>2017-10-12T13:24:18Z</time>
      </trkpt>
      <trkpt lat="44.41805" lon="6.46725">
        <ele>1671.87</ele>
        <time>2017-10-12T13:24:30Z</time>
      </trkpt>
      <trkpt lat="44.41803" lon="6.46722">
        <ele>1668.51</ele>
        <time>2017-10-12T13:24:44Z</time>
      </trkpt>
      <trkpt lat="44.41799" lon="6.46717">
        <ele>1665.62</ele>
        <time>2017-10-12T13:24:54Z</time>
      </trkpt>
      <trkpt lat="44.41805" lon="6.4671">
        <ele>1663.7</ele>
        <time>2017-10-12T13:25:07Z</time>
      </trkpt>
      <trkpt lat="44.41807" lon="6.46708">
        <ele>1663.22</ele>
        <time>2017-10-12T13:25:10Z</time>
      </trkpt>
      <trkpt lat="44.41809" lon="6.46701">
        <ele>1660.33</ele>
        <time>2017-10-12T13:25:23Z</time>
      </trkpt>
      <trkpt lat="44.41796" lon="6.46705">
        <ele>1656.97</ele>
        <time>2017-10-12T13:25:39Z</time>
      </trkpt>
      <trkpt lat="44.41786" lon="6.46712">
        <ele>1654.57</ele>
        <time>2017-10-12T13:25:55Z</time>
      </trkpt>
      <trkpt lat="44.41783" lon="6.46713">
        <ele>1654.09</ele>
        <time>2017-10-12T13:25:59Z</time>
      </trkpt>
      <trkpt lat="44.41771" lon="6.46722">
        <ele>1650.72</ele>
        <time>2017-10-12T13:26:13Z</time>
      </trkpt>
      <trkpt lat="44.41768" lon="6.46724">
        <ele>1650.24</ele>
        <time>2017-10-12T13:26:16Z</time>
      </trkpt>
      <trkpt lat="44.41752" lon="6.46739">
        <ele>1648.8</ele>
        <time>2017-10-12T13:26:33Z</time>
      </trkpt>
      <trkpt lat="44.41743" lon="6.46748">
        <ele>1646.88</ele>
        <time>2017-10-12T13:26:47Z</time>
      </trkpt>
      <trkpt lat="44.41736" lon="6.46761">
        <ele>1644.47</ele>
        <time>2017-10-12T13:27:02Z</time>
      </trkpt>
      <trkpt lat="44.4173" lon="6.46771">
        <ele>1643.03</ele>
        <time>2017-10-12T13:27:16Z</time>
      </trkpt>
      <trkpt lat="44.41725" lon="6.46785">
        <ele>1639.67</ele>
        <time>2017-10-12T13:27:31Z</time>
      </trkpt>
      <trkpt lat="44.41722" lon="6.46797">
        <ele>1638.22</ele>
        <time>2017-10-12T13:27:42Z</time>
      </trkpt>
      <trkpt lat="44.41715" lon="6.46816">
        <ele>1636.3</ele>
        <time>2017-10-12T13:27:58Z</time>
      </trkpt>
      <trkpt lat="44.41711" lon="6.46826">
        <ele>1634.86</ele>
        <time>2017-10-12T13:28:11Z</time>
      </trkpt>
      <trkpt lat="44.41708" lon="6.46836">
        <ele>1631.98</ele>
        <time>2017-10-12T13:28:26Z</time>
      </trkpt>
      <trkpt lat="44.41707" lon="6.46846">
        <ele>1628.61</ele>
        <time>2017-10-12T13:28:39Z</time>
      </trkpt>
      <trkpt lat="44.41703" lon="6.46858">
        <ele>1626.69</ele>
        <time>2017-10-12T13:28:53Z</time>
      </trkpt>
      <trkpt lat="44.41706" lon="6.46861">
        <ele>1627.17</ele>
        <time>2017-10-12T13:29:13Z</time>
      </trkpt>
      <trkpt lat="44.41705" lon="6.46862">
        <ele>1626.21</ele>
        <time>2017-10-12T13:29:40Z</time>
      </trkpt>
      <trkpt lat="44.41704" lon="6.4686">
        <ele>1624.77</ele>
        <time>2017-10-12T13:29:55Z</time>
      </trkpt>
      <trkpt lat="44.41703" lon="6.46854">
        <ele>1622.84</ele>
        <time>2017-10-12T13:30:11Z</time>
      </trkpt>
      <trkpt lat="44.41701" lon="6.46851">
        <ele>1621.4</ele>
        <time>2017-10-12T13:30:30Z</time>
      </trkpt>
      <trkpt lat="44.41696" lon="6.46864">
        <ele>1618.04</ele>
        <time>2017-10-12T13:30:45Z</time>
      </trkpt>
      <trkpt lat="44.41697" lon="6.46867">
        <ele>1618.04</ele>
        <time>2017-10-12T13:31:07Z</time>
      </trkpt>
      <trkpt lat="44.41695" lon="6.4687">
        <ele>1617.07</ele>
        <time>2017-10-12T13:31:30Z</time>
      </trkpt>
      <trkpt lat="44.41692" lon="6.46867">
        <ele>1616.11</ele>
        <time>2017-10-12T13:31:44Z</time>
      </trkpt>
      <trkpt lat="44.41689" lon="6.4686">
        <ele>1612.75</ele>
        <time>2017-10-12T13:31:55Z</time>
      </trkpt>
      <trkpt lat="44.41688" lon="6.46857">
        <ele>1612.27</ele>
        <time>2017-10-12T13:32:00Z</time>
      </trkpt>
      <trkpt lat="44.41689" lon="6.46847">
        <ele>1610.83</ele>
        <time>2017-10-12T13:32:11Z</time>
      </trkpt>
      <trkpt lat="44.41689" lon="6.46837">
        <ele>1607.46</ele>
        <time>2017-10-12T13:32:25Z</time>
      </trkpt>
      <trkpt lat="44.4168" lon="6.46844">
        <ele>1604.58</ele>
        <time>2017-10-12T13:32:39Z</time>
      </trkpt>
      <trkpt lat="44.41677" lon="6.46845">
        <ele>1604.1</ele>
        <time>2017-10-12T13:32:42Z</time>
      </trkpt>
      <trkpt lat="44.41662" lon="6.4685">
        <ele>1601.21</ele>
        <time>2017-10-12T13:32:58Z</time>
      </trkpt>
      <trkpt lat="44.41657" lon="6.46861">
        <ele>1598.81</ele>
        <time>2017-10-12T13:33:10Z</time>
      </trkpt>
      <trkpt lat="44.41656" lon="6.46863">
        <ele>1598.33</ele>
        <time>2017-10-12T13:33:13Z</time>
      </trkpt>
      <trkpt lat="44.41655" lon="6.46869">
        <ele>1597.37</ele>
        <time>2017-10-12T13:33:27Z</time>
      </trkpt>
      <trkpt lat="44.41661" lon="6.46867">
        <ele>1596.41</ele>
        <time>2017-10-12T13:33:53Z</time>
      </trkpt>
      <trkpt lat="44.41667" lon="6.46869">
        <ele>1595.45</ele>
        <time>2017-10-12T13:34:18Z</time>
      </trkpt>
      <trkpt lat="44.41669" lon="6.4687">
        <ele>1595.93</ele>
        <time>2017-10-12T13:34:44Z</time>
      </trkpt>
      <trkpt lat="44.41663" lon="6.46872">
        <ele>1594.96</ele>
        <time>2017-10-12T13:35:05Z</time>
      </trkpt>
      <trkpt lat="44.41664" lon="6.46877">
        <ele>1594.48</ele>
        <time>2017-10-12T13:35:41Z</time>
      </trkpt>
      <trkpt lat="44.4166" lon="6.46872">
        <ele>1594</ele>
        <time>2017-10-12T13:36:10Z</time>
      </trkpt>
      <trkpt lat="44.41656" lon="6.46871">
        <ele>1594</ele>
        <time>2017-10-12T13:36:27Z</time>
      </trkpt>
      <trkpt lat="44.41662" lon="6.4687">
        <ele>1592.56</ele>
        <time>2017-10-12T13:36:43Z</time>
      </trkpt>
      <trkpt lat="44.41661" lon="6.46872">
        <ele>1592.56</ele>
        <time>2017-10-12T13:37:11Z</time>
      </trkpt>
      <trkpt lat="44.41668" lon="6.46874">
        <ele>1590.64</ele>
        <time>2017-10-12T13:37:27Z</time>
      </trkpt>
      <trkpt lat="44.4167" lon="6.4688">
        <ele>1588.72</ele>
        <time>2017-10-12T13:37:37Z</time>
      </trkpt>
      <trkpt lat="44.41674" lon="6.4689">
        <ele>1587.27</ele>
        <time>2017-10-12T13:37:47Z</time>
      </trkpt>
      <trkpt lat="44.41666" lon="6.46894">
        <ele>1583.91</ele>
        <time>2017-10-12T13:38:01Z</time>
      </trkpt>
      <trkpt lat="44.41663" lon="6.46898">
        <ele>1581.03</ele>
        <time>2017-10-12T13:38:15Z</time>
      </trkpt>
      <trkpt lat="44.41671" lon="6.46903">
        <ele>1577.66</ele>
        <time>2017-10-12T13:38:27Z</time>
      </trkpt>
      <trkpt lat="44.41674" lon="6.46909">
        <ele>1576.22</ele>
        <time>2017-10-12T13:38:34Z</time>
      </trkpt>
      <trkpt lat="44.41666" lon="6.46911">
        <ele>1573.82</ele>
        <time>2017-10-12T13:38:47Z</time>
      </trkpt>
      <trkpt lat="44.41662" lon="6.4691">
        <ele>1572.37</ele>
        <time>2017-10-12T13:38:53Z</time>
      </trkpt>
      <trkpt lat="44.41657" lon="6.46915">
        <ele>1569.49</ele>
        <time>2017-10-12T13:39:01Z</time>
      </trkpt>
      <trkpt lat="44.41657" lon="6.46924">
        <ele>1566.61</ele>
        <time>2017-10-12T13:39:15Z</time>
      </trkpt>
      <trkpt lat="44.41663" lon="6.46923">
        <ele>1563.72</ele>
        <time>2017-10-12T13:39:26Z</time>
      </trkpt>
      <trkpt lat="44.4166" lon="6.46932">
        <ele>1560.84</ele>
        <time>2017-10-12T13:39:38Z</time>
      </trkpt>
      <trkpt lat="44.41666" lon="6.46936">
        <ele>1557.95</ele>
        <time>2017-10-12T13:39:48Z</time>
      </trkpt>
      <trkpt lat="44.41661" lon="6.46943">
        <ele>1555.55</ele>
        <time>2017-10-12T13:39:59Z</time>
      </trkpt>
      <trkpt lat="44.4167" lon="6.46944">
        <ele>1552.67</ele>
        <time>2017-10-12T13:40:12Z</time>
      </trkpt>
      <trkpt lat="44.41667" lon="6.46952">
        <ele>1549.78</ele>
        <time>2017-10-12T13:40:24Z</time>
      </trkpt>
      <trkpt lat="44.41672" lon="6.46956">
        <ele>1548.82</ele>
        <time>2017-10-12T13:40:30Z</time>
      </trkpt>
      <trkpt lat="44.4167" lon="6.46968">
        <ele>1544.98</ele>
        <time>2017-10-12T13:40:39Z</time>
      </trkpt>
      <trkpt lat="44.41668" lon="6.46985">
        <ele>1542.57</ele>
        <time>2017-10-12T13:40:51Z</time>
      </trkpt>
      <trkpt lat="44.41668" lon="6.46992">
        <ele>1540.65</ele>
        <time>2017-10-12T13:40:57Z</time>
      </trkpt>
      <trkpt lat="44.41668" lon="6.47004">
        <ele>1537.29</ele>
        <time>2017-10-12T13:41:08Z</time>
      </trkpt>
      <trkpt lat="44.41667" lon="6.47012">
        <ele>1536.32</ele>
        <time>2017-10-12T13:41:14Z</time>
      </trkpt>
      <trkpt lat="44.41666" lon="6.47025">
        <ele>1533.92</ele>
        <time>2017-10-12T13:41:23Z</time>
      </trkpt>
      <trkpt lat="44.4166" lon="6.4704">
        <ele>1530.56</ele>
        <time>2017-10-12T13:41:36Z</time>
      </trkpt>
      <trkpt lat="44.41653" lon="6.47052">
        <ele>1528.15</ele>
        <time>2017-10-12T13:41:52Z</time>
      </trkpt>
      <trkpt lat="44.41651" lon="6.4706">
        <ele>1527.67</ele>
        <time>2017-10-12T13:42:02Z</time>
      </trkpt>
      <trkpt lat="44.41642" lon="6.47066">
        <ele>1525.75</ele>
        <time>2017-10-12T13:42:11Z</time>
      </trkpt>
      <trkpt lat="44.41631" lon="6.47078">
        <ele>1523.35</ele>
        <time>2017-10-12T13:42:24Z</time>
      </trkpt>
      <trkpt lat="44.41627" lon="6.4709">
        <ele>1520.46</ele>
        <time>2017-10-12T13:42:37Z</time>
      </trkpt>
      <trkpt lat="44.4162" lon="6.47104">
        <ele>1517.58</ele>
        <time>2017-10-12T13:42:49Z</time>
      </trkpt>
      <trkpt lat="44.41612" lon="6.4712">
        <ele>1514.69</ele>
        <time>2017-10-12T13:43:03Z</time>
      </trkpt>
      <trkpt lat="44.41598" lon="6.47133">
        <ele>1511.81</ele>
        <time>2017-10-12T13:43:19Z</time>
      </trkpt>
      <trkpt lat="44.416" lon="6.47125">
        <ele>1510.37</ele>
        <time>2017-10-12T13:43:27Z</time>
      </trkpt>
      <trkpt lat="44.41604" lon="6.4711">
        <ele>1508.45</ele>
        <time>2017-10-12T13:43:41Z</time>
      </trkpt>
      <trkpt lat="44.41603" lon="6.47104">
        <ele>1505.08</ele>
        <time>2017-10-12T13:43:47Z</time>
      </trkpt>
      <trkpt lat="44.41604" lon="6.47086">
        <ele>1502.68</ele>
        <time>2017-10-12T13:44:00Z</time>
      </trkpt>
      <trkpt lat="44.41602" lon="6.47081">
        <ele>1500.76</ele>
        <time>2017-10-12T13:44:04Z</time>
      </trkpt>
      <trkpt lat="44.41599" lon="6.47089">
        <ele>1499.31</ele>
        <time>2017-10-12T13:44:12Z</time>
      </trkpt>
      <trkpt lat="44.41593" lon="6.471">
        <ele>1495.95</ele>
        <time>2017-10-12T13:44:23Z</time>
      </trkpt>
      <trkpt lat="44.41588" lon="6.47107">
        <ele>1494.99</ele>
        <time>2017-10-12T13:44:31Z</time>
      </trkpt>
      <trkpt lat="44.41573" lon="6.47117">
        <ele>1491.14</ele>
        <time>2017-10-12T13:44:44Z</time>
      </trkpt>
      <trkpt lat="44.41564" lon="6.47131">
        <ele>1488.74</ele>
        <time>2017-10-12T13:44:57Z</time>
      </trkpt>
      <trkpt lat="44.41562" lon="6.4714">
        <ele>1486.82</ele>
        <time>2017-10-12T13:45:04Z</time>
      </trkpt>
      <trkpt lat="44.41561" lon="6.47142">
        <ele>1486.82</ele>
        <time>2017-10-12T13:45:06Z</time>
      </trkpt>
      <trkpt lat="44.41557" lon="6.4716">
        <ele>1483.45</ele>
        <time>2017-10-12T13:45:19Z</time>
      </trkpt>
      <trkpt lat="44.41555" lon="6.47177">
        <ele>1481.05</ele>
        <time>2017-10-12T13:45:33Z</time>
      </trkpt>
      <trkpt lat="44.41552" lon="6.4719">
        <ele>1480.09</ele>
        <time>2017-10-12T13:45:49Z</time>
      </trkpt>
      <trkpt lat="44.41552" lon="6.47199">
        <ele>1478.65</ele>
        <time>2017-10-12T13:46:25Z</time>
      </trkpt>
      <trkpt lat="44.41546" lon="6.47197">
        <ele>1478.65</ele>
        <time>2017-10-12T13:46:58Z</time>
      </trkpt>
      <trkpt lat="44.41542" lon="6.47192">
        <ele>1478.65</ele>
        <time>2017-10-12T13:47:22Z</time>
      </trkpt>
      <trkpt lat="44.41543" lon="6.47193">
        <ele>1479.13</ele>
        <time>2017-10-12T13:47:26Z</time>
      </trkpt>
      <trkpt lat="44.41537" lon="6.472">
        <ele>1476.72</ele>
        <time>2017-10-12T13:47:37Z</time>
      </trkpt>
      <trkpt lat="44.41533" lon="6.47202">
        <ele>1477.2</ele>
        <time>2017-10-12T13:47:42Z</time>
      </trkpt>
      <trkpt lat="44.41531" lon="6.47204">
        <ele>1475.76</ele>
        <time>2017-10-12T13:47:45Z</time>
      </trkpt>
      <trkpt lat="44.41522" lon="6.47214">
        <ele>1474.8</ele>
        <time>2017-10-12T13:48:00Z</time>
      </trkpt>
      <trkpt lat="44.41511" lon="6.47219">
        <ele>1472.88</ele>
        <time>2017-10-12T13:48:16Z</time>
      </trkpt>
      <trkpt lat="44.41501" lon="6.47232">
        <ele>1471.44</ele>
        <time>2017-10-12T13:48:31Z</time>
      </trkpt>
      <trkpt lat="44.41494" lon="6.47232">
        <ele>1470.95</ele>
        <time>2017-10-12T13:48:49Z</time>
      </trkpt>
      <trkpt lat="44.41483" lon="6.47226">
        <ele>1468.55</ele>
        <time>2017-10-12T13:49:03Z</time>
      </trkpt>
      <trkpt lat="44.41474" lon="6.47217">
        <ele>1465.19</ele>
        <time>2017-10-12T13:49:17Z</time>
      </trkpt>
      <trkpt lat="44.41467" lon="6.47212">
        <ele>1464.23</ele>
        <time>2017-10-12T13:49:27Z</time>
      </trkpt>
      <trkpt lat="44.41451" lon="6.4721">
        <ele>1462.78</ele>
        <time>2017-10-12T13:49:41Z</time>
      </trkpt>
      <trkpt lat="44.41433" lon="6.47205">
        <ele>1462.78</ele>
        <time>2017-10-12T13:49:57Z</time>
      </trkpt>
      <trkpt lat="44.41414" lon="6.47201">
        <ele>1462.78</ele>
        <time>2017-10-12T13:50:14Z</time>
      </trkpt>
      <trkpt lat="44.41396" lon="6.47202">
        <ele>1462.3</ele>
        <time>2017-10-12T13:50:29Z</time>
      </trkpt>
      <trkpt lat="44.41394" lon="6.47203">
        <ele>1461.82</ele>
        <time>2017-10-12T13:50:32Z</time>
      </trkpt>
      <trkpt lat="44.41377" lon="6.47217">
        <ele>1460.86</ele>
        <time>2017-10-12T13:50:50Z</time>
      </trkpt>
      <trkpt lat="44.41366" lon="6.47215">
        <ele>1460.38</ele>
        <time>2017-10-12T13:51:03Z</time>
      </trkpt>
      <trkpt lat="44.41357" lon="6.47205">
        <ele>1459.9</ele>
        <time>2017-10-12T13:51:14Z</time>
      </trkpt>
      <trkpt lat="44.41336" lon="6.47197">
        <ele>1459.9</ele>
        <time>2017-10-12T13:51:34Z</time>
      </trkpt>
      <trkpt lat="44.41319" lon="6.47193">
        <ele>1459.42</ele>
        <time>2017-10-12T13:51:49Z</time>
      </trkpt>
      <trkpt lat="44.41319" lon="6.47193">
        <ele>1459.42</ele>
        <time>2017-10-12T13:51:50Z</time>
      </trkpt>
      <trkpt lat="44.413" lon="6.47195">
        <ele>1459.42</ele>
        <time>2017-10-12T13:52:07Z</time>
      </trkpt>
      <trkpt lat="44.41288" lon="6.47194">
        <ele>1458.94</ele>
        <time>2017-10-12T13:52:20Z</time>
      </trkpt>
      <trkpt lat="44.41274" lon="6.47187">
        <ele>1459.42</ele>
        <time>2017-10-12T13:52:34Z</time>
      </trkpt>
      <trkpt lat="44.41271" lon="6.47186">
        <ele>1458.94</ele>
        <time>2017-10-12T13:52:38Z</time>
      </trkpt>
      <trkpt lat="44.41255" lon="6.47175">
        <ele>1457.02</ele>
        <time>2017-10-12T13:52:56Z</time>
      </trkpt>
      <trkpt lat="44.4125" lon="6.47167">
        <ele>1456.53</ele>
        <time>2017-10-12T13:53:10Z</time>
      </trkpt>
      <trkpt lat="44.41249" lon="6.47167">
        <ele>1456.05</ele>
        <time>2017-10-12T13:53:28Z</time>
      </trkpt>
      <trkpt lat="44.41254" lon="6.47173">
        <ele>1455.57</ele>
        <time>2017-10-12T13:53:49Z</time>
      </trkpt>
      <trkpt lat="44.41238" lon="6.47173">
        <ele>1454.13</ele>
        <time>2017-10-12T13:54:05Z</time>
      </trkpt>
      <trkpt lat="44.41222" lon="6.47171">
        <ele>1452.21</ele>
        <time>2017-10-12T13:54:20Z</time>
      </trkpt>
      <trkpt lat="44.4122" lon="6.47171">
        <ele>1451.73</ele>
        <time>2017-10-12T13:54:22Z</time>
      </trkpt>
      <trkpt lat="44.41206" lon="6.4717">
        <ele>1451.73</ele>
        <time>2017-10-12T13:54:35Z</time>
      </trkpt>
      <trkpt lat="44.4119" lon="6.47182">
        <ele>1449.81</ele>
        <time>2017-10-12T13:54:51Z</time>
      </trkpt>
      <trkpt lat="44.41187" lon="6.47182">
        <ele>1449.32</ele>
        <time>2017-10-12T13:54:53Z</time>
      </trkpt>
      <trkpt lat="44.41174" lon="6.47194">
        <ele>1447.4</ele>
        <time>2017-10-12T13:55:08Z</time>
      </trkpt>
      <trkpt lat="44.4116" lon="6.47203">
        <ele>1446.44</ele>
        <time>2017-10-12T13:55:22Z</time>
      </trkpt>
      <trkpt lat="44.41153" lon="6.47207">
        <ele>1445.96</ele>
        <time>2017-10-12T13:55:28Z</time>
      </trkpt>
      <trkpt lat="44.41147" lon="6.47211">
        <ele>1445</ele>
        <time>2017-10-12T13:55:34Z</time>
      </trkpt>
      <trkpt lat="44.41131" lon="6.47215">
        <ele>1443.08</ele>
        <time>2017-10-12T13:55:48Z</time>
      </trkpt>
      <trkpt lat="44.41119" lon="6.47213">
        <ele>1441.15</ele>
        <time>2017-10-12T13:56:00Z</time>
      </trkpt>
      <trkpt lat="44.41109" lon="6.47199">
        <ele>1439.23</ele>
        <time>2017-10-12T13:56:13Z</time>
      </trkpt>
      <trkpt lat="44.41107" lon="6.47196">
        <ele>1438.75</ele>
        <time>2017-10-12T13:56:15Z</time>
      </trkpt>
      <trkpt lat="44.41101" lon="6.47172">
        <ele>1437.31</ele>
        <time>2017-10-12T13:56:31Z</time>
      </trkpt>
      <trkpt lat="44.41101" lon="6.47169">
        <ele>1436.83</ele>
        <time>2017-10-12T13:56:33Z</time>
      </trkpt>
      <trkpt lat="44.41103" lon="6.47156">
        <ele>1433.94</ele>
        <time>2017-10-12T13:56:42Z</time>
      </trkpt>
      <trkpt lat="44.41102" lon="6.47154">
        <ele>1433.94</ele>
        <time>2017-10-12T13:57:00Z</time>
      </trkpt>
      <trkpt lat="44.41103" lon="6.47135">
        <ele>1432.5</ele>
        <time>2017-10-12T13:57:13Z</time>
      </trkpt>
      <trkpt lat="44.41106" lon="6.47121">
        <ele>1430.58</ele>
        <time>2017-10-12T13:57:23Z</time>
      </trkpt>
      <trkpt lat="44.41111" lon="6.47122">
        <ele>1430.1</ele>
        <time>2017-10-12T13:57:27Z</time>
      </trkpt>
      <trkpt lat="44.41112" lon="6.4712">
        <ele>1429.62</ele>
        <time>2017-10-12T13:57:29Z</time>
      </trkpt>
      <trkpt lat="44.41114" lon="6.47093">
        <ele>1427.21</ele>
        <time>2017-10-12T13:57:46Z</time>
      </trkpt>
      <trkpt lat="44.4112" lon="6.47078">
        <ele>1425.77</ele>
        <time>2017-10-12T13:58:00Z</time>
      </trkpt>
      <trkpt lat="44.4112" lon="6.47055">
        <ele>1425.29</ele>
        <time>2017-10-12T13:58:16Z</time>
      </trkpt>
      <trkpt lat="44.4112" lon="6.47046">
        <ele>1425.29</ele>
        <time>2017-10-12T13:58:22Z</time>
      </trkpt>
      <trkpt lat="44.41125" lon="6.47022">
        <ele>1423.85</ele>
        <time>2017-10-12T13:58:39Z</time>
      </trkpt>
      <trkpt lat="44.41128" lon="6.47001">
        <ele>1422.41</ele>
        <time>2017-10-12T13:58:56Z</time>
      </trkpt>
      <trkpt lat="44.41128" lon="6.47001">
        <ele>1422.89</ele>
        <time>2017-10-12T13:59:12Z</time>
      </trkpt>
      <trkpt lat="44.41128" lon="6.46999">
        <ele>1421.93</ele>
        <time>2017-10-12T13:59:39Z</time>
      </trkpt>
      <trkpt lat="44.41128" lon="6.46999">
        <ele>1421.93</ele>
        <time>2017-10-12T13:59:55Z</time>
      </trkpt>
      <trkpt lat="44.41129" lon="6.46998">
        <ele>1420.97</ele>
        <time>2017-10-12T14:00:10Z</time>
      </trkpt>
      <trkpt lat="44.4113" lon="6.47001">
        <ele>1420.97</ele>
        <time>2017-10-12T14:00:36Z</time>
      </trkpt>
      <trkpt lat="44.41131" lon="6.47">
        <ele>1420.97</ele>
        <time>2017-10-12T14:00:58Z</time>
      </trkpt>
    </trkseg>
  </trk>
</gpx>